Darstellungsparameter: Aktuell verwendete Einstellungen:
Skalierung der Graphiken ... ?
xyx+y,   Skalierungsfaktor:      Skalierung: Modus: x, Faktor: 1
Darstellungszeitraum ... ?
Vom - - bis: - -   Zeitraum: 15.05.2010 - 14.05.2020
Min/Max/Avg-Anzeige ... ?
Zeige MMA aktuell
Zeige MMA Monat
Zeige MMA alles
Zeige --A aktuell
Zeige --A Monat
Zeige --A alles
Keine MMA-Anzeige
MMA:
Minimum Maximum Average (ber die Originaldaten)
MMA-Basis: 14.04.2020 - 16.05.2020
Quicknavigation für Darstellung... ?
Tage:      1T, 2T, 3T, 5T -1T -2T -3T -5T +1T +2T +3T +5T
Wochen: 1W, 2W, 3W -1W -2W -3W +1W +2W +3W
Monate: 1M, 3M, 6M -1M -3M -6M +1M +3M +6M
Jahre:    1J, 3J, 5J, 10J -1J -3J -5J -10J +1J +3J +5J +10J
Nutze für die Darstellung ... ?
Originaldaten oder ...
Mittelwerte Minima Maxima auf...
Stundenbasis Tagesbasis Wochenbasis
Monatsbasis Jahresbasis      Datenbasis: Mittelwerte auf Stundenbasis
Darstellen als:
Statistik (Auto) Statistik J:M      Darstellung:
Zur Graphik,    zurück zur Übersicht aller Sensoren.
 
Tabellarische Datenbersicht: ?
 
Sensor: Nr:Datum:Temp:Abs-Feuchte:Windchill:Wind:
Aussen-T/F 1 15-05-2010 00:00:00 7.9 C 7.2 g/m*3 7.9 C 0 km/h
2 15-05-2010 01:00:00 7.7 C 7.14 g/m*3 7.7 C 0 km/h
3 15-05-2010 02:00:00 7.64 C 7.17 g/m*3 7.64 C 0 km/h
4 15-05-2010 03:00:00 7.6 C 7.22 g/m*3 7.6 C 0 km/h
5 15-05-2010 04:00:00 7.6 C 7.25 g/m*3 7.6 C 0 km/h
6 15-05-2010 05:00:00 7.26 C 7.17 g/m*3 7.26 C 0 km/h
7 15-05-2010 06:00:00 7.1 C 7.14 g/m*3 7.1 C 0 km/h
8 15-05-2010 07:00:00 7.6 C 7.4 g/m*3 7.6 C 0 km/h
9 15-05-2010 08:00:00 8.48 C 7.26 g/m*3 8.48 C 0 km/h
10 15-05-2010 09:00:00 9.48 C 6.82 g/m*3 9.48 C 0 km/h
11 15-05-2010 10:00:00 10.8 C 6.42 g/m*3 10.8 C 0 km/h
12 15-05-2010 11:00:00 11.2 C 6.12 g/m*3 11.2 C 0 km/h
13 15-05-2010 12:00:00 11.64 C 5.44 g/m*3 11.64 C 0 km/h
14 15-05-2010 13:00:00 12.06 C 4.84 g/m*3 12.06 C 0 km/h
15 15-05-2010 14:00:00 14.26 C 4.19 g/m*3 14.26 C 0 km/h
16 15-05-2010 15:00:00 15.5 C 3.01 g/m*3 15.5 C 0 km/h
17 15-05-2010 16:00:00 14.78 C 2.76 g/m*3 14.78 C 0 km/h
18 15-05-2010 17:00:00 14 C 3.16 g/m*3 14 C 0 km/h
19 15-05-2010 18:00:00 13.82 C 3.46 g/m*3 13.82 C 0 km/h
20 15-05-2010 19:00:00 14.58 C 3.4 g/m*3 14.58 C 0 km/h
21 15-05-2010 20:00:00 12.5 C 4.49 g/m*3 12.5 C 0 km/h
22 15-05-2010 21:00:00 10.98 C 4.68 g/m*3 10.98 C 0 km/h
23 15-05-2010 22:00:00 11.06 C 4.82 g/m*3 11.06 C 0 km/h
24 15-05-2010 23:00:00 10.84 C 4.97 g/m*3 10.84 C 0 km/h
25 16-05-2010 00:00:00 10.1 C 5.33 g/m*3 10.1 C 0 km/h
Sensor: Nr:Datum:Temp:Abs-Feuchte:Windchill:Wind:
Aussen-T/F 26 16-05-2010 01:00:00 9.34 C 5.68 g/m*3 9.34 C 0 km/h
27 16-05-2010 02:00:00 8.04 C 5.88 g/m*3 8.04 C 0 km/h
28 16-05-2010 03:00:00 7.48 C 5.9 g/m*3 7.48 C 0 km/h
29 16-05-2010 04:00:00 7.6 C 5.95 g/m*3 7.6 C 0 km/h
30 16-05-2010 05:00:00 7.3 C 5.93 g/m*3 7.3 C 0 km/h
31 16-05-2010 06:00:00 7.42 C 5.99 g/m*3 7.42 C 0 km/h
32 16-05-2010 07:00:00 7.84 C 6.07 g/m*3 7.84 C 0 km/h
33 16-05-2010 08:00:00 8.72 C 6.1 g/m*3 8.72 C 0 km/h
34 16-05-2010 09:00:00 10.96 C 4.87 g/m*3 10.96 C 0 km/h
35 16-05-2010 10:00:00 12.56 C 4.19 g/m*3 12.56 C 0 km/h
36 16-05-2010 11:00:00 14.84 C 3.99 g/m*3 14.84 C 0 km/h
37 16-05-2010 12:00:00 16.64 C 3.6 g/m*3 16.64 C 0 km/h
38 16-05-2010 13:00:00 17.66 C 3.52 g/m*3 17.66 C 0 km/h
39 16-05-2010 14:00:00 17.92 C 3.55 g/m*3 17.92 C 0 km/h
40 16-05-2010 15:00:00 19.5 C 3.36 g/m*3 19.5 C 0 km/h
41 16-05-2010 16:00:00 20.54 C 3.57 g/m*3 20.54 C 0 km/h
42 16-05-2010 17:00:00 21.3 C 3.73 g/m*3 21.3 C 0 km/h
43 16-05-2010 18:00:00 19.82 C 3.52 g/m*3 19.82 C 0 km/h
44 16-05-2010 19:00:00 18.86 C 3.68 g/m*3 18.86 C 0 km/h
45 16-05-2010 20:00:00 17.96 C 4.47 g/m*3 17.96 C 0 km/h
46 16-05-2010 21:00:00 14.28 C 4.81 g/m*3 14.28 C 0 km/h
47 16-05-2010 22:00:00 12.36 C 5.34 g/m*3 12.36 C 0 km/h
48 16-05-2010 23:00:00 10.86 C 5.81 g/m*3 10.86 C 0 km/h
49 17-05-2010 00:00:00 10.12 C 5.96 g/m*3 10.12 C 0 km/h
50 17-05-2010 01:00:00 9.36 C 5.99 g/m*3 9.36 C 0 km/h
Sensor: Nr:Datum:Temp:Abs-Feuchte:Windchill:Wind:
Aussen-T/F 51 17-05-2010 02:00:00 8.56 C 6.14 g/m*3 8.56 C 0 km/h
52 17-05-2010 03:00:00 7.64 C 6.12 g/m*3 7.64 C 0 km/h
53 17-05-2010 04:00:00 6.96 C 6.11 g/m*3 6.96 C 0 km/h
54 17-05-2010 05:00:00 6.22 C 6.08 g/m*3 6.22 C 0 km/h
55 17-05-2010 06:00:00 6 C 6.05 g/m*3 6 C 0 km/h
56 17-05-2010 07:00:00 7.08 C 6.18 g/m*3 7.08 C 0 km/h
57 17-05-2010 08:00:00 9.42 C 6.28 g/m*3 9.42 C 0 km/h
58 17-05-2010 09:00:00 11.88 C 6.43 g/m*3 11.88 C 0 km/h
59 17-05-2010 10:00:00 13.7 C 6.39 g/m*3 13.7 C 0 km/h
60 17-05-2010 11:00:00 13.6 C 6.87 g/m*3 13.6 C 0 km/h
61 17-05-2010 12:00:00 13.88 C 7.45 g/m*3 13.88 C 0 km/h
62 17-05-2010 13:00:00 16.62 C 6.68 g/m*3 16.62 C 0 km/h
63 17-05-2010 14:00:00 15.88 C 6.98 g/m*3 15.88 C 0 km/h
64 17-05-2010 15:00:00 12.66 C 9.22 g/m*3 12.66 C 0 km/h
65 17-05-2010 16:00:00 13.44 C 9.46 g/m*3 13.44 C 0 km/h
66 17-05-2010 17:00:00 13.86 C 8.92 g/m*3 13.86 C 0 km/h
67 17-05-2010 18:00:00 12.1 C 7.59 g/m*3 12.1 C 0 km/h
68 17-05-2010 19:00:00 10.04 C 7.8 g/m*3 10.04 C 0 km/h
69 17-05-2010 20:00:00 9.46 C 7.86 g/m*3 9.46 C 0 km/h
70 17-05-2010 21:00:00 8.88 C 7.82 g/m*3 8.88 C 0 km/h
71 17-05-2010 22:00:00 8.5 C 7.82 g/m*3 8.5 C 0 km/h
72 17-05-2010 23:00:00 7.8 C 7.52 g/m*3 7.8 C 0 km/h
73 18-05-2010 00:00:00 7.08 C 7.18 g/m*3 7.08 C 0 km/h
74 18-05-2010 01:00:00 6.46 C 6.94 g/m*3 6.46 C 0 km/h
75 18-05-2010 02:00:00 6.1 C 6.79 g/m*3 6.1 C 0 km/h
Sensor: Nr:Datum:Temp:Abs-Feuchte:Windchill:Wind:
Aussen-T/F 76 18-05-2010 03:00:00 5.8 C 6.69 g/m*3 5.8 C 0 km/h
77 18-05-2010 04:00:00 6.28 C 6.93 g/m*3 6.28 C 0 km/h
78 18-05-2010 05:00:00 6.5 C 7 g/m*3 6.5 C 0 km/h
79 18-05-2010 06:00:00 7.14 C 7.21 g/m*3 7.14 C 0 km/h
80 18-05-2010 07:00:00 8.2 C 7.47 g/m*3 8.2 C 0 km/h
81 18-05-2010 08:00:00 9.04 C 6.68 g/m*3 9.04 C 0 km/h
82 18-05-2010 09:00:00 9.7 C 6.27 g/m*3 9.7 C 0 km/h
83 18-05-2010 10:00:00 10.84 C 5.79 g/m*3 10.84 C 0 km/h
84 18-05-2010 11:00:00 12.74 C 5.31 g/m*3 12.74 C 0 km/h
85 18-05-2010 12:00:00 14.04 C 4.93 g/m*3 14.04 C 0 km/h
86 18-05-2010 13:00:00 16.76 C 4.48 g/m*3 16.76 C 0 km/h
87 18-05-2010 14:00:00 15.6 C 4.2 g/m*3 15.6 C 0 km/h
88 18-05-2010 15:00:00 16.48 C 4.15 g/m*3 16.48 C 0 km/h
89 18-05-2010 16:00:00 17.74 C 3.51 g/m*3 17.74 C 0 km/h
90 18-05-2010 17:00:00 17.16 C 3.77 g/m*3 17.16 C 0 km/h
91 18-05-2010 18:00:00 17.18 C 3.95 g/m*3 17.18 C 0 km/h
92 18-05-2010 19:00:00 15.32 C 4.45 g/m*3 15.32 C 0 km/h
93 18-05-2010 20:00:00 14.26 C 4.83 g/m*3 14.26 C 0 km/h
94 18-05-2010 21:00:00 12.8 C 4.68 g/m*3 12.8 C 0 km/h
95 18-05-2010 22:00:00 11.44 C 4.57 g/m*3 11.44 C 0 km/h
96 18-05-2010 23:00:00 9.98 C 5.41 g/m*3 9.98 C 0 km/h
97 19-05-2010 00:00:00 9.32 C 5.76 g/m*3 9.32 C 0 km/h
98 19-05-2010 01:00:00 9.28 C 5.37 g/m*3 9.28 C 0 km/h
99 19-05-2010 02:00:00 9.06 C 5.33 g/m*3 9.06 C 0 km/h
100 19-05-2010 03:00:00 8.68 C 5.36 g/m*3 8.68 C 0 km/h
Sensor: Nr:Datum:Temp:Abs-Feuchte:Windchill:Wind:
Aussen-T/F 101 19-05-2010 04:00:00 8.16 C 5.55 g/m*3 8.16 C 0 km/h
102 19-05-2010 05:00:00 7.92 C 5.86 g/m*3 7.92 C 0 km/h
103 19-05-2010 06:00:00 8.04 C 5.93 g/m*3 8.04 C 0 km/h
104 19-05-2010 07:00:00 8.66 C 5.9 g/m*3 8.66 C 0 km/h
105 19-05-2010 08:00:00 9.14 C 5.62 g/m*3 9.14 C 0 km/h
106 19-05-2010 09:00:00 9.18 C 5.73 g/m*3 9.18 C 0 km/h
107 19-05-2010 10:00:00 9.62 C 5.72 g/m*3 9.62 C 0 km/h
108 19-05-2010 11:00:00 10.22 C 5.81 g/m*3 10.22 C 0 km/h
109 19-05-2010 12:00:00 11.02 C 5.83 g/m*3 11.02 C 0 km/h
110 19-05-2010 13:00:00 11.54 C 5.92 g/m*3 11.54 C 0 km/h
111 19-05-2010 14:00:00 11.46 C 6.78 g/m*3 11.46 C 0 km/h
112 19-05-2010 15:00:00 11.4 C 7.76 g/m*3 11.4 C 0 km/h
113 19-05-2010 16:00:00 10.78 C 8.08 g/m*3 10.78 C 0 km/h
114 19-05-2010 17:00:00 10.68 C 8.32 g/m*3 10.68 C 0 km/h
115 19-05-2010 18:00:00 11.14 C 8.22 g/m*3 11.14 C 0 km/h
116 19-05-2010 19:00:00 11.48 C 8.03 g/m*3 11.48 C 0 km/h
117 19-05-2010 20:00:00 11.76 C 7.73 g/m*3 11.76 C 0 km/h
118 19-05-2010 21:00:00 12.94 C 5.83 g/m*3 12.94 C 0 km/h
119 19-05-2010 22:00:00 13.06 C 5.69 g/m*3 13.06 C 0 km/h
120 19-05-2010 23:00:00 12.8 C 5.82 g/m*3 12.8 C 0 km/h
121 20-05-2010 00:00:00 12.9 C 5.21 g/m*3 12.9 C 0 km/h
122 20-05-2010 01:00:00 12.5 C 5.41 g/m*3 12.5 C 0 km/h
123 20-05-2010 02:00:00 11.9 C 5.61 g/m*3 11.9 C 0 km/h
124 20-05-2010 03:00:00 11.52 C 5.5 g/m*3 11.52 C 0 km/h
125 20-05-2010 04:00:00 11.16 C 5.3 g/m*3 11.16 C 0 km/h
Sensor: Nr:Datum:Temp:Abs-Feuchte:Windchill:Wind:
Aussen-T/F 126 20-05-2010 05:00:00 11.02 C 5.23 g/m*3 11.02 C 0 km/h
127 20-05-2010 06:00:00 11.02 C 5.19 g/m*3 11.02 C 0 km/h
128 20-05-2010 07:00:00 11.26 C 5.25 g/m*3 11.26 C 0 km/h
129 20-05-2010 08:00:00 11.14 C 5.35 g/m*3 11.14 C 0 km/h
130 20-05-2010 09:00:00 11.82 C 5.42 g/m*3 11.82 C 0 km/h
131 20-05-2010 10:00:00 12.3 C 5.39 g/m*3 12.3 C 0 km/h
132 20-05-2010 11:00:00 13.1 C 5.16 g/m*3 13.1 C 0 km/h
133 20-05-2010 12:00:00 14.04 C 4.89 g/m*3 14.04 C 0 km/h
134 20-05-2010 13:00:00 13.42 C 6.08 g/m*3 13.42 C 0 km/h
135 20-05-2010 14:00:00 13.58 C 7.59 g/m*3 13.58 C 0 km/h
136 20-05-2010 15:00:00 12.74 C 7.68 g/m*3 12.74 C 0 km/h
137 20-05-2010 16:00:00 12.76 C 7.71 g/m*3 12.76 C 0 km/h
138 20-05-2010 17:00:00 14 C 7.74 g/m*3 14 C 0 km/h
139 20-05-2010 18:00:00 14.7 C 7.88 g/m*3 14.7 C 0 km/h
140 20-05-2010 19:00:00 14.8 C 8.18 g/m*3 14.8 C 0 km/h
141 20-05-2010 20:00:00 14.36 C 7.92 g/m*3 14.36 C 0 km/h
142 20-05-2010 21:00:00 12.98 C 7.61 g/m*3 12.98 C 0 km/h
143 20-05-2010 22:00:00 12.3 C 7.21 g/m*3 12.3 C 0 km/h
144 20-05-2010 23:00:00 11.9 C 7.54 g/m*3 11.9 C 0 km/h
145 21-05-2010 00:00:00 10.64 C 7.3 g/m*3 10.64 C 0 km/h
146 21-05-2010 01:00:00 10.14 C 7.3 g/m*3 10.14 C 0 km/h
147 21-05-2010 02:00:00 9.5 C 7.26 g/m*3 9.5 C 0 km/h
148 21-05-2010 03:00:00 8.62 C 7.26 g/m*3 8.62 C 0 km/h
149 21-05-2010 04:00:00 7.88 C 7.12 g/m*3 7.88 C 0 km/h
150 21-05-2010 05:00:00 8.1 C 7.32 g/m*3 8.1 C 0 km/h
Sensor: Nr:Datum:Temp:Abs-Feuchte:Windchill:Wind:
Aussen-T/F 151 21-05-2010 06:00:00 8.08 C 7.43 g/m*3 8.08 C 0 km/h
152 21-05-2010 07:00:00 8.52 C 7.57 g/m*3 8.52 C 0 km/h
153 21-05-2010 08:00:00 9.2 C 7.55 g/m*3 9.2 C 0 km/h
154 21-05-2010 09:00:00 10.82 C 7.9 g/m*3 10.82 C 0 km/h
155 21-05-2010 10:00:00 14.58 C 8.3 g/m*3 14.58 C 0 km/h
156 21-05-2010 11:00:00 18.46 C 7.36 g/m*3 18.46 C 0 km/h
157 21-05-2010 12:00:00 20.54 C 6.03 g/m*3 20.54 C 0 km/h
158 21-05-2010 13:00:00 23.78 C 5.11 g/m*3 23.78 C 0 km/h
159 21-05-2010 14:00:00 23.88 C 5.23 g/m*3 23.88 C 0 km/h
160 21-05-2010 15:00:00 25.42 C 5.14 g/m*3 25.42 C 0 km/h
161 21-05-2010 16:00:00 25.28 C 4.86 g/m*3 25.28 C 0 km/h
162 21-05-2010 17:00:00 26.14 C 4.91 g/m*3 26.14 C 0 km/h
163 21-05-2010 18:00:00 25.94 C 5.05 g/m*3 25.94 C 0 km/h
164 21-05-2010 19:00:00 24.44 C 5.8 g/m*3 24.44 C 0 km/h
165 21-05-2010 20:00:00 22.66 C 6.25 g/m*3 22.66 C 0 km/h
166 21-05-2010 21:00:00 20.08 C 6.6 g/m*3 20.08 C 0 km/h
167 21-05-2010 22:00:00 18.08 C 7.16 g/m*3 18.08 C 0 km/h
168 21-05-2010 23:00:00 16.26 C 7.28 g/m*3 16.26 C 0 km/h
169 22-05-2010 00:00:00 15.08 C 7.63 g/m*3 15.08 C 0 km/h
170 22-05-2010 01:00:00 13.88 C 7.83 g/m*3 13.88 C 0 km/h
171 22-05-2010 02:00:00 12.74 C 7.92 g/m*3 12.74 C 0 km/h
172 22-05-2010 03:00:00 12 C 7.93 g/m*3 12 C 0 km/h
173 22-05-2010 04:00:00 11.06 C 7.9 g/m*3 11.06 C 0 km/h
174 22-05-2010 05:00:00 10.3 C 7.78 g/m*3 10.3 C 0 km/h
175 22-05-2010 06:00:00 9.96 C 7.74 g/m*3 9.96 C 0 km/h
Sensor: Nr:Datum:Temp:Abs-Feuchte:Windchill:Wind:
Aussen-T/F 176 22-05-2010 07:00:00 10.54 C 7.97 g/m*3 10.54 C 0 km/h
177 22-05-2010 08:00:00 12.32 C 7.96 g/m*3 12.32 C 0 km/h
178 22-05-2010 09:00:00 14 C 7.33 g/m*3 14 C 0 km/h
179 22-05-2010 10:00:00 16.16 C 6.3 g/m*3 16.16 C 0 km/h
180 22-05-2010 11:00:00 18.3 C 6.1 g/m*3 18.3 C 0 km/h
181 22-05-2010 12:00:00 21.18 C 5.85 g/m*3 21.18 C 0 km/h
182 22-05-2010 13:00:00 24.24 C 5.6 g/m*3 24.24 C 0 km/h
183 22-05-2010 14:00:00 23.96 C 5.6 g/m*3 23.96 C 0 km/h
184 22-05-2010 15:00:00 25.34 C 5.96 g/m*3 25.34 C 0 km/h
185 22-05-2010 16:00:00 25.9 C 6.15 g/m*3 25.9 C 0 km/h
186 22-05-2010 17:00:00 26.88 C 6.39 g/m*3 26.88 C 0 km/h
187 22-05-2010 18:00:00 26.56 C 6.53 g/m*3 26.56 C 0 km/h
188 22-05-2010 19:00:00 26.3 C 6.68 g/m*3 26.3 C 0 km/h
189 22-05-2010 20:00:00 24.48 C 7.24 g/m*3 24.48 C 0 km/h
190 22-05-2010 21:00:00 21.4 C 7.39 g/m*3 21.4 C 0 km/h
191 22-05-2010 22:00:00 19.34 C 7.12 g/m*3 19.34 C 0 km/h
192 22-05-2010 23:00:00 17.9 C 7.48 g/m*3 17.9 C 0 km/h
193 23-05-2010 00:00:00 16.64 C 7.84 g/m*3 16.64 C 0 km/h
194 23-05-2010 01:00:00 15.14 C 8.23 g/m*3 15.14 C 0 km/h
195 23-05-2010 02:00:00 14.14 C 8.39 g/m*3 14.14 C 0 km/h
196 23-05-2010 03:00:00 13.42 C 8.5 g/m*3 13.42 C 0 km/h
197 23-05-2010 04:00:00 12.58 C 8.49 g/m*3 12.58 C 0 km/h
198 23-05-2010 05:00:00 11.92 C 8.38 g/m*3 11.92 C 0 km/h
199 23-05-2010 06:00:00 11.52 C 8.34 g/m*3 11.52 C 0 km/h
200 23-05-2010 07:00:00 11.94 C 8.66 g/m*3 11.94 C 0 km/h
Sensor: Nr:Datum:Temp:Abs-Feuchte:Windchill:Wind:
Aussen-T/F 201 23-05-2010 08:00:00 13.84 C 9.24 g/m*3 13.84 C 0 km/h
202 23-05-2010 09:00:00 16.18 C 9.28 g/m*3 16.18 C 0 km/h
203 23-05-2010 10:00:00 19.2 C 9.33 g/m*3 19.2 C 0 km/h
204 23-05-2010 11:00:00 20.9 C 8.63 g/m*3 20.9 C 0 km/h
205 23-05-2010 12:00:00 23.64 C 7.03 g/m*3 23.64 C 0 km/h
206 23-05-2010 13:00:00 26.36 C 5.07 g/m*3 26.36 C 0 km/h
207 23-05-2010 14:00:00 26.1 C 5.63 g/m*3 26.1 C 0 km/h
208 23-05-2010 15:00:00 27.88 C 5.78 g/m*3 27.88 C 0 km/h
209 23-05-2010 16:00:00 28.74 C 5.66 g/m*3 28.74 C 0 km/h
210 23-05-2010 17:00:00 29.64 C 6.07 g/m*3 29.64 C 0 km/h
211 23-05-2010 18:00:00 28.82 C 6.6 g/m*3 28.82 C 0 km/h
212 23-05-2010 19:00:00 28.12 C 6.79 g/m*3 28.12 C 0 km/h
213 23-05-2010 20:00:00 26.48 C 7.35 g/m*3 26.48 C 0 km/h
214 23-05-2010 21:00:00 23.54 C 7.8 g/m*3 23.54 C 0 km/h
215 23-05-2010 22:00:00 21.36 C 8.49 g/m*3 21.36 C 0 km/h
216 23-05-2010 23:00:00 19.6 C 8.95 g/m*3 19.6 C 0 km/h
217 24-05-2010 00:00:00 17.84 C 9.19 g/m*3 17.84 C 0 km/h
218 24-05-2010 01:00:00 16.58 C 9.4 g/m*3 16.58 C 0 km/h
219 24-05-2010 02:00:00 15.46 C 9.44 g/m*3 15.46 C 0 km/h
220 24-05-2010 03:00:00 14.5 C 9.3 g/m*3 14.5 C 0 km/h
221 24-05-2010 04:00:00 13.82 C 9.19 g/m*3 13.82 C 0 km/h
222 24-05-2010 05:00:00 13.12 C 8.87 g/m*3 13.12 C 0 km/h
223 24-05-2010 06:00:00 12.74 C 8.95 g/m*3 12.74 C 0 km/h
224 24-05-2010 07:00:00 13.6 C 9.25 g/m*3 13.6 C 0 km/h
225 24-05-2010 08:00:00 14.88 C 9.52 g/m*3 14.88 C 0 km/h
Sensor: Nr:Datum:Temp:Abs-Feuchte:Windchill:Wind:
Aussen-T/F 226 24-05-2010 09:00:00 17.62 C 9.79 g/m*3 17.62 C 0 km/h
227 24-05-2010 10:00:00 21.1 C 9.51 g/m*3 21.1 C 0 km/h
228 24-05-2010 11:00:00 23.82 C 8.79 g/m*3 23.82 C 0 km/h
229 24-05-2010 12:00:00 26.18 C 7.23 g/m*3 26.18 C 0 km/h
230 24-05-2010 13:00:00 26.9 C 6.5 g/m*3 26.9 C 0 km/h
231 24-05-2010 14:00:00 28.28 C 6.41 g/m*3 28.28 C 0 km/h
232 24-05-2010 15:00:00 28.18 C 6.43 g/m*3 28.18 C 0 km/h
233 24-05-2010 16:00:00 27.62 C 6.5 g/m*3 27.62 C 0 km/h
234 24-05-2010 17:00:00 28.2 C 5.66 g/m*3 28.2 C 0 km/h
235 24-05-2010 18:00:00 28.58 C 5.67 g/m*3 28.58 C 0 km/h
236 24-05-2010 19:00:00 28.36 C 5.77 g/m*3 28.36 C 0 km/h
237 24-05-2010 20:00:00 26.64 C 6.61 g/m*3 26.64 C 0 km/h
238 24-05-2010 21:00:00 23.78 C 7.22 g/m*3 23.78 C 0 km/h
239 24-05-2010 22:00:00 21.86 C 7.93 g/m*3 21.86 C 0 km/h
240 24-05-2010 23:00:00 19.86 C 8.3 g/m*3 19.86 C 0 km/h
241 25-05-2010 00:00:00 18.5 C 8.54 g/m*3 18.5 C 0 km/h
242 25-05-2010 01:00:00 17.18 C 8.86 g/m*3 17.18 C 0 km/h
243 25-05-2010 02:00:00 16 C 8.94 g/m*3 16 C 0 km/h
244 25-05-2010 03:00:00 14.96 C 9.11 g/m*3 14.96 C 0 km/h
245 25-05-2010 04:00:00 14.18 C 9.17 g/m*3 14.18 C 0 km/h
246 25-05-2010 05:00:00 13.9 C 9.11 g/m*3 13.9 C 0 km/h
247 25-05-2010 06:00:00 14.58 C 9.22 g/m*3 14.58 C 0 km/h
248 25-05-2010 07:00:00 15.6 C 9.12 g/m*3 15.6 C 0 km/h
249 25-05-2010 08:00:00 16.78 C 9.14 g/m*3 16.78 C 0 km/h
250 25-05-2010 09:00:00 18.62 C 8.03 g/m*3 18.62 C 0 km/h
Sensor: Nr:Datum:Temp:Abs-Feuchte:Windchill:Wind:
Aussen-T/F 251 25-05-2010 10:00:00 20.62 C 6.84 g/m*3 20.62 C 0 km/h
252 25-05-2010 11:00:00 21.64 C 6.46 g/m*3 21.64 C 0 km/h
253 25-05-2010 12:00:00 23.94 C 5.68 g/m*3 23.94 C 0 km/h
254 25-05-2010 13:00:00 26.72 C 5.32 g/m*3 26.72 C 0 km/h
255 25-05-2010 14:00:00 26.32 C 5.55 g/m*3 26.32 C 0 km/h
256 25-05-2010 15:00:00 26.9 C 5.73 g/m*3 26.9 C 0 km/h
257 25-05-2010 16:00:00 27.92 C 5.85 g/m*3 27.92 C 0 km/h
258 25-05-2010 17:00:00 28.06 C 6 g/m*3 28.06 C 0 km/h
259 25-05-2010 18:00:00 26.32 C 5.7 g/m*3 26.32 C 0 km/h
260 25-05-2010 19:00:00 24.46 C 5.94 g/m*3 24.46 C 0 km/h
261 25-05-2010 20:00:00 22.84 C 6.23 g/m*3 22.84 C 0 km/h
262 25-05-2010 21:00:00 21.18 C 6.89 g/m*3 21.18 C 0 km/h
263 25-05-2010 22:00:00 19.44 C 6.89 g/m*3 19.44 C 0 km/h
264 25-05-2010 23:00:00 18.84 C 6.84 g/m*3 18.84 C 0 km/h
265 26-05-2010 00:00:00 18.52 C 6.56 g/m*3 18.52 C 0 km/h
266 26-05-2010 01:00:00 16.86 C 6.94 g/m*3 16.86 C 0 km/h
267 26-05-2010 02:00:00 14.42 C 8.56 g/m*3 14.42 C 0 km/h
268 26-05-2010 03:00:00 14.6 C 8.43 g/m*3 14.6 C 0 km/h
269 26-05-2010 04:00:00 14.72 C 7.69 g/m*3 14.72 C 0 km/h
270 26-05-2010 05:00:00 14.66 C 7.36 g/m*3 14.66 C 0 km/h
271 26-05-2010 06:00:00 14.68 C 7.8 g/m*3 14.68 C 0 km/h
272 26-05-2010 07:00:00 15.68 C 6.66 g/m*3 15.68 C 0 km/h
273 26-05-2010 08:00:00 15.96 C 6.44 g/m*3 15.96 C 0 km/h
274 26-05-2010 09:00:00 16.68 C 6.47 g/m*3 16.68 C 0 km/h
275 26-05-2010 10:00:00 15.12 C 8.11 g/m*3 15.12 C 0 km/h
Sensor: Nr:Datum:Temp:Abs-Feuchte:Windchill:Wind:
Aussen-T/F 276 26-05-2010 11:00:00 13.24 C 9.6 g/m*3 13.24 C 0 km/h
277 26-05-2010 12:00:00 13.1 C 9.86 g/m*3 13.1 C 0 km/h
278 26-05-2010 13:00:00 12.88 C 9.77 g/m*3 12.88 C 0 km/h
279 26-05-2010 14:00:00 15.2 C 9.73 g/m*3 15.2 C 0 km/h
280 26-05-2010 15:00:00 14.76 C 9.83 g/m*3 14.76 C 0 km/h
281 26-05-2010 16:00:00 18.96 C 10.63 g/m*3 18.96 C 0 km/h
282 26-05-2010 17:00:00 16.38 C 11.38 g/m*3 16.38 C 0 km/h
283 26-05-2010 18:00:00 17.22 C 12.64 g/m*3 17.22 C 0 km/h
284 26-05-2010 19:00:00 18.98 C 12.83 g/m*3 18.98 C 0 km/h
285 26-05-2010 20:00:00 16.86 C 11.77 g/m*3 16.86 C 0 km/h
286 26-05-2010 21:00:00 15.2 C 10.64 g/m*3 15.2 C 0 km/h
287 26-05-2010 22:00:00 12.86 C 8.84 g/m*3 12.86 C 0 km/h
288 26-05-2010 23:00:00 12.52 C 8.5 g/m*3 12.52 C 0 km/h
289 27-05-2010 00:00:00 12.36 C 8.39 g/m*3 12.36 C 0 km/h
290 27-05-2010 01:00:00 11.9 C 8.15 g/m*3 11.9 C 0 km/h
291 27-05-2010 02:00:00 11.24 C 8.11 g/m*3 11.24 C 0 km/h
292 27-05-2010 03:00:00 11.16 C 7.97 g/m*3 11.16 C 0 km/h
293 27-05-2010 04:00:00 10.88 C 7.85 g/m*3 10.88 C 0 km/h
294 27-05-2010 05:00:00 10.74 C 7.78 g/m*3 10.74 C 0 km/h
295 27-05-2010 06:00:00 11 C 7.85 g/m*3 11 C 0 km/h
296 27-05-2010 07:00:00 11.3 C 7.96 g/m*3 11.3 C 0 km/h
297 27-05-2010 08:00:00 11.72 C 8.06 g/m*3 11.72 C 0 km/h
298 27-05-2010 09:00:00 12.02 C 7.79 g/m*3 12.02 C 0 km/h
299 27-05-2010 10:00:00 13.04 C 7.55 g/m*3 13.04 C 0 km/h
300 27-05-2010 11:00:00 14.8 C 7.12 g/m*3 14.8 C 0 km/h
Sensor: Nr:Datum:Temp:Abs-Feuchte:Windchill:Wind:
Aussen-T/F 301 27-05-2010 12:00:00 16.14 C 6.73 g/m*3 16.14 C 0 km/h
302 27-05-2010 13:00:00 17.44 C 6.57 g/m*3 17.44 C 0 km/h
303 27-05-2010 14:00:00 20.62 C 6.63 g/m*3 20.62 C 0 km/h
304 27-05-2010 15:00:00 22.3 C 6.4 g/m*3 22.3 C 0 km/h
305 27-05-2010 16:00:00 23.36 C 6.46 g/m*3 23.36 C 0 km/h
306 27-05-2010 17:00:00 23.44 C 6.66 g/m*3 23.44 C 0 km/h
307 27-05-2010 18:00:00 23.08 C 7.14 g/m*3 23.08 C 0 km/h
308 27-05-2010 19:00:00 20.84 C 8.35 g/m*3 20.84 C 0 km/h
309 27-05-2010 20:00:00 18.04 C 8.9 g/m*3 18.04 C 0 km/h
310 27-05-2010 21:00:00 15.78 C 9.55 g/m*3 15.78 C 0 km/h
311 27-05-2010 22:00:00 16.06 C 9.27 g/m*3 16.06 C 0 km/h
312 27-05-2010 23:00:00 15.56 C 9.71 g/m*3 15.56 C 0 km/h
313 28-05-2010 00:00:00 15 C 9.64 g/m*3 15 C 0 km/h
314 28-05-2010 01:00:00 15.14 C 9.16 g/m*3 15.14 C 0 km/h
315 28-05-2010 02:00:00 14.86 C 9.23 g/m*3 14.86 C 0 km/h
316 28-05-2010 03:00:00 14.78 C 9.16 g/m*3 14.78 C 0 km/h
317 28-05-2010 04:00:00 14.36 C 9.2 g/m*3 14.36 C 0 km/h
318 28-05-2010 05:00:00 13.7 C 9.88 g/m*3 13.7 C 0 km/h
319 28-05-2010 06:00:00 13.62 C 10.11 g/m*3 13.62 C 0 km/h
320 28-05-2010 07:00:00 13.98 C 10.48 g/m*3 13.98 C 0 km/h
321 28-05-2010 08:00:00 14.36 C 10.58 g/m*3 14.36 C 0 km/h
322 28-05-2010 09:00:00 15.12 C 9.71 g/m*3 15.12 C 0 km/h
323 28-05-2010 10:00:00 15.64 C 8.56 g/m*3 15.64 C 0 km/h
324 28-05-2010 11:00:00 17.2 C 7.26 g/m*3 17.2 C 0 km/h
325 28-05-2010 12:00:00 18.4 C 7.14 g/m*3 18.4 C 0 km/h
Sensor: Nr:Datum:Temp:Abs-Feuchte:Windchill:Wind:
Aussen-T/F 326 28-05-2010 13:00:00 20.24 C 6.62 g/m*3 20.24 C 0 km/h
327 28-05-2010 14:00:00 19.4 C 6.21 g/m*3 19.4 C 0 km/h
328 28-05-2010 15:00:00 21.72 C 5.46 g/m*3 21.72 C 0 km/h
329 28-05-2010 16:00:00 23.06 C 4.37 g/m*3 23.06 C 0 km/h
330 28-05-2010 17:00:00 23.2 C 4.16 g/m*3 23.2 C 0 km/h
331 28-05-2010 18:00:00 22.62 C 4.1 g/m*3 22.62 C 0 km/h
332 28-05-2010 19:00:00 22.14 C 4.66 g/m*3 22.14 C 0 km/h
333 28-05-2010 20:00:00 19.68 C 4.99 g/m*3 19.68 C 0 km/h
334 28-05-2010 21:00:00 17.54 C 5.35 g/m*3 17.54 C 0 km/h
335 28-05-2010 22:00:00 15.56 C 5.94 g/m*3 15.56 C 0 km/h
336 28-05-2010 23:00:00 14.06 C 6.22 g/m*3 14.06 C 0 km/h
337 29-05-2010 00:00:00 12.86 C 6.63 g/m*3 12.86 C 0 km/h
338 29-05-2010 01:00:00 11.92 C 6.77 g/m*3 11.92 C 0 km/h
339 29-05-2010 02:00:00 10.82 C 6.95 g/m*3 10.82 C 0 km/h
340 29-05-2010 03:00:00 9.98 C 7.02 g/m*3 9.98 C 0 km/h
341 29-05-2010 04:00:00 9.7 C 7.08 g/m*3 9.7 C 0 km/h
342 29-05-2010 05:00:00 9.48 C 7 g/m*3 9.48 C 0 km/h
343 29-05-2010 06:00:00 9.78 C 7.13 g/m*3 9.78 C 0 km/h
344 29-05-2010 07:00:00 10.18 C 7.15 g/m*3 10.18 C 0 km/h
345 29-05-2010 08:00:00 11.24 C 7.19 g/m*3 11.24 C 0 km/h
346 29-05-2010 09:00:00 12.86 C 7.06 g/m*3 12.86 C 0 km/h
347 29-05-2010 10:00:00 16.9 C 7.11 g/m*3 16.9 C 0 km/h
348 29-05-2010 11:00:00 18.66 C 7.32 g/m*3 18.66 C 0 km/h
349 29-05-2010 12:00:00 21.72 C 5.46 g/m*3 21.72 C 0 km/h
350 29-05-2010 13:00:00 24.84 C 4.84 g/m*3 24.84 C 0 km/h
Sensor: Nr:Datum:Temp:Abs-Feuchte:Windchill:Wind:
Aussen-T/F 351 29-05-2010 14:00:00 23.42 C 5.31 g/m*3 23.42 C 0 km/h
352 29-05-2010 15:00:00 23.02 C 5.35 g/m*3 23.02 C 0 km/h
353 29-05-2010 16:00:00 24.42 C 4.99 g/m*3 24.42 C 0 km/h
354 29-05-2010 17:00:00 23.96 C 5.95 g/m*3 23.96 C 0 km/h
355 29-05-2010 18:00:00 21.7 C 6.03 g/m*3 21.7 C 0 km/h
356 29-05-2010 19:00:00 20.66 C 5.35 g/m*3 20.66 C 0 km/h
357 29-05-2010 20:00:00 19.3 C 5.97 g/m*3 19.3 C 0 km/h
358 29-05-2010 21:00:00 17.06 C 6.83 g/m*3 17.06 C 0 km/h
359 29-05-2010 22:00:00 13.96 C 9.07 g/m*3 13.96 C 0 km/h
360 29-05-2010 23:00:00 13.72 C 8.92 g/m*3 13.72 C 0 km/h
361 30-05-2010 00:00:00 13.38 C 9.36 g/m*3 13.38 C 0 km/h
362 30-05-2010 01:00:00 13.2 C 9.48 g/m*3 13.2 C 0 km/h
363 30-05-2010 02:00:00 12.9 C 10.03 g/m*3 12.9 C 0 km/h
364 30-05-2010 03:00:00 12.9 C 10.28 g/m*3 12.9 C 0 km/h
365 30-05-2010 04:00:00 12.8 C 10.28 g/m*3 12.8 C 0 km/h
366 30-05-2010 05:00:00 12.96 C 10.25 g/m*3 12.96 C 0 km/h
367 30-05-2010 06:00:00 13.36 C 10.25 g/m*3 13.36 C 0 km/h
368 30-05-2010 07:00:00 13.8 C 10.44 g/m*3 13.8 C 0 km/h
369 30-05-2010 08:00:00 14.66 C 10.07 g/m*3 14.66 C 0 km/h
370 30-05-2010 09:00:00 15.62 C 10.01 g/m*3 15.62 C 0 km/h
371 30-05-2010 10:00:00 14.98 C 10.19 g/m*3 14.98 C 0 km/h
372 30-05-2010 11:00:00 17.44 C 9.15 g/m*3 17.44 C 0 km/h
373 30-05-2010 12:00:00 18 C 8.11 g/m*3 18 C 0 km/h
374 30-05-2010 13:00:00 17.94 C 7.56 g/m*3 17.94 C 0 km/h
375 30-05-2010 14:00:00 18 C 8.23 g/m*3 18 C 0 km/h
Sensor: Nr:Datum:Temp:Abs-Feuchte:Windchill:Wind:
Aussen-T/F 376 30-05-2010 15:00:00 19.18 C 7.71 g/m*3 19.18 C 0 km/h
377 30-05-2010 16:00:00 19.4 C 6.91 g/m*3 19.4 C 0 km/h
378 30-05-2010 17:00:00 16.3 C 8.35 g/m*3 16.3 C 0 km/h
379 30-05-2010 18:00:00 14.42 C 9.6 g/m*3 14.42 C 0 km/h
380 30-05-2010 19:00:00 13.16 C 9.51 g/m*3 13.16 C 0 km/h
381 30-05-2010 20:00:00 12.46 C 7.33 g/m*3 12.46 C 0 km/h
382 30-05-2010 21:00:00 11.74 C 6.63 g/m*3 11.74 C 0 km/h
383 30-05-2010 22:00:00 11.14 C 6.14 g/m*3 11.14 C 0 km/h
384 30-05-2010 23:00:00 10.6 C 5.76 g/m*3 10.6 C 0 km/h
385 31-05-2010 00:00:00 9.88 C 5.86 g/m*3 9.88 C 0 km/h
386 31-05-2010 01:00:00 9.84 C 6.18 g/m*3 9.84 C 0 km/h
387 31-05-2010 02:00:00 8.94 C 7.5 g/m*3 8.94 C 0 km/h
388 31-05-2010 03:00:00 8.62 C 7.74 g/m*3 8.62 C 0 km/h
389 31-05-2010 04:00:00 8.52 C 7.71 g/m*3 8.52 C 0 km/h
390 31-05-2010 05:00:00 8.54 C 7.7 g/m*3 8.54 C 0 km/h
391 31-05-2010 06:00:00 8.72 C 7.9 g/m*3 8.72 C 0 km/h
392 31-05-2010 07:00:00 8.94 C 8.1 g/m*3 8.94 C 0 km/h
393 31-05-2010 08:00:00 9.88 C 8.5 g/m*3 9.88 C 0 km/h
394 31-05-2010 09:00:00 10.8 C 8.38 g/m*3 10.8 C 0 km/h
395 31-05-2010 10:00:00 11.06 C 8.34 g/m*3 11.06 C 0 km/h
396 31-05-2010 11:00:00 11.96 C 8.36 g/m*3 11.96 C 0 km/h
397 31-05-2010 12:00:00 13.78 C 7.64 g/m*3 13.78 C 0 km/h
398 31-05-2010 13:00:00 14.32 C 7.33 g/m*3 14.32 C 0 km/h
399 31-05-2010 14:00:00 14.96 C 7.32 g/m*3 14.96 C 0 km/h
400 31-05-2010 15:00:00 14.76 C 7.56 g/m*3 14.76 C 0 km/h
Sensor: Nr:Datum:Temp:Abs-Feuchte:Windchill:Wind:
Aussen-T/F 401 31-05-2010 16:00:00 13.96 C 8.09 g/m*3 13.96 C 0 km/h
402 31-05-2010 17:00:00 14.18 C 7.93 g/m*3 14.18 C 0 km/h
403 31-05-2010 18:00:00 13.1 C 8.7 g/m*3 13.1 C 0 km/h
404 31-05-2010 19:00:00 12.7 C 9.24 g/m*3 12.7 C 0 km/h
405 31-05-2010 20:00:00 12.48 C 9.51 g/m*3 12.48 C 0 km/h
406 31-05-2010 21:00:00 12.5 C 9.54 g/m*3 12.5 C 0 km/h
407 31-05-2010 22:00:00 12.54 C 9.77 g/m*3 12.54 C 0 km/h
408 31-05-2010 23:00:00 12.62 C 9.75 g/m*3 12.62 C 0 km/h
409 01-06-2010 00:00:00 11.7 C 9.41 g/m*3 11.7 C 0 km/h
410 01-06-2010 01:00:00 11.44 C 9.47 g/m*3 11.44 C 0 km/h
411 01-06-2010 02:00:00 10.92 C 9.24 g/m*3 10.92 C 0 km/h
412 01-06-2010 03:00:00 11.38 C 9.62 g/m*3 11.38 C 0 km/h
413 01-06-2010 04:00:00 11.06 C 9.34 g/m*3 11.06 C 0 km/h
414 01-06-2010 05:00:00 11.18 C 9.44 g/m*3 11.18 C 0 km/h
415 01-06-2010 06:00:00 11.22 C 9.3 g/m*3 11.22 C 0 km/h
416 01-06-2010 07:00:00 12.04 C 9.34 g/m*3 12.04 C 0 km/h
417 01-06-2010 08:00:00 13.68 C 9.32 g/m*3 13.68 C 0 km/h
418 01-06-2010 09:00:00 15 C 8.92 g/m*3 15 C 0 km/h
419 01-06-2010 10:00:00 15.08 C 8.63 g/m*3 15.08 C 0 km/h
420 01-06-2010 11:00:00 17.08 C 8.17 g/m*3 17.08 C 0 km/h
421 01-06-2010 12:00:00 19.42 C 7.22 g/m*3 19.42 C 0 km/h
422 01-06-2010 13:00:00 20.58 C 6.69 g/m*3 20.58 C 0 km/h
423 01-06-2010 14:00:00 20.98 C 6.37 g/m*3 20.98 C 0 km/h
424 01-06-2010 15:00:00 22.14 C 5.36 g/m*3 22.14 C 0 km/h
425 01-06-2010 16:00:00 22.8 C 4.96 g/m*3 22.8 C 0 km/h
Sensor: Nr:Datum:Temp:Abs-Feuchte:Windchill:Wind:
Aussen-T/F 426 01-06-2010 17:00:00 22.5 C 5.27 g/m*3 22.5 C 0 km/h
427 01-06-2010 18:00:00 20.56 C 5.11 g/m*3 20.56 C 0 km/h
428 01-06-2010 19:00:00 19.54 C 6.09 g/m*3 19.54 C 0 km/h
429 01-06-2010 20:00:00 18.2 C 7.06 g/m*3 18.2 C 0 km/h
430 01-06-2010 21:00:00 16.16 C 7.1 g/m*3 16.16 C 0 km/h
431 01-06-2010 22:00:00 15.04 C 7.38 g/m*3 15.04 C 0 km/h
432 01-06-2010 23:00:00 14.74 C 7.75 g/m*3 14.74 C 0 km/h
433 02-06-2010 00:00:00 14.44 C 8.35 g/m*3 14.44 C 0 km/h
434 02-06-2010 01:00:00 14.22 C 8.39 g/m*3 14.22 C 0 km/h
435 02-06-2010 02:00:00 13.58 C 8.7 g/m*3 13.58 C 0 km/h
436 02-06-2010 03:00:00 13.34 C 8.8 g/m*3 13.34 C 0 km/h
437 02-06-2010 04:00:00 13.36 C 8.4 g/m*3 13.36 C 0 km/h
438 02-06-2010 05:00:00 13.3 C 8.39 g/m*3 13.3 C 0 km/h
439 02-06-2010 06:00:00 13.28 C 8.56 g/m*3 13.28 C 0 km/h
440 02-06-2010 07:00:00 13.84 C 8.58 g/m*3 13.84 C 0 km/h
441 02-06-2010 08:00:00 15.1 C 8.15 g/m*3 15.1 C 0 km/h
442 02-06-2010 09:00:00 15.08 C 7.73 g/m*3 15.08 C 0 km/h
443 02-06-2010 10:00:00 17.56 C 6.49 g/m*3 17.56 C 0 km/h
444 02-06-2010 11:00:00 19.3 C 6 g/m*3 19.3 C 0 km/h
445 02-06-2010 12:00:00 21.86 C 5.31 g/m*3 21.86 C 0 km/h
446 02-06-2010 13:00:00 23.68 C 4.61 g/m*3 23.68 C 0 km/h
447 02-06-2010 14:00:00 23.5 C 4.44 g/m*3 23.5 C 0 km/h
448 02-06-2010 15:00:00 22.58 C 5.58 g/m*3 22.58 C 0 km/h
449 02-06-2010 16:00:00 21.08 C 6.74 g/m*3 21.08 C 0 km/h
450 02-06-2010 17:00:00 20.44 C 7.09 g/m*3 20.44 C 0 km/h
Sensor: Nr:Datum:Temp:Abs-Feuchte:Windchill:Wind:
Aussen-T/F 451 02-06-2010 18:00:00 21.46 C 7.07 g/m*3 21.46 C 0 km/h
452 02-06-2010 19:00:00 20.68 C 7.37 g/m*3 20.68 C 0 km/h
453 02-06-2010 20:00:00 19.78 C 7.61 g/m*3 19.78 C 0 km/h
454 02-06-2010 21:00:00 18.34 C 7.96 g/m*3 18.34 C 0 km/h
455 02-06-2010 22:00:00 17.725 C 8.27 g/m*3 17.73 C 0 km/h
456 02-06-2010 23:00:00 16.44 C 8.39 g/m*3 16.44 C 0 km/h
457 03-06-2010 00:00:00 15.62 C 8.49 g/m*3 15.62 C 0 km/h
458 03-06-2010 01:00:00 14.96 C 8.7 g/m*3 14.96 C 0 km/h
459 03-06-2010 02:00:00 14.42 C 8.69 g/m*3 14.42 C 0 km/h
460 03-06-2010 03:00:00 14.02 C 8.53 g/m*3 14.02 C 0 km/h
461 03-06-2010 04:00:00 13.2 C 8.36 g/m*3 13.2 C 0 km/h
462 03-06-2010 05:00:00 12.7 C 8.33 g/m*3 12.7 C 0 km/h
463 03-06-2010 06:00:00 12.6 C 8.36 g/m*3 12.6 C 0 km/h
464 03-06-2010 07:00:00 13.08 C 8.3 g/m*3 13.08 C 0 km/h
465 03-06-2010 08:00:00 13.98 C 7.93 g/m*3 13.98 C 0 km/h
466 03-06-2010 09:00:00 15.94 C 7.44 g/m*3 15.94 C 0 km/h
467 03-06-2010 10:00:00 18.62 C 6.95 g/m*3 18.62 C 0 km/h
468 03-06-2010 11:00:00 21.14 C 6.24 g/m*3 21.14 C 0 km/h
469 03-06-2010 12:00:00 24.16 C 5.62 g/m*3 24.16 C 0 km/h
470 03-06-2010 13:00:00 26.36 C 5.27 g/m*3 26.36 C 0 km/h
471 03-06-2010 14:00:00 25.98 C 4.86 g/m*3 25.98 C 0 km/h
472 03-06-2010 15:00:00 27.94 C 5.42 g/m*3 27.94 C 0 km/h
473 03-06-2010 16:00:00 29.48 C 5.9 g/m*3 29.48 C 0 km/h
474 03-06-2010 17:00:00 29.98 C 6.06 g/m*3 29.98 C 0 km/h
475 03-06-2010 18:00:00 28.98 C 5.74 g/m*3 28.98 C 0 km/h
Sensor: Nr:Datum:Temp:Abs-Feuchte:Windchill:Wind:
Aussen-T/F 476 03-06-2010 19:00:00 29.08 C 5.77 g/m*3 29.08 C 0 km/h
477 03-06-2010 20:00:00 27 C 5.35 g/m*3 27 C 0 km/h
478 03-06-2010 21:00:00 23.74 C 6.6 g/m*3 23.74 C 0 km/h
479 03-06-2010 22:00:00 20.16 C 6.45 g/m*3 20.16 C 0 km/h
480 03-06-2010 23:00:00 18.64 C 6.57 g/m*3 18.64 C 0 km/h
481 04-06-2010 00:00:00 17.44 C 6.86 g/m*3 17.44 C 0 km/h
482 04-06-2010 01:00:00 15.9 C 7.04 g/m*3 15.9 C 0 km/h
483 04-06-2010 02:00:00 14.64 C 7.23 g/m*3 14.64 C 0 km/h
484 04-06-2010 03:00:00 13.64 C 7.43 g/m*3 13.64 C 0 km/h
485 04-06-2010 04:00:00 12.78 C 7.61 g/m*3 12.78 C 0 km/h
486 04-06-2010 05:00:00 12.12 C 7.6 g/m*3 12.12 C 0 km/h
487 04-06-2010 06:00:00 11.94 C 7.84 g/m*3 11.94 C 0 km/h
488 04-06-2010 07:00:00 12.44 C 8.04 g/m*3 12.44 C 0 km/h
489 04-06-2010 08:00:00 13.72 C 8.28 g/m*3 13.72 C 0 km/h
490 04-06-2010 09:00:00 16.78 C 8.37 g/m*3 16.78 C 0 km/h
491 04-06-2010 10:00:00 20.06 C 8.12 g/m*3 20.06 C 0 km/h
492 04-06-2010 11:00:00 22.1 C 7.18 g/m*3 22.1 C 0 km/h
493 04-06-2010 12:00:00 25.82 C 5.88 g/m*3 25.82 C 0 km/h
494 04-06-2010 13:00:00 28.98 C 5.91 g/m*3 28.98 C 0 km/h
495 04-06-2010 14:00:00 27.9 C 5.68 g/m*3 27.9 C 0 km/h
496 04-06-2010 15:00:00 29.14 C 5.79 g/m*3 29.14 C 0 km/h
497 04-06-2010 16:00:00 30.38 C 6.19 g/m*3 30.38 C 0 km/h
498 04-06-2010 17:00:00 31.04 C 6.41 g/m*3 31.04 C 0 km/h
499 04-06-2010 18:00:00 31.88 C 6.71 g/m*3 31.88 C 0 km/h
500 04-06-2010 19:00:00 30.44 C 6.21 g/m*3 30.44 C 0 km/h
Sensor: Nr:Datum:Temp:Abs-Feuchte:Windchill:Wind:
Aussen-T/F 501 04-06-2010 20:00:00 29.04 C 5.87 g/m*3 29.04 C 0 km/h
502 04-06-2010 21:00:00 24.3 C 6.28 g/m*3 24.3 C 0 km/h
503 04-06-2010 22:00:00 22.02 C 6.88 g/m*3 22.02 C 0 km/h
504 04-06-2010 23:00:00 19.82 C 7.56 g/m*3 19.82 C 0 km/h
505 05-06-2010 00:00:00 18.16 C 7.91 g/m*3 18.16 C 0 km/h
506 05-06-2010 01:00:00 17.14 C 7.97 g/m*3 17.14 C 0 km/h
507 05-06-2010 02:00:00 15.82 C 8.17 g/m*3 15.82 C 0 km/h
508 05-06-2010 03:00:00 14.84 C 8.43 g/m*3 14.84 C 0 km/h
509 05-06-2010 04:00:00 14.34 C 8.35 g/m*3 14.34 C 0 km/h
510 05-06-2010 05:00:00 13.44 C 8.27 g/m*3 13.44 C 0 km/h
511 05-06-2010 06:00:00 13.12 C 8.45 g/m*3 13.12 C 0 km/h
512 05-06-2010 07:00:00 13.76 C 8.58 g/m*3 13.76 C 0 km/h
513 05-06-2010 08:00:00 15.12 C 8.42 g/m*3 15.12 C 0 km/h
514 05-06-2010 09:00:00 17.9 C 8.64 g/m*3 17.9 C 0 km/h
515 05-06-2010 10:00:00 21.54 C 9 g/m*3 21.54 C 0 km/h
516 05-06-2010 11:00:00 25.04 C 8.44 g/m*3 25.04 C 0 km/h
517 05-06-2010 12:00:00 28.26 C 6.45 g/m*3 28.26 C 0 km/h
518 05-06-2010 13:00:00 30.56 C 6.25 g/m*3 30.56 C 0 km/h
519 05-06-2010 14:00:00 30.24 C 6.14 g/m*3 30.24 C 0 km/h
520 05-06-2010 15:00:00 31.8 C 6.68 g/m*3 31.8 C 0 km/h
521 05-06-2010 16:00:00 32.68 C 7 g/m*3 32.68 C 0 km/h
522 05-06-2010 17:00:00 33.16 C 7.18 g/m*3 33.16 C 0 km/h
523 05-06-2010 18:00:00 33.08 C 7.15 g/m*3 33.08 C 0 km/h
524 05-06-2010 19:00:00 31.78 C 7.07 g/m*3 31.78 C 0 km/h
525 05-06-2010 20:00:00 29.04 C 7.83 g/m*3 29.04 C 0 km/h
Sensor: Nr:Datum:Temp:Abs-Feuchte:Windchill:Wind:
Aussen-T/F 526 05-06-2010 21:00:00 25.36 C 7.75 g/m*3 25.36 C 0 km/h
527 05-06-2010 22:00:00 23.38 C 8.28 g/m*3 23.38 C 0 km/h
528 05-06-2010 23:00:00 21.88 C 8.29 g/m*3 21.88 C 0 km/h
529 06-06-2010 00:00:00 20.7 C 8.64 g/m*3 20.7 C 0 km/h
530 06-06-2010 01:00:00 19.28 C 8.95 g/m*3 19.28 C 0 km/h
531 06-06-2010 02:00:00 18.18 C 9.31 g/m*3 18.18 C 0 km/h
532 06-06-2010 03:00:00 17.36 C 9.23 g/m*3 17.36 C 0 km/h
533 06-06-2010 04:00:00 16.4 C 9.13 g/m*3 16.4 C 0 km/h
534 06-06-2010 05:00:00 15.46 C 9.2 g/m*3 15.46 C 0 km/h
535 06-06-2010 06:00:00 15.32 C 9.41 g/m*3 15.32 C 0 km/h
536 06-06-2010 07:00:00 16.06 C 9.52 g/m*3 16.06 C 0 km/h
537 06-06-2010 08:00:00 17.32 C 9.32 g/m*3 17.32 C 0 km/h
538 06-06-2010 09:00:00 19.54 C 8.98 g/m*3 19.54 C 0 km/h
539 06-06-2010 10:00:00 23.1 C 9.38 g/m*3 23.1 C 0 km/h
540 06-06-2010 11:00:00 27.14 C 9.6 g/m*3 27.14 C 0 km/h
541 06-06-2010 12:00:00 29.56 C 8.71 g/m*3 29.56 C 0 km/h
542 06-06-2010 13:00:00 30.1 C 8.23 g/m*3 30.1 C 0 km/h
543 06-06-2010 14:00:00 30.16 C 8.32 g/m*3 30.16 C 0 km/h
544 06-06-2010 15:00:00 31.12 C 7.73 g/m*3 31.12 C 0 km/h
545 06-06-2010 16:00:00 23.76 C 10.65 g/m*3 23.76 C 0 km/h
546 06-06-2010 17:00:00 18.7 C 13.61 g/m*3 18.7 C 0 km/h
547 06-06-2010 18:00:00 19.2 C 14.21 g/m*3 19.2 C 0 km/h
548 06-06-2010 19:00:00 19.22 C 14.23 g/m*3 19.22 C 0 km/h
549 06-06-2010 20:00:00 19 C 14.15 g/m*3 19 C 0 km/h
550 06-06-2010 21:00:00 18.6 C 13.85 g/m*3 18.6 C 0 km/h
Sensor: Nr:Datum:Temp:Abs-Feuchte:Windchill:Wind:
Aussen-T/F 551 06-06-2010 22:00:00 18.34 C 13.67 g/m*3 18.34 C 0 km/h
552 06-06-2010 23:00:00 18.3 C 13.51 g/m*3 18.3 C 0 km/h
553 07-06-2010 00:00:00 17.92 C 13.45 g/m*3 17.92 C 0 km/h
554 07-06-2010 01:00:00 17.82 C 13.77 g/m*3 17.82 C 0 km/h
555 07-06-2010 02:00:00 17.36 C 12.48 g/m*3 17.36 C 0 km/h
556 07-06-2010 03:00:00 15.46 C 10.07 g/m*3 15.46 C 0 km/h
557 07-06-2010 04:00:00 14 C 9.09 g/m*3 14 C 0 km/h
558 07-06-2010 05:00:00 13.6 C 9.16 g/m*3 13.6 C 0 km/h
559 07-06-2010 06:00:00 14.4 C 9.37 g/m*3 14.4 C 0 km/h
560 07-06-2010 07:00:00 15.04 C 9.18 g/m*3 15.04 C 0 km/h
561 07-06-2010 08:00:00 15.54 C 9.33 g/m*3 15.54 C 0 km/h
562 07-06-2010 09:00:00 17.08 C 9.22 g/m*3 17.08 C 0 km/h
563 07-06-2010 10:00:00 18.32 C 8.95 g/m*3 18.32 C 0 km/h
564 07-06-2010 11:00:00 19.46 C 8.71 g/m*3 19.46 C 0 km/h
565 07-06-2010 12:00:00 21.94 C 7.93 g/m*3 21.94 C 0 km/h
566 07-06-2010 13:00:00 23.78 C 7.26 g/m*3 23.78 C 0 km/h
567 07-06-2010 14:00:00 24 C 6.96 g/m*3 24 C 0 km/h
568 07-06-2010 15:00:00 24.3 C 6.64 g/m*3 24.3 C 0 km/h
569 07-06-2010 16:00:00 25.22 C 6.39 g/m*3 25.22 C 0 km/h
570 07-06-2010 17:00:00 24.66 C 5.96 g/m*3 24.66 C 0 km/h
571 07-06-2010 18:00:00 25.92 C 5.28 g/m*3 25.92 C 0 km/h
572 07-06-2010 19:00:00 25.44 C 5.29 g/m*3 25.44 C 0 km/h
573 07-06-2010 20:00:00 23.08 C 5.99 g/m*3 23.08 C 0 km/h
574 07-06-2010 21:00:00 20.04 C 6.79 g/m*3 20.04 C 0 km/h
575 07-06-2010 22:00:00 18.48 C 7.33 g/m*3 18.48 C 0 km/h
Sensor: Nr:Datum:Temp:Abs-Feuchte:Windchill:Wind:
Aussen-T/F 576 07-06-2010 23:00:00 17.26 C 8.08 g/m*3 17.26 C 0 km/h
577 08-06-2010 00:00:00 16.34 C 8.48 g/m*3 16.34 C 0 km/h
578 08-06-2010 01:00:00 15.22 C 8.5 g/m*3 15.22 C 0 km/h
579 08-06-2010 02:00:00 14.26 C 8.36 g/m*3 14.26 C 0 km/h
580 08-06-2010 03:00:00 13.84 C 8.36 g/m*3 13.84 C 0 km/h
581 08-06-2010 04:00:00 13.2 C 8.22 g/m*3 13.2 C 0 km/h
582 08-06-2010 05:00:00 13.4 C 8.42 g/m*3 13.4 C 0 km/h
583 08-06-2010 06:00:00 13.66 C 8.62 g/m*3 13.66 C 0 km/h
584 08-06-2010 07:00:00 14.36 C 8.8 g/m*3 14.36 C 0 km/h
585 08-06-2010 08:00:00 16.5 C 8.9 g/m*3 16.5 C 0 km/h
586 08-06-2010 09:00:00 19.18 C 8.96 g/m*3 19.18 C 0 km/h
587 08-06-2010 10:00:00 21.92 C 8.73 g/m*3 21.92 C 0 km/h
588 08-06-2010 11:00:00 25.46 C 8.08 g/m*3 25.46 C 0 km/h
589 08-06-2010 12:00:00 27.92 C 7.2 g/m*3 27.92 C 0 km/h
590 08-06-2010 13:00:00 27.58 C 6.75 g/m*3 27.58 C 0 km/h
591 08-06-2010 14:00:00 26.28 C 8.21 g/m*3 26.28 C 0 km/h
592 08-06-2010 15:00:00 26.36 C 8.4 g/m*3 26.36 C 0 km/h
593 08-06-2010 16:00:00 22.62 C 8.49 g/m*3 22.62 C 0 km/h
594 08-06-2010 17:00:00 20.84 C 10.49 g/m*3 20.84 C 0 km/h
595 08-06-2010 18:00:00 23.06 C 10.15 g/m*3 23.06 C 0 km/h
596 08-06-2010 19:00:00 23.2 C 10.15 g/m*3 23.2 C 0 km/h
597 08-06-2010 20:00:00 22 C 10.44 g/m*3 22 C 0 km/h
598 08-06-2010 21:00:00 20.6 C 10.85 g/m*3 20.6 C 0 km/h
599 08-06-2010 22:00:00 18.56 C 12.29 g/m*3 18.56 C 0 km/h
600 08-06-2010 23:00:00 18.08 C 12.5 g/m*3 18.08 C 0 km/h
Sensor: Nr:Datum:Temp:Abs-Feuchte:Windchill:Wind:
Aussen-T/F 601 09-06-2010 00:00:00 17.74 C 12.55 g/m*3 17.74 C 0 km/h
602 09-06-2010 01:00:00 17.68 C 12.33 g/m*3 17.68 C 0 km/h
603 09-06-2010 02:00:00 17.08 C 11.86 g/m*3 17.08 C 0 km/h
604 09-06-2010 03:00:00 17.06 C 12.08 g/m*3 17.06 C 0 km/h
605 09-06-2010 04:00:00 16.96 C 12.07 g/m*3 16.96 C 0 km/h
606 09-06-2010 05:00:00 16.84 C 12.01 g/m*3 16.84 C 0 km/h
607 09-06-2010 06:00:00 17.06 C 11.97 g/m*3 17.06 C 0 km/h
608 09-06-2010 07:00:00 18.2 C 12.25 g/m*3 18.2 C 0 km/h
609 09-06-2010 08:00:00 19.94 C 12.33 g/m*3 19.94 C 0 km/h
610 09-06-2010 09:00:00 21.8 C 11.86 g/m*3 21.8 C 0 km/h
611 09-06-2010 10:00:00 23.72 C 11.43 g/m*3 23.72 C 0 km/h
612 09-06-2010 11:00:00 25.56 C 10.17 g/m*3 25.56 C 0 km/h
613 09-06-2010 12:00:00 26.4 C 8.91 g/m*3 26.4 C 0 km/h
614 09-06-2010 13:00:00 26.72 C 8.97 g/m*3 26.72 C 0 km/h
615 09-06-2010 14:00:00 28.74 C 9.12 g/m*3 28.74 C 0 km/h
616 09-06-2010 15:00:00 29.54 C 8.16 g/m*3 29.54 C 0 km/h
617 09-06-2010 16:00:00 29.34 C 7.55 g/m*3 29.34 C 0 km/h
618 09-06-2010 17:00:00 27.86 C 9.18 g/m*3 27.86 C 0 km/h
619 09-06-2010 18:00:00 26.7 C 9.26 g/m*3 26.7 C 0 km/h
620 09-06-2010 19:00:00 26.16 C 9.73 g/m*3 26.16 C 0 km/h
621 09-06-2010 20:00:00 24.78 C 9.41 g/m*3 24.78 C 0 km/h
622 09-06-2010 21:00:00 23.4 C 9.21 g/m*3 23.4 C 0 km/h
623 09-06-2010 22:00:00 22.96 C 8.61 g/m*3 22.96 C 0 km/h
624 09-06-2010 23:00:00 19.26 C 12.51 g/m*3 19.26 C 0 km/h
625 10-06-2010 00:00:00 18.04 C 13.36 g/m*3 18.04 C 0 km/h
Sensor: Nr:Datum:Temp:Abs-Feuchte:Windchill:Wind:
Aussen-T/F 626 10-06-2010 01:00:00 17.6 C 13.59 g/m*3 17.6 C 0 km/h
627 10-06-2010 02:00:00 17.18 C 13.43 g/m*3 17.18 C 0 km/h
628 10-06-2010 03:00:00 16.98 C 13.21 g/m*3 16.98 C 0 km/h
629 10-06-2010 04:00:00 17.06 C 13.1 g/m*3 17.06 C 0 km/h
630 10-06-2010 05:00:00 16.88 C 13.16 g/m*3 16.88 C 0 km/h
631 10-06-2010 06:00:00 17.28 C 13.54 g/m*3 17.28 C 0 km/h
632 10-06-2010 07:00:00 17.9 C 13.86 g/m*3 17.9 C 0 km/h
633 10-06-2010 08:00:00 18.96 C 14.34 g/m*3 18.96 C 0 km/h
634 10-06-2010 09:00:00 19.46 C 14.27 g/m*3 19.46 C 0 km/h
635 10-06-2010 10:00:00 21.34 C 13.71 g/m*3 21.34 C 0 km/h
636 10-06-2010 11:00:00 22.12 C 12.82 g/m*3 22.12 C 0 km/h
637 10-06-2010 12:00:00 24.96 C 11.35 g/m*3 24.96 C 0 km/h
638 10-06-2010 13:00:00 27.26 C 10.76 g/m*3 27.26 C 0 km/h
639 10-06-2010 14:00:00 27.86 C 12.09 g/m*3 27.86 C 0 km/h
640 10-06-2010 15:00:00 28.3 C 11.83 g/m*3 28.3 C 0 km/h
641 10-06-2010 16:00:00 26.8 C 13.24 g/m*3 26.8 C 0 km/h
642 10-06-2010 17:00:00 28.94 C 12.71 g/m*3 28.94 C 0 km/h
643 10-06-2010 18:00:00 30.9 C 11.01 g/m*3 30.9 C 0 km/h
644 10-06-2010 19:00:00 31.24 C 11.73 g/m*3 31.24 C 0 km/h
645 10-06-2010 20:00:00 28.08 C 13.93 g/m*3 28.08 C 0 km/h
646 10-06-2010 21:00:00 24.96 C 12.82 g/m*3 24.96 C 0 km/h
647 10-06-2010 22:00:00 24.24 C 12.13 g/m*3 24.24 C 0 km/h
648 10-06-2010 23:00:00 22 C 11.49 g/m*3 22 C 0 km/h
649 11-06-2010 00:00:00 18.88 C 12.27 g/m*3 18.88 C 0 km/h
650 11-06-2010 01:00:00 17.84 C 13.51 g/m*3 17.84 C 0 km/h
Sensor: Nr:Datum:Temp:Abs-Feuchte:Windchill:Wind:
Aussen-T/F 651 11-06-2010 02:00:00 17.58 C 13.72 g/m*3 17.58 C 0 km/h
652 11-06-2010 03:00:00 17.4 C 13.75 g/m*3 17.4 C 0 km/h
653 11-06-2010 04:00:00 17.1 C 13.54 g/m*3 17.1 C 0 km/h
654 11-06-2010 05:00:00 17 C 13.57 g/m*3 17 C 0 km/h
655 11-06-2010 06:00:00 16.98 C 13.61 g/m*3 16.98 C 0 km/h
656 11-06-2010 07:00:00 16.88 C 13.65 g/m*3 16.88 C 0 km/h
657 11-06-2010 08:00:00 17.04 C 13.23 g/m*3 17.04 C 0 km/h
658 11-06-2010 09:00:00 19.32 C 13.65 g/m*3 19.32 C 0 km/h
659 11-06-2010 10:00:00 20.7 C 11.77 g/m*3 20.7 C 0 km/h
660 11-06-2010 11:00:00 22.76 C 10.83 g/m*3 22.76 C 0 km/h
661 11-06-2010 12:00:00 25.64 C 8.69 g/m*3 25.64 C 0 km/h
662 11-06-2010 13:00:00 27.58 C 7.71 g/m*3 27.58 C 0 km/h
663 11-06-2010 14:00:00 27.12 C 7.62 g/m*3 27.12 C 0 km/h
664 11-06-2010 15:00:00 28.68 C 7.34 g/m*3 28.68 C 0 km/h
665 11-06-2010 16:00:00 29.92 C 6.88 g/m*3 29.92 C 0 km/h
666 11-06-2010 17:00:00 30.58 C 6.32 g/m*3 30.58 C 0 km/h
667 11-06-2010 18:00:00 30.74 C 6.31 g/m*3 30.74 C 0 km/h
668 11-06-2010 19:00:00 30.7 C 6.49 g/m*3 30.7 C 0 km/h
669 11-06-2010 20:00:00 28.08 C 7.27 g/m*3 28.08 C 0 km/h
670 11-06-2010 21:00:00 24.48 C 8.49 g/m*3 24.48 C 0 km/h
671 11-06-2010 22:00:00 23.54 C 8.05 g/m*3 23.54 C 0 km/h
672 11-06-2010 23:00:00 22.86 C 7.67 g/m*3 22.86 C 0 km/h
673 12-06-2010 00:00:00 21.9 C 8.88 g/m*3 21.9 C 0 km/h
674 12-06-2010 01:00:00 20.94 C 9.78 g/m*3 20.94 C 0 km/h
675 12-06-2010 02:00:00 20.24 C 9.99 g/m*3 20.24 C 0 km/h
Sensor: Nr:Datum:Temp:Abs-Feuchte:Windchill:Wind:
Aussen-T/F 676 12-06-2010 03:00:00 19.74 C 10.14 g/m*3 19.74 C 0 km/h
677 12-06-2010 04:00:00 19.32 C 10.56 g/m*3 19.32 C 0 km/h
678 12-06-2010 05:00:00 18.72 C 11.12 g/m*3 18.72 C 0 km/h
679 12-06-2010 06:00:00 18.58 C 11.16 g/m*3 18.58 C 0 km/h
680 12-06-2010 07:00:00 18.38 C 12.16 g/m*3 18.38 C 0 km/h
681 12-06-2010 08:00:00 18.78 C 12.42 g/m*3 18.78 C 0 km/h
682 12-06-2010 09:00:00 19.28 C 11.6 g/m*3 19.28 C 0 km/h
683 12-06-2010 10:00:00 20.34 C 10.44 g/m*3 20.34 C 0 km/h
684 12-06-2010 11:00:00 22.44 C 9.59 g/m*3 22.44 C 0 km/h
685 12-06-2010 12:00:00 23.3 C 8.7 g/m*3 23.3 C 0 km/h
686 12-06-2010 13:00:00 24.16 C 8.47 g/m*3 24.16 C 0 km/h
687 12-06-2010 14:00:00 24.48 C 8.45 g/m*3 24.48 C 0 km/h
688 12-06-2010 15:00:00 22.98 C 9.24 g/m*3 22.98 C 0 km/h
689 12-06-2010 16:00:00 17.04 C 10.24 g/m*3 17.04 C 0 km/h
690 12-06-2010 17:00:00 14.22 C 9.85 g/m*3 14.22 C 0 km/h
691 12-06-2010 18:00:00 14.62 C 10.12 g/m*3 14.62 C 0 km/h
692 12-06-2010 19:00:00 14.82 C 9.79 g/m*3 14.82 C 0 km/h
693 12-06-2010 20:00:00 15.34 C 9.53 g/m*3 15.34 C 0 km/h
694 12-06-2010 21:00:00 14.98 C 9.4 g/m*3 14.98 C 0 km/h
695 12-06-2010 22:00:00 14.5 C 9.43 g/m*3 14.5 C 0 km/h
696 12-06-2010 23:00:00 13.28 C 8.98 g/m*3 13.28 C 0 km/h
697 13-06-2010 00:00:00 12.68 C 8.92 g/m*3 12.68 C 0 km/h
698 13-06-2010 01:00:00 13.3 C 9.4 g/m*3 13.3 C 0 km/h
699 13-06-2010 02:00:00 13.14 C 9.47 g/m*3 13.14 C 0 km/h
700 13-06-2010 03:00:00 12.16 C 9.3 g/m*3 12.16 C 0 km/h
Sensor: Nr:Datum:Temp:Abs-Feuchte:Windchill:Wind:
Aussen-T/F 701 13-06-2010 04:00:00 11.32 C 8.7 g/m*3 11.32 C 0 km/h
702 13-06-2010 05:00:00 10.82 C 8.33 g/m*3 10.82 C 0 km/h
703 13-06-2010 06:00:00 10.5 C 8.22 g/m*3 10.5 C 0 km/h
704 13-06-2010 07:00:00 11.38 C 8.65 g/m*3 11.38 C 0 km/h
705 13-06-2010 08:00:00 13.16 C 8.18 g/m*3 13.16 C 0 km/h
706 13-06-2010 09:00:00 15.84 C 7.64 g/m*3 15.84 C 0 km/h
707 13-06-2010 10:00:00 17.76 C 6.3 g/m*3 17.76 C 0 km/h
708 13-06-2010 11:00:00 19.54 C 5.92 g/m*3 19.54 C 0 km/h
709 13-06-2010 12:00:00 22.84 C 5.3 g/m*3 22.84 C 0 km/h
710 13-06-2010 13:00:00 24.8 C 4.87 g/m*3 24.8 C 0 km/h
711 13-06-2010 14:00:00 24.12 C 4.91 g/m*3 24.12 C 0 km/h
712 13-06-2010 15:00:00 24.62 C 4.69 g/m*3 24.62 C 0 km/h
713 13-06-2010 16:00:00 25.02 C 4.61 g/m*3 25.02 C 0 km/h
714 13-06-2010 17:00:00 26.06 C 4.89 g/m*3 26.06 C 0 km/h
715 13-06-2010 18:00:00 26.44 C 4.99 g/m*3 26.44 C 0 km/h
716 13-06-2010 19:00:00 25.06 C 4.85 g/m*3 25.06 C 0 km/h
717 13-06-2010 20:00:00 23.9 C 5.24 g/m*3 23.9 C 0 km/h
718 13-06-2010 21:00:00 19.64 C 6.36 g/m*3 19.64 C 0 km/h
719 13-06-2010 22:00:00 17.64 C 6.46 g/m*3 17.64 C 0 km/h
720 13-06-2010 23:00:00 16.28 C 6.93 g/m*3 16.28 C 0 km/h
721 14-06-2010 00:00:00 15.44 C 7.48 g/m*3 15.44 C 0 km/h
722 14-06-2010 01:00:00 14.52 C 7.37 g/m*3 14.52 C 0 km/h
723 14-06-2010 02:00:00 13.46 C 7.68 g/m*3 13.46 C 0 km/h
724 14-06-2010 03:00:00 12.66 C 7.86 g/m*3 12.66 C 0 km/h
725 14-06-2010 04:00:00 11.98 C 7.86 g/m*3 11.98 C 0 km/h
Sensor: Nr:Datum:Temp:Abs-Feuchte:Windchill:Wind:
Aussen-T/F 726 14-06-2010 05:00:00 11.48 C 7.65 g/m*3 11.48 C 0 km/h
727 14-06-2010 06:00:00 11.28 C 7.82 g/m*3 11.28 C 0 km/h
728 14-06-2010 07:00:00 11.7 C 8.22 g/m*3 11.7 C 0 km/h
729 14-06-2010 08:00:00 13.38 C 8.43 g/m*3 13.38 C 0 km/h
730 14-06-2010 09:00:00 16.82 C 8.04 g/m*3 16.82 C 0 km/h
731 14-06-2010 10:00:00 19.96 C 7.34 g/m*3 19.96 C 0 km/h
732 14-06-2010 11:00:00 22.92 C 6.51 g/m*3 22.92 C 0 km/h
733 14-06-2010 12:00:00 25.18 C 5.53 g/m*3 25.18 C 0 km/h
734 14-06-2010 13:00:00 26.34 C 5.21 g/m*3 26.34 C 0 km/h
735 14-06-2010 14:00:00 27.44 C 5.27 g/m*3 27.44 C 0 km/h
736 14-06-2010 15:00:00 26.9 C 5.32 g/m*3 26.9 C 0 km/h
737 14-06-2010 16:00:00 29.82 C 6.01 g/m*3 29.82 C 0 km/h
738 14-06-2010 17:00:00 29.14 C 5.79 g/m*3 29.14 C 0 km/h
739 14-06-2010 18:00:00 28.48 C 5.58 g/m*3 28.48 C 0 km/h
740 14-06-2010 19:00:00 25.2 C 6.29 g/m*3 25.2 C 0 km/h
741 14-06-2010 20:00:00 23.26 C 6.34 g/m*3 23.26 C 0 km/h
742 14-06-2010 21:00:00 20.06 C 6.14 g/m*3 20.06 C 0 km/h
743 14-06-2010 22:00:00 18.62 C 7.43 g/m*3 18.62 C 0 km/h
744 14-06-2010 23:00:00 18.36 C 8.57 g/m*3 18.36 C 0 km/h
745 15-06-2010 00:00:00 17.08 C 8.72 g/m*3 17.08 C 0 km/h
746 15-06-2010 01:00:00 16.02 C 9.03 g/m*3 16.02 C 0 km/h
747 15-06-2010 02:00:00 15.26 C 9.22 g/m*3 15.26 C 0 km/h
748 15-06-2010 03:00:00 14.64 C 9.31 g/m*3 14.64 C 0 km/h
749 15-06-2010 04:00:00 13.76 C 9.18 g/m*3 13.76 C 0 km/h
750 15-06-2010 05:00:00 13.48 C 9.32 g/m*3 13.48 C 0 km/h
Sensor: Nr:Datum:Temp:Abs-Feuchte:Windchill:Wind:
Aussen-T/F 751 15-06-2010 06:00:00 13.58 C 9.45 g/m*3 13.58 C 0 km/h
752 15-06-2010 07:00:00 14.92 C 9.83 g/m*3 14.92 C 0 km/h
753 15-06-2010 08:00:00 16.68 C 9.11 g/m*3 16.68 C 0 km/h
754 15-06-2010 09:00:00 17.7 C 8.36 g/m*3 17.7 C 0 km/h
755 15-06-2010 10:00:00 19.72 C 7.96 g/m*3 19.72 C 0 km/h
756 15-06-2010 11:00:00 20.7 C 8.03 g/m*3 20.7 C 0 km/h
757 15-06-2010 12:00:00 21.26 C 8.18 g/m*3 21.26 C 0 km/h
758 15-06-2010 13:00:00 21.56 C 7.72 g/m*3 21.56 C 0 km/h
759 15-06-2010 14:00:00 22.5 C 6.87 g/m*3 22.5 C 0 km/h
760 15-06-2010 15:00:00 23.76 C 6.01 g/m*3 23.76 C 0 km/h
761 15-06-2010 16:00:00 24.42 C 5.84 g/m*3 24.42 C 0 km/h
762 15-06-2010 17:00:00 24.16 C 5.62 g/m*3 24.16 C 0 km/h
763 15-06-2010 18:00:00 24.32 C 5.63 g/m*3 24.32 C 0 km/h
764 15-06-2010 19:00:00 23.36 C 5.45 g/m*3 23.36 C 0 km/h
765 15-06-2010 20:00:00 21.58 C 5.68 g/m*3 21.58 C 0 km/h
766 15-06-2010 21:00:00 19.18 C 5.63 g/m*3 19.18 C 0 km/h
767 15-06-2010 22:00:00 17.525 C 5.49 g/m*3 17.52 C 0 km/h
768 15-06-2010 23:00:00 16.16 C 5.92 g/m*3 16.16 C 0 km/h
769 16-06-2010 00:00:00 14.68 C 6.04 g/m*3 14.68 C 0 km/h
770 16-06-2010 01:00:00 13.4 C 6.21 g/m*3 13.4 C 0 km/h
771 16-06-2010 02:00:00 12.7 C 6.14 g/m*3 12.7 C 0 km/h
772 16-06-2010 03:00:00 11.82 C 6.09 g/m*3 11.82 C 0 km/h
773 16-06-2010 04:00:00 11.2 C 6.14 g/m*3 11.2 C 0 km/h
774 16-06-2010 05:00:00 10.66 C 6.19 g/m*3 10.66 C 0 km/h
775 16-06-2010 06:00:00 10.7 C 6.44 g/m*3 10.7 C 0 km/h
Sensor: Nr:Datum:Temp:Abs-Feuchte:Windchill:Wind:
Aussen-T/F 776 16-06-2010 07:00:00 11.82 C 6.79 g/m*3 11.82 C 0 km/h
777 16-06-2010 08:00:00 13.7 C 6.35 g/m*3 13.7 C 0 km/h
778 16-06-2010 09:00:00 15.96 C 5.74 g/m*3 15.96 C 0 km/h
779 16-06-2010 10:00:00 18.16 C 5.21 g/m*3 18.16 C 0 km/h
780 16-06-2010 11:00:00 20.48 C 4.59 g/m*3 20.48 C 0 km/h
781 16-06-2010 12:00:00 23.42 C 4.42 g/m*3 23.42 C 0 km/h
782 16-06-2010 13:00:00 26.24 C 4.93 g/m*3 26.24 C 0 km/h
783 16-06-2010 14:00:00 25.56 C 4.75 g/m*3 25.56 C 0 km/h
784 16-06-2010 15:00:00 26.16 C 4.91 g/m*3 26.16 C 0 km/h
785 16-06-2010 16:00:00 27.08 C 5.17 g/m*3 27.08 C 0 km/h
786 16-06-2010 17:00:00 26.94 C 5.13 g/m*3 26.94 C 0 km/h
787 16-06-2010 18:00:00 26.62 C 5.04 g/m*3 26.62 C 0 km/h
788 16-06-2010 19:00:00 25.08 C 4.81 g/m*3 25.08 C 0 km/h
789 16-06-2010 20:00:00 22.84 C 5.25 g/m*3 22.84 C 0 km/h
790 16-06-2010 21:00:00 20.76 C 5.85 g/m*3 20.76 C 0 km/h
791 16-06-2010 22:00:00 18.58 C 5.75 g/m*3 18.58 C 0 km/h
792 16-06-2010 23:00:00 17.32 C 5.9 g/m*3 17.32 C 0 km/h
793 17-06-2010 00:00:00 16.12 C 5.98 g/m*3 16.12 C 0 km/h
794 17-06-2010 01:00:00 15.38 C 6.06 g/m*3 15.38 C 0 km/h
795 17-06-2010 02:00:00 14.76 C 6.14 g/m*3 14.76 C 0 km/h
796 17-06-2010 03:00:00 14.48 C 6.11 g/m*3 14.48 C 0 km/h
797 17-06-2010 04:00:00 14.14 C 5.94 g/m*3 14.14 C 0 km/h
798 17-06-2010 05:00:00 13.62 C 5.84 g/m*3 13.62 C 0 km/h
799 17-06-2010 06:00:00 13.84 C 6.14 g/m*3 13.84 C 0 km/h
800 17-06-2010 07:00:00 15.14 C 6.29 g/m*3 15.14 C 0 km/h
Sensor: Nr:Datum:Temp:Abs-Feuchte:Windchill:Wind:
Aussen-T/F 801 17-06-2010 08:00:00 16.54 C 6.62 g/m*3 16.54 C 0 km/h
802 17-06-2010 09:00:00 14.46 C 8.06 g/m*3 14.46 C 0 km/h
803 17-06-2010 10:00:00 13.04 C 9.62 g/m*3 13.04 C 0 km/h
804 17-06-2010 11:00:00 13.8 C 10.51 g/m*3 13.8 C 0 km/h
805 17-06-2010 12:00:00 13.86 C 10.69 g/m*3 13.86 C 0 km/h
806 17-06-2010 13:00:00 13.78 C 10.81 g/m*3 13.78 C 0 km/h
807 17-06-2010 14:00:00 14.36 C 11.32 g/m*3 14.36 C 0 km/h
808 17-06-2010 15:00:00 16.58 C 12.22 g/m*3 16.58 C 0 km/h
809 17-06-2010 16:00:00 16.92 C 12.04 g/m*3 16.92 C 0 km/h
810 17-06-2010 17:00:00 16.7 C 11.82 g/m*3 16.7 C 0 km/h
811 17-06-2010 18:00:00 17.12 C 11.69 g/m*3 17.12 C 0 km/h
812 17-06-2010 19:00:00 16.62 C 11.97 g/m*3 16.62 C 0 km/h
813 17-06-2010 20:00:00 15.82 C 11.81 g/m*3 15.82 C 0 km/h
814 17-06-2010 21:00:00 15.46 C 11.74 g/m*3 15.46 C 0 km/h
815 17-06-2010 22:00:00 15.06 C 11.61 g/m*3 15.06 C 0 km/h
816 17-06-2010 23:00:00 14.46 C 11.29 g/m*3 14.46 C 0 km/h
817 18-06-2010 00:00:00 13.8 C 10.91 g/m*3 13.8 C 0 km/h
818 18-06-2010 01:00:00 14.04 C 11.12 g/m*3 14.04 C 0 km/h
819 18-06-2010 02:00:00 13.76 C 10.93 g/m*3 13.76 C 0 km/h
820 18-06-2010 03:00:00 13.48 C 10.72 g/m*3 13.48 C 0 km/h
821 18-06-2010 04:00:00 12.5 C 10 g/m*3 12.5 C 0 km/h
822 18-06-2010 05:00:00 12.1 C 9.76 g/m*3 12.1 C 0 km/h
823 18-06-2010 06:00:00 12.18 C 9.79 g/m*3 12.18 C 0 km/h
824 18-06-2010 07:00:00 12.74 C 9.86 g/m*3 12.74 C 0 km/h
825 18-06-2010 08:00:00 13.64 C 9.84 g/m*3 13.64 C 0 km/h
Sensor: Nr:Datum:Temp:Abs-Feuchte:Windchill:Wind:
Aussen-T/F 826 18-06-2010 09:00:00 15.48 C 9.74 g/m*3 15.48 C 0 km/h
827 18-06-2010 10:00:00 16.56 C 9.33 g/m*3 16.56 C 0 km/h
828 18-06-2010 11:00:00 16.18 C 8.93 g/m*3 16.18 C 0 km/h
829 18-06-2010 12:00:00 15.46 C 8.81 g/m*3 15.46 C 0 km/h
830 18-06-2010 13:00:00 15.84 C 8.58 g/m*3 15.84 C 0 km/h
831 18-06-2010 14:00:00 14.86 C 8.49 g/m*3 14.86 C 0 km/h
832 18-06-2010 15:00:00 14.94 C 8.41 g/m*3 14.94 C 0 km/h
833 18-06-2010 16:00:00 15.38 C 8.32 g/m*3 15.38 C 0 km/h
834 18-06-2010 17:00:00 19.16 C 7.27 g/m*3 19.16 C 0 km/h
835 18-06-2010 18:00:00 21.46 C 6.92 g/m*3 21.46 C 0 km/h
836 18-06-2010 19:00:00 19.52 C 7.23 g/m*3 19.52 C 0 km/h
837 18-06-2010 20:00:00 17.82 C 7.63 g/m*3 17.82 C 0 km/h
838 18-06-2010 21:00:00 15.02 C 9.53 g/m*3 15.02 C 0 km/h
839 18-06-2010 22:00:00 14.86 C 9.54 g/m*3 14.86 C 0 km/h
840 18-06-2010 23:00:00 14.8 C 7.52 g/m*3 14.8 C 0 km/h
841 19-06-2010 00:00:00 14.4 C 6.9 g/m*3 14.4 C 0 km/h
842 19-06-2010 01:00:00 13.6 C 7.13 g/m*3 13.6 C 0 km/h
843 19-06-2010 02:00:00 12.56 C 6.84 g/m*3 12.56 C 0 km/h
844 19-06-2010 03:00:00 12.08 C 6.68 g/m*3 12.08 C 0 km/h
845 19-06-2010 04:00:00 10.94 C 6.56 g/m*3 10.94 C 0 km/h
846 19-06-2010 05:00:00 11.14 C 6.58 g/m*3 11.14 C 0 km/h
847 19-06-2010 06:00:00 11.5 C 6.82 g/m*3 11.5 C 0 km/h
848 19-06-2010 07:00:00 11.86 C 6.7 g/m*3 11.86 C 0 km/h
849 19-06-2010 08:00:00 11.96 C 6.46 g/m*3 11.96 C 0 km/h
850 19-06-2010 09:00:00 12.48 C 6.61 g/m*3 12.48 C 0 km/h
Sensor: Nr:Datum:Temp:Abs-Feuchte:Windchill:Wind:
Aussen-T/F 851 19-06-2010 10:00:00 12.22 C 6.63 g/m*3 12.22 C 0 km/h
852 19-06-2010 11:00:00 14.74 C 6.26 g/m*3 14.74 C 0 km/h
853 19-06-2010 12:00:00 16.28 C 5.38 g/m*3 16.28 C 0 km/h
854 19-06-2010 13:00:00 16.96 C 5.98 g/m*3 16.96 C 0 km/h
855 19-06-2010 14:00:00 18.26 C 5.02 g/m*3 18.26 C 0 km/h
856 19-06-2010 15:00:00 18.32 C 4.82 g/m*3 18.32 C 0 km/h
857 19-06-2010 16:00:00 18.72 C 4.97 g/m*3 18.72 C 0 km/h
858 19-06-2010 17:00:00 17.66 C 5.12 g/m*3 17.66 C 0 km/h
859 19-06-2010 18:00:00 16.34 C 5.48 g/m*3 16.34 C 0 km/h
860 19-06-2010 19:00:00 16.68 C 5.37 g/m*3 16.68 C 0 km/h
861 19-06-2010 20:00:00 14.7 C 5.72 g/m*3 14.7 C 0 km/h
862 19-06-2010 21:00:00 14.14 C 6.18 g/m*3 14.14 C 0 km/h
863 19-06-2010 22:00:00 12.92 C 6.07 g/m*3 12.92 C 0 km/h
864 19-06-2010 23:00:00 12.08 C 6.23 g/m*3 12.08 C 0 km/h
865 20-06-2010 00:00:00 10.92 C 6.35 g/m*3 10.92 C 0 km/h
866 20-06-2010 01:00:00 10.46 C 5.96 g/m*3 10.46 C 0 km/h
867 20-06-2010 02:00:00 9.64 C 6.06 g/m*3 9.64 C 0 km/h
868 20-06-2010 03:00:00 9.46 C 6.57 g/m*3 9.46 C 0 km/h
869 20-06-2010 04:00:00 9.2 C 6.98 g/m*3 9.2 C 0 km/h
870 20-06-2010 05:00:00 9.34 C 7.12 g/m*3 9.34 C 0 km/h
871 20-06-2010 06:00:00 10.08 C 7.31 g/m*3 10.08 C 0 km/h
872 20-06-2010 07:00:00 10.44 C 7.38 g/m*3 10.44 C 0 km/h
873 20-06-2010 08:00:00 10.58 C 8.09 g/m*3 10.58 C 0 km/h
874 20-06-2010 09:00:00 12.48 C 8.02 g/m*3 12.48 C 0 km/h
875 20-06-2010 10:00:00 13.54 C 7.25 g/m*3 13.54 C 0 km/h
Sensor: Nr:Datum:Temp:Abs-Feuchte:Windchill:Wind:
Aussen-T/F 876 20-06-2010 11:00:00 13.44 C 6.95 g/m*3 13.44 C 0 km/h
877 20-06-2010 12:00:00 15.26 C 6.51 g/m*3 15.26 C 0 km/h
878 20-06-2010 13:00:00 16.36 C 6.4 g/m*3 16.36 C 0 km/h
879 20-06-2010 14:00:00 16.52 C 5.88 g/m*3 16.52 C 0 km/h
880 20-06-2010 15:00:00 17.86 C 5.88 g/m*3 17.86 C 0 km/h
881 20-06-2010 16:00:00 16.74 C 5.7 g/m*3 16.74 C 0 km/h
882 20-06-2010 17:00:00 16.32 C 5.78 g/m*3 16.32 C 0 km/h
883 20-06-2010 18:00:00 16.32 C 6.25 g/m*3 16.32 C 0 km/h
884 20-06-2010 19:00:00 15.68 C 6.01 g/m*3 15.68 C 0 km/h
885 20-06-2010 20:00:00 15.24 C 6.17 g/m*3 15.24 C 0 km/h
886 20-06-2010 21:00:00 14.58 C 6.67 g/m*3 14.58 C 0 km/h
887 20-06-2010 22:00:00 13.78 C 6.88 g/m*3 13.78 C 0 km/h
888 20-06-2010 23:00:00 12.64 C 6.92 g/m*3 12.64 C 0 km/h
889 21-06-2010 00:00:00 11.5 C 7.07 g/m*3 11.5 C 0 km/h
890 21-06-2010 01:00:00 10.94 C 7.02 g/m*3 10.94 C 0 km/h
891 21-06-2010 02:00:00 10.28 C 6.98 g/m*3 10.28 C 0 km/h
892 21-06-2010 03:00:00 9.64 C 6.81 g/m*3 9.64 C 0 km/h
893 21-06-2010 04:00:00 9.16 C 6.86 g/m*3 9.16 C 0 km/h
894 21-06-2010 05:00:00 8.68 C 6.89 g/m*3 8.68 C 0 km/h
895 21-06-2010 06:00:00 8.62 C 7.14 g/m*3 8.62 C 0 km/h
896 21-06-2010 07:00:00 10.1 C 7.34 g/m*3 10.1 C 0 km/h
897 21-06-2010 08:00:00 12.54 C 6.92 g/m*3 12.54 C 0 km/h
898 21-06-2010 09:00:00 13.74 C 6.1 g/m*3 13.74 C 0 km/h
899 21-06-2010 10:00:00 13.76 C 5.73 g/m*3 13.76 C 0 km/h
900 21-06-2010 11:00:00 14.68 C 5.38 g/m*3 14.68 C 0 km/h
Sensor: Nr:Datum:Temp:Abs-Feuchte:Windchill:Wind:
Aussen-T/F 901 21-06-2010 12:00:00 15.72 C 5.28 g/m*3 15.72 C 0 km/h
902 21-06-2010 13:00:00 16.7 C 5.14 g/m*3 16.7 C 0 km/h
903 21-06-2010 14:00:00 18.62 C 4.68 g/m*3 18.62 C 0 km/h
904 21-06-2010 15:00:00 18.66 C 4.57 g/m*3 18.66 C 0 km/h
905 21-06-2010 16:00:00 20.76 C 4.52 g/m*3 20.76 C 0 km/h
906 21-06-2010 17:00:00 19.58 C 4.62 g/m*3 19.58 C 0 km/h
907 21-06-2010 18:00:00 18.32 C 4.95 g/m*3 18.32 C 0 km/h
908 21-06-2010 19:00:00 17.54 C 5.14 g/m*3 17.54 C 0 km/h
909 21-06-2010 20:00:00 16.82 C 6.16 g/m*3 16.82 C 0 km/h
910 21-06-2010 21:00:00 15.24 C 6.19 g/m*3 15.24 C 0 km/h
911 21-06-2010 22:00:00 13.74 C 6.22 g/m*3 13.74 C 0 km/h
912 21-06-2010 23:00:00 13.32 C 6.48 g/m*3 13.32 C 0 km/h
913 22-06-2010 00:00:00 12.34 C 6.62 g/m*3 12.34 C 0 km/h
914 22-06-2010 01:00:00 12.24 C 7.01 g/m*3 12.24 C 0 km/h
915 22-06-2010 02:00:00 12.02 C 7.06 g/m*3 12.02 C 0 km/h
916 22-06-2010 03:00:00 11.82 C 7.29 g/m*3 11.82 C 0 km/h
917 22-06-2010 04:00:00 11.48 C 7.39 g/m*3 11.48 C 0 km/h
918 22-06-2010 05:00:00 11.44 C 7.49 g/m*3 11.44 C 0 km/h
919 22-06-2010 06:00:00 11.58 C 7.62 g/m*3 11.58 C 0 km/h
920 22-06-2010 07:00:00 12.24 C 7.68 g/m*3 12.24 C 0 km/h
921 22-06-2010 08:00:00 13 C 7.48 g/m*3 13 C 0 km/h
922 22-06-2010 09:00:00 15 C 7.36 g/m*3 15 C 0 km/h
923 22-06-2010 10:00:00 18.72 C 6.38 g/m*3 18.72 C 0 km/h
924 22-06-2010 11:00:00 20.24 C 5.82 g/m*3 20.24 C 0 km/h
925 22-06-2010 12:00:00 21.08 C 5.48 g/m*3 21.08 C 0 km/h
Sensor: Nr:Datum:Temp:Abs-Feuchte:Windchill:Wind:
Aussen-T/F 926 22-06-2010 13:00:00 21.68 C 5.3 g/m*3 21.68 C 0 km/h
927 22-06-2010 14:00:00 23.3 C 5.19 g/m*3 23.3 C 0 km/h
928 22-06-2010 15:00:00 24.54 C 4.93 g/m*3 24.54 C 0 km/h
929 22-06-2010 16:00:00 24.28 C 4.95 g/m*3 24.28 C 0 km/h
930 22-06-2010 17:00:00 23.3 C 5.19 g/m*3 23.3 C 0 km/h
931 22-06-2010 18:00:00 23.14 C 6.26 g/m*3 23.14 C 0 km/h
932 22-06-2010 19:00:00 23.48 C 6.29 g/m*3 23.48 C 0 km/h
933 22-06-2010 20:00:00 21.04 C 6.65 g/m*3 21.04 C 0 km/h
934 22-06-2010 21:00:00 18.02 C 6.46 g/m*3 18.02 C 0 km/h
935 22-06-2010 22:00:00 16.32 C 6.81 g/m*3 16.32 C 0 km/h
936 22-06-2010 23:00:00 14.98 C 6.99 g/m*3 14.98 C 0 km/h
937 23-06-2010 00:00:00 13.8 C 7.51 g/m*3 13.8 C 0 km/h
938 23-06-2010 01:00:00 12.68 C 7.72 g/m*3 12.68 C 0 km/h
939 23-06-2010 02:00:00 11.84 C 7.79 g/m*3 11.84 C 0 km/h
940 23-06-2010 03:00:00 11.02 C 7.72 g/m*3 11.02 C 0 km/h
941 23-06-2010 04:00:00 10.42 C 7.66 g/m*3 10.42 C 0 km/h
942 23-06-2010 05:00:00 10 C 7.69 g/m*3 10 C 0 km/h
943 23-06-2010 06:00:00 10.06 C 7.75 g/m*3 10.06 C 0 km/h
944 23-06-2010 07:00:00 10.64 C 7.77 g/m*3 10.64 C 0 km/h
945 23-06-2010 08:00:00 11.78 C 7.86 g/m*3 11.78 C 0 km/h
946 23-06-2010 09:00:00 14.16 C 7.82 g/m*3 14.16 C 0 km/h
947 23-06-2010 10:00:00 17.76 C 7.72 g/m*3 17.76 C 0 km/h
948 23-06-2010 11:00:00 21.04 C 7.42 g/m*3 21.04 C 0 km/h
949 23-06-2010 12:00:00 25.96 C 5.93 g/m*3 25.96 C 0 km/h
950 23-06-2010 13:00:00 28.04 C 5.56 g/m*3 28.04 C 0 km/h
Sensor: Nr:Datum:Temp:Abs-Feuchte:Windchill:Wind:
Aussen-T/F 951 23-06-2010 14:00:00 27.64 C 5.44 g/m*3 27.64 C 0 km/h
952 23-06-2010 15:00:00 28.64 C 5.69 g/m*3 28.64 C 0 km/h
953 23-06-2010 16:00:00 30.16 C 6.12 g/m*3 30.16 C 0 km/h
954 23-06-2010 17:00:00 29.46 C 5.89 g/m*3 29.46 C 0 km/h
955 23-06-2010 18:00:00 30.28 C 6.16 g/m*3 30.28 C 0 km/h
956 23-06-2010 19:00:00 29.14 C 5.79 g/m*3 29.14 C 0 km/h
957 23-06-2010 20:00:00 27.38 C 6.57 g/m*3 27.38 C 0 km/h
958 23-06-2010 21:00:00 22.68 C 6.86 g/m*3 22.68 C 0 km/h
959 23-06-2010 22:00:00 20.52 C 6.95 g/m*3 20.52 C 0 km/h
960 23-06-2010 23:00:00 19.12 C 7.25 g/m*3 19.12 C 0 km/h
961 24-06-2010 00:00:00 17.58 C 7.79 g/m*3 17.58 C 0 km/h
962 24-06-2010 01:00:00 16.08 C 8.24 g/m*3 16.08 C 0 km/h
963 24-06-2010 02:00:00 14.98 C 8.3 g/m*3 14.98 C 0 km/h
964 24-06-2010 03:00:00 14.18 C 8.34 g/m*3 14.18 C 0 km/h
965 24-06-2010 04:00:00 13.2 C 8.4 g/m*3 13.2 C 0 km/h
966 24-06-2010 05:00:00 12.62 C 8.42 g/m*3 12.62 C 0 km/h
967 24-06-2010 06:00:00 12.7 C 8.53 g/m*3 12.7 C 0 km/h
968 24-06-2010 07:00:00 13.42 C 8.43 g/m*3 13.42 C 0 km/h
969 24-06-2010 08:00:00 14.76 C 8.59 g/m*3 14.76 C 0 km/h
970 24-06-2010 09:00:00 17.46 C 8.57 g/m*3 17.46 C 0 km/h
971 24-06-2010 10:00:00 21.5 C 8.6 g/m*3 21.5 C 0 km/h
972 24-06-2010 11:00:00 24.96 C 7.72 g/m*3 24.96 C 0 km/h
973 24-06-2010 12:00:00 28.72 C 6.05 g/m*3 28.72 C 0 km/h
974 24-06-2010 13:00:00 30.34 C 6.18 g/m*3 30.34 C 0 km/h
975 24-06-2010 14:00:00 29.72 C 5.97 g/m*3 29.72 C 0 km/h
Sensor: Nr:Datum:Temp:Abs-Feuchte:Windchill:Wind:
Aussen-T/F 976 24-06-2010 15:00:00 30.9 C 6.37 g/m*3 30.9 C 0 km/h
977 24-06-2010 16:00:00 31.32 C 6.51 g/m*3 31.32 C 0 km/h
978 24-06-2010 17:00:00 32.64 C 6.99 g/m*3 32.64 C 0 km/h
979 24-06-2010 18:00:00 32.64 C 6.99 g/m*3 32.64 C 0 km/h
980 24-06-2010 19:00:00 31.72 C 6.65 g/m*3 31.72 C 0 km/h
981 24-06-2010 20:00:00 30.14 C 6.91 g/m*3 30.14 C 0 km/h
982 24-06-2010 21:00:00 25.24 C 7.09 g/m*3 25.24 C 0 km/h
983 24-06-2010 22:00:00 22.96 C 7.46 g/m*3 22.96 C 0 km/h
984 24-06-2010 23:00:00 21.38 C 7.72 g/m*3 21.38 C 0 km/h
985 25-06-2010 00:00:00 20.04 C 8.04 g/m*3 20.04 C 0 km/h
986 25-06-2010 01:00:00 18.86 C 8.37 g/m*3 18.86 C 0 km/h
987 25-06-2010 02:00:00 18.4 C 8.78 g/m*3 18.4 C 0 km/h
988 25-06-2010 03:00:00 17.06 C 9.12 g/m*3 17.06 C 0 km/h
989 25-06-2010 04:00:00 16.72 C 9.31 g/m*3 16.72 C 0 km/h
990 25-06-2010 05:00:00 16.16 C 9.35 g/m*3 16.16 C 0 km/h
991 25-06-2010 06:00:00 16.22 C 9.53 g/m*3 16.22 C 0 km/h
992 25-06-2010 07:00:00 17.12 C 9.68 g/m*3 17.12 C 0 km/h
993 25-06-2010 08:00:00 19.04 C 9.41 g/m*3 19.04 C 0 km/h
994 25-06-2010 09:00:00 20.38 C 9.15 g/m*3 20.38 C 0 km/h
995 25-06-2010 10:00:00 22.58 C 8.75 g/m*3 22.58 C 0 km/h
996 25-06-2010 11:00:00 24.32 C 8.24 g/m*3 24.32 C 0 km/h
997 25-06-2010 12:00:00 27.72 C 7.82 g/m*3 27.72 C 0 km/h
998 25-06-2010 13:00:00 29.04 C 7.25 g/m*3 29.04 C 0 km/h
999 25-06-2010 14:00:00 28.84 C 6.95 g/m*3 28.84 C 0 km/h
1000 25-06-2010 15:00:00 29.6 C 6.47 g/m*3 29.6 C 0 km/h
Sensor: Nr:Datum:Temp:Abs-Feuchte:Windchill:Wind:
Aussen-T/F 1001 25-06-2010 16:00:00 30.24 C 6.14 g/m*3 30.24 C 0 km/h
1002 25-06-2010 17:00:00 30.7 C 6.3 g/m*3 30.7 C 0 km/h
1003 25-06-2010 18:00:00 30.74 C 6.31 g/m*3 30.74 C 0 km/h
1004 25-06-2010 19:00:00 30.2 C 6.19 g/m*3 30.2 C 0 km/h
1005 25-06-2010 20:00:00 28.24 C 6.01 g/m*3 28.24 C 0 km/h
1006 25-06-2010 21:00:00 24.98 C 7.08 g/m*3 24.98 C 0 km/h
1007 25-06-2010 22:00:00 22.64 C 7.45 g/m*3 22.64 C 0 km/h
1008 25-06-2010 23:00:00 21.04 C 7.79 g/m*3 21.04 C 0 km/h
1009 26-06-2010 00:00:00 19.68 C 8.18 g/m*3 19.68 C 0 km/h
1010 26-06-2010 01:00:00 18.6 C 8.31 g/m*3 18.6 C 0 km/h
1011 26-06-2010 02:00:00 17.42 C 8.55 g/m*3 17.42 C 0 km/h
1012 26-06-2010 03:00:00 16.46 C 8.66 g/m*3 16.46 C 0 km/h
1013 26-06-2010 04:00:00 15.5 C 8.83 g/m*3 15.5 C 0 km/h
1014 26-06-2010 05:00:00 14.76 C 8.92 g/m*3 14.76 C 0 km/h
1015 26-06-2010 06:00:00 14.74 C 9.21 g/m*3 14.74 C 0 km/h
1016 26-06-2010 07:00:00 15.38 C 9.32 g/m*3 15.38 C 0 km/h
1017 26-06-2010 08:00:00 16.8 C 9.52 g/m*3 16.8 C 0 km/h
1018 26-06-2010 09:00:00 19.56 C 9.6 g/m*3 19.56 C 0 km/h
1019 26-06-2010 10:00:00 23.02 C 8.89 g/m*3 23.02 C 0 km/h
1020 26-06-2010 11:00:00 26.18 C 7.23 g/m*3 26.18 C 0 km/h
1021 26-06-2010 12:00:00 29.4 C 6.46 g/m*3 29.4 C 0 km/h
1022 26-06-2010 13:00:00 31.08 C 6.43 g/m*3 31.08 C 0 km/h
1023 26-06-2010 14:00:00 29.52 C 5.91 g/m*3 29.52 C 0 km/h
1024 26-06-2010 15:00:00 30.66 C 6.28 g/m*3 30.66 C 0 km/h
1025 26-06-2010 16:00:00 31.64 C 6.62 g/m*3 31.64 C 0 km/h
Sensor: Nr:Datum:Temp:Abs-Feuchte:Windchill:Wind:
Aussen-T/F 1026 26-06-2010 17:00:00 32.84 C 7.06 g/m*3 32.84 C 0 km/h
1027 26-06-2010 18:00:00 32.04 C 6.77 g/m*3 32.04 C 0 km/h
1028 26-06-2010 19:00:00 31.24 C 6.48 g/m*3 31.24 C 0 km/h
1029 26-06-2010 20:00:00 30.14 C 6.48 g/m*3 30.14 C 0 km/h
1030 26-06-2010 21:00:00 25.86 C 7.1 g/m*3 25.86 C 0 km/h
1031 26-06-2010 22:00:00 23.16 C 7.55 g/m*3 23.16 C 0 km/h
1032 26-06-2010 23:00:00 21.56 C 7.83 g/m*3 21.56 C 0 km/h
1033 27-06-2010 00:00:00 20.08 C 7.95 g/m*3 20.08 C 0 km/h
1034 27-06-2010 01:00:00 18.76 C 8.32 g/m*3 18.76 C 0 km/h
1035 27-06-2010 02:00:00 17.56 C 8.59 g/m*3 17.56 C 0 km/h
1036 27-06-2010 03:00:00 16.64 C 8.84 g/m*3 16.64 C 0 km/h
1037 27-06-2010 04:00:00 15.76 C 8.89 g/m*3 15.76 C 0 km/h
1038 27-06-2010 05:00:00 15.04 C 8.92 g/m*3 15.04 C 0 km/h
1039 27-06-2010 06:00:00 14.94 C 9.2 g/m*3 14.94 C 0 km/h
1040 27-06-2010 07:00:00 15.36 C 9.36 g/m*3 15.36 C 0 km/h
1041 27-06-2010 08:00:00 17.04 C 9.25 g/m*3 17.04 C 0 km/h
1042 27-06-2010 09:00:00 20.34 C 9.41 g/m*3 20.34 C 0 km/h
1043 27-06-2010 10:00:00 24.16 C 8.91 g/m*3 24.16 C 0 km/h
1044 27-06-2010 11:00:00 27.22 C 7.82 g/m*3 27.22 C 0 km/h
1045 27-06-2010 12:00:00 30.58 C 6.45 g/m*3 30.58 C 0 km/h
1046 27-06-2010 13:00:00 31.9 C 6.72 g/m*3 31.9 C 0 km/h
1047 27-06-2010 14:00:00 31.34 C 6.52 g/m*3 31.34 C 0 km/h
1048 27-06-2010 15:00:00 32.44 C 6.91 g/m*3 32.44 C 0 km/h
1049 27-06-2010 16:00:00 33.1 C 7.16 g/m*3 33.1 C 0 km/h
1050 27-06-2010 17:00:00 33.26 C 7.22 g/m*3 33.26 C 0 km/h
Sensor: Nr:Datum:Temp:Abs-Feuchte:Windchill:Wind:
Aussen-T/F 1051 27-06-2010 18:00:00 33.72 C 7.39 g/m*3 33.72 C 0 km/h
1052 27-06-2010 19:00:00 33.38 C 7.26 g/m*3 33.38 C 0 km/h
1053 27-06-2010 20:00:00 31.46 C 6.63 g/m*3 31.46 C 0 km/h
1054 27-06-2010 21:00:00 26.92 C 7.23 g/m*3 26.92 C 0 km/h
1055 27-06-2010 22:00:00 24.2 C 7.48 g/m*3 24.2 C 0 km/h
1056 27-06-2010 23:00:00 22.66 C 7.94 g/m*3 22.66 C 0 km/h
1057 28-06-2010 00:00:00 21 C 8.21 g/m*3 21 C 0 km/h
1058 28-06-2010 01:00:00 19.78 C 8.19 g/m*3 19.78 C 0 km/h
1059 28-06-2010 02:00:00 18.7 C 8.65 g/m*3 18.7 C 0 km/h
1060 28-06-2010 03:00:00 17.78 C 8.76 g/m*3 17.78 C 0 km/h
1061 28-06-2010 04:00:00 16.78 C 9.02 g/m*3 16.78 C 0 km/h
1062 28-06-2010 05:00:00 16.1 C 9.21 g/m*3 16.1 C 0 km/h
1063 28-06-2010 06:00:00 16.42 C 9.47 g/m*3 16.42 C 0 km/h
1064 28-06-2010 07:00:00 16.8 C 9.69 g/m*3 16.8 C 0 km/h
1065 28-06-2010 08:00:00 18.2 C 9.61 g/m*3 18.2 C 0 km/h
1066 28-06-2010 09:00:00 21.24 C 9.7 g/m*3 21.24 C 0 km/h
1067 28-06-2010 10:00:00 25.26 C 9.67 g/m*3 25.26 C 0 km/h
1068 28-06-2010 11:00:00 28.96 C 8.88 g/m*3 28.96 C 0 km/h
1069 28-06-2010 12:00:00 31.7 C 7.04 g/m*3 31.7 C 0 km/h
1070 28-06-2010 13:00:00 33.08 C 7.15 g/m*3 33.08 C 0 km/h
1071 28-06-2010 14:00:00 32.52 C 6.94 g/m*3 32.52 C 0 km/h
1072 28-06-2010 15:00:00 32.42 C 6.9 g/m*3 32.42 C 0 km/h
1073 28-06-2010 16:00:00 32.74 C 7.02 g/m*3 32.74 C 0 km/h
1074 28-06-2010 17:00:00 33.18 C 7.19 g/m*3 33.18 C 0 km/h
1075 28-06-2010 18:00:00 32.8 C 7.04 g/m*3 32.8 C 0 km/h
Sensor: Nr:Datum:Temp:Abs-Feuchte:Windchill:Wind:
Aussen-T/F 1076 28-06-2010 19:00:00 31.6 C 6.61 g/m*3 31.6 C 0 km/h
1077 28-06-2010 20:00:00 30.48 C 6.85 g/m*3 30.48 C 0 km/h
1078 28-06-2010 21:00:00 27.64 C 7.2 g/m*3 27.64 C 0 km/h
1079 28-06-2010 22:00:00 26.15 C 7.55 g/m*3 26.15 C 0 km/h
1080 28-06-2010 23:00:00 24.98 C 8.28 g/m*3 24.98 C 0 km/h
1081 29-06-2010 00:00:00 23.56 C 8.74 g/m*3 23.56 C 0 km/h
1082 29-06-2010 01:00:00 22.18 C 9.02 g/m*3 22.18 C 0 km/h
1083 29-06-2010 02:00:00 21.12 C 9.3 g/m*3 21.12 C 0 km/h
1084 29-06-2010 03:00:00 20.58 C 9.51 g/m*3 20.58 C 0 km/h
1085 29-06-2010 04:00:00 19.52 C 9.75 g/m*3 19.52 C 0 km/h
1086 29-06-2010 05:00:00 18.7 C 10.21 g/m*3 18.7 C 0 km/h
1087 29-06-2010 06:00:00 18.36 C 10.45 g/m*3 18.36 C 0 km/h
1088 29-06-2010 07:00:00 18.88 C 10.65 g/m*3 18.88 C 0 km/h
1089 29-06-2010 08:00:00 20.02 C 10.52 g/m*3 20.02 C 0 km/h
1090 29-06-2010 09:00:00 22.62 C 10.1 g/m*3 22.62 C 0 km/h
1091 29-06-2010 10:00:00 25.84 C 9.8 g/m*3 25.84 C 0 km/h
1092 29-06-2010 11:00:00 28.5 C 9.61 g/m*3 28.5 C 0 km/h
1093 29-06-2010 12:00:00 31.44 C 7.99 g/m*3 31.44 C 0 km/h
1094 29-06-2010 13:00:00 32.64 C 6.99 g/m*3 32.64 C 0 km/h
1095 29-06-2010 14:00:00 31.54 C 6.65 g/m*3 31.54 C 0 km/h
1096 29-06-2010 15:00:00 28.6 C 7.98 g/m*3 28.6 C 0 km/h
1097 29-06-2010 16:00:00 27.06 C 11.05 g/m*3 27.06 C 0 km/h
1098 29-06-2010 17:00:00 29.54 C 9.76 g/m*3 29.54 C 0 km/h
1099 29-06-2010 18:00:00 29.1 C 8.61 g/m*3 29.1 C 0 km/h
1100 29-06-2010 19:00:00 28.96 C 8.6 g/m*3 28.96 C 0 km/h
Sensor: Nr:Datum:Temp:Abs-Feuchte:Windchill:Wind:
Aussen-T/F 1101 29-06-2010 20:00:00 27.68 C 8.6 g/m*3 27.68 C 0 km/h
1102 29-06-2010 21:00:00 25.38 C 9.5 g/m*3 25.38 C 0 km/h
1103 29-06-2010 22:00:00 23 C 9.87 g/m*3 23 C 0 km/h
1104 29-06-2010 23:00:00 21.86 C 10.2 g/m*3 21.86 C 0 km/h
1105 30-06-2010 00:00:00 20.6 C 10.49 g/m*3 20.6 C 0 km/h
1106 30-06-2010 01:00:00 19.5 C 10.81 g/m*3 19.5 C 0 km/h
1107 30-06-2010 02:00:00 18.54 C 10.94 g/m*3 18.54 C 0 km/h
1108 30-06-2010 03:00:00 17.76 C 11.11 g/m*3 17.76 C 0 km/h
1109 30-06-2010 04:00:00 16.96 C 11.03 g/m*3 16.96 C 0 km/h
1110 30-06-2010 05:00:00 16.32 C 10.95 g/m*3 16.32 C 0 km/h
1111 30-06-2010 06:00:00 16.18 C 10.8 g/m*3 16.18 C 0 km/h
1112 30-06-2010 07:00:00 17.32 C 10.77 g/m*3 17.32 C 0 km/h
1113 30-06-2010 08:00:00 18.28 C 10.93 g/m*3 18.28 C 0 km/h
1114 30-06-2010 09:00:00 20.5 C 9.93 g/m*3 20.5 C 0 km/h
1115 30-06-2010 10:00:00 23.6 C 9.32 g/m*3 23.6 C 0 km/h
1116 30-06-2010 11:00:00 26.9 C 8.5 g/m*3 26.9 C 0 km/h
1117 30-06-2010 12:00:00 29.24 C 6.58 g/m*3 29.24 C 0 km/h
1118 30-06-2010 13:00:00 31.84 C 6.69 g/m*3 31.84 C 0 km/h
1119 30-06-2010 14:00:00 31.78 C 6.67 g/m*3 31.78 C 0 km/h
1120 30-06-2010 15:00:00 32.34 C 6.87 g/m*3 32.34 C 0 km/h
1121 30-06-2010 16:00:00 32.36 C 6.88 g/m*3 32.36 C 0 km/h
1122 30-06-2010 17:00:00 32.34 C 6.87 g/m*3 32.34 C 0 km/h
1123 30-06-2010 18:00:00 32.32 C 6.87 g/m*3 32.32 C 0 km/h
1124 30-06-2010 19:00:00 31.08 C 6.94 g/m*3 31.08 C 0 km/h
1125 30-06-2010 20:00:00 29.74 C 7.95 g/m*3 29.74 C 0 km/h
Sensor: Nr:Datum:Temp:Abs-Feuchte:Windchill:Wind:
Aussen-T/F 1126 30-06-2010 21:00:00 26.54 C 7.83 g/m*3 26.54 C 0 km/h
1127 30-06-2010 22:00:00 24.98 C 8.09 g/m*3 24.98 C 0 km/h
1128 30-06-2010 23:00:00 23.8 C 8.56 g/m*3 23.8 C 0 km/h
1129 01-07-2010 00:00:00 22.42 C 8.71 g/m*3 22.42 C 0 km/h
1130 01-07-2010 01:00:00 21.16 C 9.1 g/m*3 21.16 C 0 km/h
1131 01-07-2010 02:00:00 20 C 9.51 g/m*3 20 C 0 km/h
1132 01-07-2010 03:00:00 19.06 C 9.85 g/m*3 19.06 C 0 km/h
1133 01-07-2010 04:00:00 18.3 C 9.85 g/m*3 18.3 C 0 km/h
1134 01-07-2010 05:00:00 17.36 C 10.17 g/m*3 17.36 C 0 km/h
1135 01-07-2010 06:00:00 17.12 C 10.41 g/m*3 17.12 C 0 km/h
1136 01-07-2010 07:00:00 17.68 C 10.43 g/m*3 17.68 C 0 km/h
1137 01-07-2010 08:00:00 18.82 C 10.55 g/m*3 18.82 C 0 km/h
1138 01-07-2010 09:00:00 21.8 C 10.48 g/m*3 21.8 C 0 km/h
1139 01-07-2010 10:00:00 25.82 C 10.22 g/m*3 25.82 C 0 km/h
1140 01-07-2010 11:00:00 28.68 C 9.2 g/m*3 28.68 C 0 km/h
1141 01-07-2010 12:00:00 31.1 C 7.01 g/m*3 31.1 C 0 km/h
1142 01-07-2010 13:00:00 32.8 C 7.04 g/m*3 32.8 C 0 km/h
1143 01-07-2010 14:00:00 32.22 C 6.83 g/m*3 32.22 C 0 km/h
1144 01-07-2010 15:00:00 32.88 C 7.07 g/m*3 32.88 C 0 km/h
1145 01-07-2010 16:00:00 33.2 C 7.2 g/m*3 33.2 C 0 km/h
1146 01-07-2010 17:00:00 33.3 C 7.23 g/m*3 33.3 C 0 km/h
1147 01-07-2010 18:00:00 33.86 C 7.45 g/m*3 33.86 C 0 km/h
1148 01-07-2010 19:00:00 33.46 C 7.29 g/m*3 33.46 C 0 km/h
1149 01-07-2010 20:00:00 31.52 C 7.7 g/m*3 31.52 C 0 km/h
1150 01-07-2010 21:00:00 27.42 C 8.59 g/m*3 27.42 C 0 km/h
Sensor: Nr:Datum:Temp:Abs-Feuchte:Windchill:Wind:
Aussen-T/F 1151 01-07-2010 22:00:00 25.5 C 8.52 g/m*3 25.5 C 0 km/h
1152 01-07-2010 23:00:00 24.74 C 8.44 g/m*3 24.74 C 0 km/h
1153 02-07-2010 00:00:00 23.48 C 8.83 g/m*3 23.48 C 0 km/h
1154 02-07-2010 01:00:00 22.46 C 9.05 g/m*3 22.46 C 0 km/h
1155 02-07-2010 02:00:00 21.32 C 8.96 g/m*3 21.32 C 0 km/h
1156 02-07-2010 03:00:00 20.6 C 9.16 g/m*3 20.6 C 0 km/h
1157 02-07-2010 04:00:00 19.68 C 9.67 g/m*3 19.68 C 0 km/h
1158 02-07-2010 05:00:00 18.86 C 9.79 g/m*3 18.86 C 0 km/h
1159 02-07-2010 06:00:00 18.68 C 10.27 g/m*3 18.68 C 0 km/h
1160 02-07-2010 07:00:00 19.52 C 10.52 g/m*3 19.52 C 0 km/h
1161 02-07-2010 08:00:00 20.86 C 10.54 g/m*3 20.86 C 0 km/h
1162 02-07-2010 09:00:00 24.14 C 10.7 g/m*3 24.14 C 0 km/h
1163 02-07-2010 10:00:00 27.86 C 10.42 g/m*3 27.86 C 0 km/h
1164 02-07-2010 11:00:00 30.18 C 9.92 g/m*3 30.18 C 0 km/h
1165 02-07-2010 12:00:00 32.12 C 8.02 g/m*3 32.12 C 0 km/h
1166 02-07-2010 13:00:00 33.36 C 7.26 g/m*3 33.36 C 0 km/h
1167 02-07-2010 14:00:00 32.78 C 7.39 g/m*3 32.78 C 0 km/h
1168 02-07-2010 15:00:00 32.2 C 8.53 g/m*3 32.2 C 0 km/h
1169 02-07-2010 16:00:00 32.46 C 8.79 g/m*3 32.46 C 0 km/h
1170 02-07-2010 17:00:00 34.22 C 7.59 g/m*3 34.22 C 0 km/h
1171 02-07-2010 18:00:00 33.7 C 7.39 g/m*3 33.7 C 0 km/h
1172 02-07-2010 19:00:00 33.76 C 7.41 g/m*3 33.76 C 0 km/h
1173 02-07-2010 20:00:00 32.56 C 8.07 g/m*3 32.56 C 0 km/h
1174 02-07-2010 21:00:00 29.68 C 8.35 g/m*3 29.68 C 0 km/h
1175 02-07-2010 22:00:00 27.1 C 7.92 g/m*3 27.1 C 0 km/h
Sensor: Nr:Datum:Temp:Abs-Feuchte:Windchill:Wind:
Aussen-T/F 1176 02-07-2010 23:00:00 25.62 C 8.2 g/m*3 25.62 C 0 km/h
1177 03-07-2010 00:00:00 24.46 C 8.98 g/m*3 24.46 C 0 km/h
1178 03-07-2010 01:00:00 23.38 C 9.83 g/m*3 23.38 C 0 km/h
1179 03-07-2010 02:00:00 22.52 C 10.44 g/m*3 22.52 C 0 km/h
1180 03-07-2010 03:00:00 21.58 C 10.76 g/m*3 21.58 C 0 km/h
1181 03-07-2010 04:00:00 20.68 C 11.04 g/m*3 20.68 C 0 km/h
1182 03-07-2010 05:00:00 20.02 C 11.32 g/m*3 20.02 C 0 km/h
1183 03-07-2010 06:00:00 20.18 C 11.49 g/m*3 20.18 C 0 km/h
1184 03-07-2010 07:00:00 21.32 C 11.76 g/m*3 21.32 C 0 km/h
1185 03-07-2010 08:00:00 22.58 C 11.8 g/m*3 22.58 C 0 km/h
1186 03-07-2010 09:00:00 25.16 C 12.12 g/m*3 25.16 C 0 km/h
1187 03-07-2010 10:00:00 28.84 C 12.13 g/m*3 28.84 C 0 km/h
1188 03-07-2010 11:00:00 31.3 C 10.86 g/m*3 31.3 C 0 km/h
1189 03-07-2010 12:00:00 33.3 C 7.59 g/m*3 33.3 C 0 km/h
1190 03-07-2010 13:00:00 33.78 C 7.71 g/m*3 33.78 C 0 km/h
1191 03-07-2010 14:00:00 33.72 C 7.39 g/m*3 33.72 C 0 km/h
1192 03-07-2010 15:00:00 31.94 C 7.81 g/m*3 31.94 C 0 km/h
1193 03-07-2010 16:00:00 30.8 C 8.74 g/m*3 30.8 C 0 km/h
1194 03-07-2010 17:00:00 29.4 C 9.86 g/m*3 29.4 C 0 km/h
1195 03-07-2010 18:00:00 26.48 C 10.7 g/m*3 26.48 C 0 km/h
1196 03-07-2010 19:00:00 27.1 C 11.44 g/m*3 27.1 C 0 km/h
1197 03-07-2010 20:00:00 28.08 C 12.07 g/m*3 28.08 C 0 km/h
1198 03-07-2010 21:00:00 26.24 C 13.42 g/m*3 26.24 C 0 km/h
1199 03-07-2010 22:00:00 25.02 C 14.06 g/m*3 25.02 C 0 km/h
1200 03-07-2010 23:00:00 24.04 C 13.78 g/m*3 24.04 C 0 km/h
Sensor: Nr:Datum:Temp:Abs-Feuchte:Windchill:Wind:
Aussen-T/F 1201 04-07-2010 00:00:00 23.46 C 14.01 g/m*3 23.46 C 0 km/h
1202 04-07-2010 01:00:00 22.92 C 13.79 g/m*3 22.92 C 0 km/h
1203 04-07-2010 02:00:00 22.38 C 13.61 g/m*3 22.38 C 0 km/h
1204 04-07-2010 03:00:00 22.16 C 13.79 g/m*3 22.16 C 0 km/h
1205 04-07-2010 04:00:00 21.62 C 13.9 g/m*3 21.62 C 0 km/h
1206 04-07-2010 05:00:00 21.12 C 13.95 g/m*3 21.12 C 0 km/h
1207 04-07-2010 06:00:00 21.64 C 13.99 g/m*3 21.64 C 0 km/h
1208 04-07-2010 07:00:00 22.34 C 13.89 g/m*3 22.34 C 0 km/h
1209 04-07-2010 08:00:00 23.16 C 13.44 g/m*3 23.16 C 0 km/h
1210 04-07-2010 09:00:00 23.54 C 12.93 g/m*3 23.54 C 0 km/h
1211 04-07-2010 10:00:00 24.42 C 12.61 g/m*3 24.42 C 0 km/h
1212 04-07-2010 11:00:00 26.02 C 12.09 g/m*3 26.02 C 0 km/h
1213 04-07-2010 12:00:00 27.94 C 11 g/m*3 27.94 C 0 km/h
1214 04-07-2010 13:00:00 30.34 C 9.64 g/m*3 30.34 C 0 km/h
1215 04-07-2010 14:00:00 30.56 C 9.5 g/m*3 30.56 C 0 km/h
1216 04-07-2010 15:00:00 31.98 C 8.5 g/m*3 31.98 C 0 km/h
1217 04-07-2010 16:00:00 32.22 C 7.86 g/m*3 32.22 C 0 km/h
1218 04-07-2010 17:00:00 32.48 C 7.55 g/m*3 32.48 C 0 km/h
1219 04-07-2010 18:00:00 32.5 C 7.56 g/m*3 32.5 C 0 km/h
1220 04-07-2010 19:00:00 30.92 C 8.73 g/m*3 30.92 C 0 km/h
1221 04-07-2010 20:00:00 31.06 C 8.8 g/m*3 31.06 C 0 km/h
1222 04-07-2010 21:00:00 27.74 C 9.65 g/m*3 27.74 C 0 km/h
1223 04-07-2010 22:00:00 26.44 C 9.58 g/m*3 26.44 C 0 km/h
1224 04-07-2010 23:00:00 25.8 C 9.24 g/m*3 25.8 C 0 km/h
1225 05-07-2010 00:00:00 24.34 C 8.16 g/m*3 24.34 C 0 km/h
Sensor: Nr:Datum:Temp:Abs-Feuchte:Windchill:Wind:
Aussen-T/F 1226 05-07-2010 01:00:00 23.26 C 7.13 g/m*3 23.26 C 0 km/h
1227 05-07-2010 02:00:00 21.94 C 7.08 g/m*3 21.94 C 0 km/h
1228 05-07-2010 03:00:00 21.02 C 6.82 g/m*3 21.02 C 0 km/h
1229 05-07-2010 04:00:00 19.96 C 6.28 g/m*3 19.96 C 0 km/h
1230 05-07-2010 05:00:00 18.86 C 6.3 g/m*3 18.86 C 0 km/h
1231 05-07-2010 06:00:00 18.34 C 6.77 g/m*3 18.34 C 0 km/h
1232 05-07-2010 07:00:00 18.44 C 7.47 g/m*3 18.44 C 0 km/h
1233 05-07-2010 08:00:00 19.4 C 7.01 g/m*3 19.4 C 0 km/h
1234 05-07-2010 09:00:00 21.28 C 6.67 g/m*3 21.28 C 0 km/h
1235 05-07-2010 10:00:00 23.7 C 6.42 g/m*3 23.7 C 0 km/h
1236 05-07-2010 11:00:00 26.54 C 6.62 g/m*3 26.54 C 0 km/h
1237 05-07-2010 12:00:00 27.94 C 6.61 g/m*3 27.94 C 0 km/h
1238 05-07-2010 13:00:00 27.88 C 7.56 g/m*3 27.88 C 0 km/h
1239 05-07-2010 14:00:00 26.2 C 8.03 g/m*3 26.2 C 0 km/h
1240 05-07-2010 15:00:00 25.86 C 8.26 g/m*3 25.86 C 0 km/h
1241 05-07-2010 16:00:00 24.76 C 8.9 g/m*3 24.76 C 0 km/h
1242 05-07-2010 17:00:00 23.46 C 10.04 g/m*3 23.46 C 0 km/h
1243 05-07-2010 18:00:00 21.1 C 11.76 g/m*3 21.1 C 0 km/h
1244 05-07-2010 19:00:00 19.32 C 13.62 g/m*3 19.32 C 0 km/h
1245 05-07-2010 20:00:00 19.44 C 13.14 g/m*3 19.44 C 0 km/h
1246 05-07-2010 21:00:00 18.96 C 12.94 g/m*3 18.96 C 0 km/h
1247 05-07-2010 22:00:00 18.62 C 12.78 g/m*3 18.62 C 0 km/h
1248 05-07-2010 23:00:00 17.88 C 12.47 g/m*3 17.88 C 0 km/h
1249 06-07-2010 00:00:00 17.24 C 11.98 g/m*3 17.24 C 0 km/h
1250 06-07-2010 01:00:00 17.24 C 11.77 g/m*3 17.24 C 0 km/h
Sensor: Nr:Datum:Temp:Abs-Feuchte:Windchill:Wind:
Aussen-T/F 1251 06-07-2010 02:00:00 16.84 C 11.26 g/m*3 16.84 C 0 km/h
1252 06-07-2010 03:00:00 16.34 C 10.88 g/m*3 16.34 C 0 km/h
1253 06-07-2010 04:00:00 15.2 C 10.1 g/m*3 15.2 C 0 km/h
1254 06-07-2010 05:00:00 14.86 C 10.25 g/m*3 14.86 C 0 km/h
1255 06-07-2010 06:00:00 14.66 C 9.92 g/m*3 14.66 C 0 km/h
1256 06-07-2010 07:00:00 15.08 C 9.72 g/m*3 15.08 C 0 km/h
1257 06-07-2010 08:00:00 15.9 C 9.24 g/m*3 15.9 C 0 km/h
1258 06-07-2010 09:00:00 17.54 C 8.28 g/m*3 17.54 C 0 km/h
1259 06-07-2010 10:00:00 20.02 C 7.27 g/m*3 20.02 C 0 km/h
1260 06-07-2010 11:00:00 21.48 C 6.59 g/m*3 21.48 C 0 km/h
1261 06-07-2010 12:00:00 23.02 C 5.51 g/m*3 23.02 C 0 km/h
1262 06-07-2010 13:00:00 24.6 C 5.04 g/m*3 24.6 C 0 km/h
1263 06-07-2010 14:00:00 24.28 C 4.73 g/m*3 24.28 C 0 km/h
1264 06-07-2010 15:00:00 24.52 C 4.48 g/m*3 24.52 C 0 km/h
1265 06-07-2010 16:00:00 25.84 C 4.83 g/m*3 25.84 C 0 km/h
1266 06-07-2010 17:00:00 26.92 C 5.12 g/m*3 26.92 C 0 km/h
1267 06-07-2010 18:00:00 25.46 C 4.72 g/m*3 25.46 C 0 km/h
1268 06-07-2010 19:00:00 25.06 C 4.8 g/m*3 25.06 C 0 km/h
1269 06-07-2010 20:00:00 24.3 C 5.31 g/m*3 24.3 C 0 km/h
1270 06-07-2010 21:00:00 21.36 C 6.25 g/m*3 21.36 C 0 km/h
1271 06-07-2010 22:00:00 18.84 C 6.52 g/m*3 18.84 C 0 km/h
1272 06-07-2010 23:00:00 17.68 C 6.81 g/m*3 17.68 C 0 km/h
1273 07-07-2010 00:00:00 16.5 C 6.88 g/m*3 16.5 C 0 km/h
1274 07-07-2010 01:00:00 15.52 C 7.41 g/m*3 15.52 C 0 km/h
1275 07-07-2010 02:00:00 14.8 C 7.68 g/m*3 14.8 C 0 km/h
Sensor: Nr:Datum:Temp:Abs-Feuchte:Windchill:Wind:
Aussen-T/F 1276 07-07-2010 03:00:00 13.92 C 7.78 g/m*3 13.92 C 0 km/h
1277 07-07-2010 04:00:00 13.3 C 7.74 g/m*3 13.3 C 0 km/h
1278 07-07-2010 05:00:00 12.76 C 8 g/m*3 12.76 C 0 km/h
1279 07-07-2010 06:00:00 12.7 C 8.24 g/m*3 12.7 C 0 km/h
1280 07-07-2010 07:00:00 13.34 C 8.39 g/m*3 13.34 C 0 km/h
1281 07-07-2010 08:00:00 14.76 C 8.31 g/m*3 14.76 C 0 km/h
1282 07-07-2010 09:00:00 17.66 C 8.13 g/m*3 17.66 C 0 km/h
1283 07-07-2010 10:00:00 21.04 C 7.97 g/m*3 21.04 C 0 km/h
1284 07-07-2010 11:00:00 23.62 C 6 g/m*3 23.62 C 0 km/h
1285 07-07-2010 12:00:00 26.78 C 5.34 g/m*3 26.78 C 0 km/h
1286 07-07-2010 13:00:00 29.38 C 5.86 g/m*3 29.38 C 0 km/h
1287 07-07-2010 14:00:00 28.34 C 5.54 g/m*3 28.34 C 0 km/h
1288 07-07-2010 15:00:00 30.4 C 6.2 g/m*3 30.4 C 0 km/h
1289 07-07-2010 16:00:00 31.96 C 6.74 g/m*3 31.96 C 0 km/h
1290 07-07-2010 17:00:00 32.54 C 6.95 g/m*3 32.54 C 0 km/h
1291 07-07-2010 18:00:00 32.88 C 7.07 g/m*3 32.88 C 0 km/h
1292 07-07-2010 19:00:00 32.4 C 6.9 g/m*3 32.4 C 0 km/h
1293 07-07-2010 20:00:00 31.26 C 6.49 g/m*3 31.26 C 0 km/h
1294 07-07-2010 21:00:00 26.86 C 6.69 g/m*3 26.86 C 0 km/h
1295 07-07-2010 22:00:00 24.4 C 6.85 g/m*3 24.4 C 0 km/h
1296 07-07-2010 23:00:00 23.7 C 7.1 g/m*3 23.7 C 0 km/h
1297 08-07-2010 00:00:00 22.38 C 7.74 g/m*3 22.38 C 0 km/h
1298 08-07-2010 01:00:00 20.54 C 7.99 g/m*3 20.54 C 0 km/h
1299 08-07-2010 02:00:00 19.78 C 8.19 g/m*3 19.78 C 0 km/h
1300 08-07-2010 03:00:00 19.4 C 8.14 g/m*3 19.4 C 0 km/h
Sensor: Nr:Datum:Temp:Abs-Feuchte:Windchill:Wind:
Aussen-T/F 1301 08-07-2010 04:00:00 18.52 C 8.43 g/m*3 18.52 C 0 km/h
1302 08-07-2010 05:00:00 17.78 C 8.4 g/m*3 17.78 C 0 km/h
1303 08-07-2010 06:00:00 17.38 C 8.5 g/m*3 17.38 C 0 km/h
1304 08-07-2010 07:00:00 17.92 C 8.93 g/m*3 17.92 C 0 km/h
1305 08-07-2010 08:00:00 19.12 C 8.9 g/m*3 19.12 C 0 km/h
1306 08-07-2010 09:00:00 22.24 C 9.17 g/m*3 22.24 C 0 km/h
1307 08-07-2010 10:00:00 25.96 C 8.94 g/m*3 25.96 C 0 km/h
1308 08-07-2010 11:00:00 29.18 C 7.08 g/m*3 29.18 C 0 km/h
1309 08-07-2010 12:00:00 31.5 C 6.57 g/m*3 31.5 C 0 km/h
1310 08-07-2010 13:00:00 32.88 C 7.07 g/m*3 32.88 C 0 km/h
1311 08-07-2010 14:00:00 32.36 C 6.88 g/m*3 32.36 C 0 km/h
1312 08-07-2010 15:00:00 33.26 C 7.22 g/m*3 33.26 C 0 km/h
1313 08-07-2010 16:00:00 33.62 C 7.36 g/m*3 33.62 C 0 km/h
1314 08-07-2010 17:00:00 33.96 C 7.49 g/m*3 33.96 C 0 km/h
1315 08-07-2010 18:00:00 34.38 C 7.65 g/m*3 34.38 C 0 km/h
1316 08-07-2010 19:00:00 34.14 C 7.56 g/m*3 34.14 C 0 km/h
1317 08-07-2010 20:00:00 33 C 7.19 g/m*3 33 C 0 km/h
1318 08-07-2010 21:00:00 29.98 C 8.3 g/m*3 29.98 C 0 km/h
1319 08-07-2010 22:00:00 28.02 C 8.22 g/m*3 28.02 C 0 km/h
1320 08-07-2010 23:00:00 27.12 C 8.08 g/m*3 27.12 C 0 km/h
1321 09-07-2010 00:00:00 25.66 C 8.41 g/m*3 25.66 C 0 km/h
1322 09-07-2010 01:00:00 23.78 C 8.81 g/m*3 23.78 C 0 km/h
1323 09-07-2010 02:00:00 22.4 C 8.94 g/m*3 22.4 C 0 km/h
1324 09-07-2010 03:00:00 21.24 C 9.21 g/m*3 21.24 C 0 km/h
1325 09-07-2010 04:00:00 20.16 C 9.45 g/m*3 20.16 C 0 km/h
Sensor: Nr:Datum:Temp:Abs-Feuchte:Windchill:Wind:
Aussen-T/F 1326 09-07-2010 05:00:00 19.22 C 9.48 g/m*3 19.22 C 0 km/h
1327 09-07-2010 06:00:00 19.06 C 9.98 g/m*3 19.06 C 0 km/h
1328 09-07-2010 07:00:00 19.9 C 10.1 g/m*3 19.9 C 0 km/h
1329 09-07-2010 08:00:00 21.5 C 9.96 g/m*3 21.5 C 0 km/h
1330 09-07-2010 09:00:00 24.16 C 10.14 g/m*3 24.16 C 0 km/h
1331 09-07-2010 10:00:00 27.94 C 10.3 g/m*3 27.94 C 0 km/h
1332 09-07-2010 11:00:00 30.82 C 9.19 g/m*3 30.82 C 0 km/h
1333 09-07-2010 12:00:00 33.14 C 7.17 g/m*3 33.14 C 0 km/h
1334 09-07-2010 13:00:00 34.56 C 7.73 g/m*3 34.56 C 0 km/h
1335 09-07-2010 14:00:00 33.26 C 7.22 g/m*3 33.26 C 0 km/h
1336 09-07-2010 15:00:00 33.48 C 7.3 g/m*3 33.48 C 0 km/h
1337 09-07-2010 16:00:00 32.28 C 7.74 g/m*3 32.28 C 0 km/h
1338 09-07-2010 17:00:00 32.32 C 7.76 g/m*3 32.32 C 0 km/h
1339 09-07-2010 18:00:00 33.42 C 7.28 g/m*3 33.42 C 0 km/h
1340 09-07-2010 19:00:00 33.48 C 7.3 g/m*3 33.48 C 0 km/h
1341 09-07-2010 20:00:00 32.04 C 7.58 g/m*3 32.04 C 0 km/h
1342 09-07-2010 21:00:00 29.94 C 8.71 g/m*3 29.94 C 0 km/h
1343 09-07-2010 22:00:00 28.78 C 9.48 g/m*3 28.78 C 0 km/h
1344 09-07-2010 23:00:00 27.78 C 9.62 g/m*3 27.78 C 0 km/h
1345 10-07-2010 00:00:00 26.3 C 10.1 g/m*3 26.3 C 0 km/h
1346 10-07-2010 01:00:00 24.96 C 10.57 g/m*3 24.96 C 0 km/h
1347 10-07-2010 02:00:00 24.2 C 10.78 g/m*3 24.2 C 0 km/h
1348 10-07-2010 03:00:00 23.1 C 11.41 g/m*3 23.1 C 0 km/h
1349 10-07-2010 04:00:00 22.34 C 11.48 g/m*3 22.34 C 0 km/h
1350 10-07-2010 05:00:00 21.64 C 11.67 g/m*3 21.64 C 0 km/h
Sensor: Nr:Datum:Temp:Abs-Feuchte:Windchill:Wind:
Aussen-T/F 1351 10-07-2010 06:00:00 21.3 C 11.97 g/m*3 21.3 C 0 km/h
1352 10-07-2010 07:00:00 21.9 C 12.23 g/m*3 21.9 C 0 km/h
1353 10-07-2010 08:00:00 23.38 C 12.01 g/m*3 23.38 C 0 km/h
1354 10-07-2010 09:00:00 26.04 C 11.76 g/m*3 26.04 C 0 km/h
1355 10-07-2010 10:00:00 29.44 C 11.53 g/m*3 29.44 C 0 km/h
1356 10-07-2010 11:00:00 31.46 C 9.25 g/m*3 31.46 C 0 km/h
1357 10-07-2010 12:00:00 33.42 C 7.5 g/m*3 33.42 C 0 km/h
1358 10-07-2010 13:00:00 34.8 C 7.82 g/m*3 34.8 C 0 km/h
1359 10-07-2010 14:00:00 34.44 C 7.68 g/m*3 34.44 C 0 km/h
1360 10-07-2010 15:00:00 35.2 C 7.99 g/m*3 35.2 C 0 km/h
1361 10-07-2010 16:00:00 35.62 C 8.17 g/m*3 35.62 C 0 km/h
1362 10-07-2010 17:00:00 35.8 C 8.24 g/m*3 35.8 C 0 km/h
1363 10-07-2010 18:00:00 35.92 C 8.29 g/m*3 35.92 C 0 km/h
1364 10-07-2010 19:00:00 35.38 C 8.06 g/m*3 35.38 C 0 km/h
1365 10-07-2010 20:00:00 33.58 C 8.22 g/m*3 33.58 C 0 km/h
1366 10-07-2010 21:00:00 31.3 C 9.43 g/m*3 31.3 C 0 km/h
1367 10-07-2010 22:00:00 30.44 C 9.94 g/m*3 30.44 C 0 km/h
1368 10-07-2010 23:00:00 30.2 C 9.81 g/m*3 30.2 C 0 km/h
1369 11-07-2010 00:00:00 29.85 C 9.85 g/m*3 29.85 C 0 km/h
1370 11-07-2010 01:00:00 28.52 C 11.19 g/m*3 28.52 C 0 km/h
1371 11-07-2010 02:00:00 24.02 C 15.9 g/m*3 24.02 C 0 km/h
1372 11-07-2010 03:00:00 23.38 C 16.26 g/m*3 23.38 C 0 km/h
1373 11-07-2010 04:00:00 21.98 C 16.44 g/m*3 21.98 C 0 km/h
1374 11-07-2010 05:00:00 22 C 16.23 g/m*3 22 C 0 km/h
1375 11-07-2010 06:00:00 21.84 C 16.08 g/m*3 21.84 C 0 km/h
Sensor: Nr:Datum:Temp:Abs-Feuchte:Windchill:Wind:
Aussen-T/F 1376 11-07-2010 07:00:00 22.76 C 15.73 g/m*3 22.76 C 0 km/h
1377 11-07-2010 08:00:00 24.22 C 15.46 g/m*3 24.22 C 0 km/h
1378 11-07-2010 09:00:00 24.42 C 14.79 g/m*3 24.42 C 0 km/h
1379 11-07-2010 10:00:00 26.8 C 12.93 g/m*3 26.8 C 0 km/h
1380 11-07-2010 11:00:00 28.54 C 12.27 g/m*3 28.54 C 0 km/h
1381 11-07-2010 12:00:00 30.44 C 10.81 g/m*3 30.44 C 0 km/h
1382 11-07-2010 13:00:00 31.66 C 9.15 g/m*3 31.66 C 0 km/h
1383 11-07-2010 14:00:00 32.06 C 8.33 g/m*3 32.06 C 0 km/h
1384 11-07-2010 15:00:00 32.84 C 7.55 g/m*3 32.84 C 0 km/h
1385 11-07-2010 16:00:00 33.7 C 7.39 g/m*3 33.7 C 0 km/h
1386 11-07-2010 17:00:00 34.26 C 7.61 g/m*3 34.26 C 0 km/h
1387 11-07-2010 18:00:00 34.12 C 7.55 g/m*3 34.12 C 0 km/h
1388 11-07-2010 19:00:00 33.92 C 7.47 g/m*3 33.92 C 0 km/h
1389 11-07-2010 20:00:00 33.3 C 7.88 g/m*3 33.3 C 0 km/h
1390 11-07-2010 21:00:00 30.88 C 10.11 g/m*3 30.88 C 0 km/h
1391 11-07-2010 22:00:00 29.82 C 10.87 g/m*3 29.82 C 0 km/h
1392 11-07-2010 23:00:00 28.54 C 11.15 g/m*3 28.54 C 0 km/h
1393 12-07-2010 00:00:00 27.24 C 11.84 g/m*3 27.24 C 0 km/h
1394 12-07-2010 01:00:00 26.02 C 12.33 g/m*3 26.02 C 0 km/h
1395 12-07-2010 02:00:00 25.12 C 12.7 g/m*3 25.12 C 0 km/h
1396 12-07-2010 03:00:00 24.18 C 13.1 g/m*3 24.18 C 0 km/h
1397 12-07-2010 04:00:00 23.32 C 13.06 g/m*3 23.32 C 0 km/h
1398 12-07-2010 05:00:00 22.66 C 13.18 g/m*3 22.66 C 0 km/h
1399 12-07-2010 06:00:00 22.54 C 13.37 g/m*3 22.54 C 0 km/h
1400 12-07-2010 07:00:00 22.86 C 13.62 g/m*3 22.86 C 0 km/h
Sensor: Nr:Datum:Temp:Abs-Feuchte:Windchill:Wind:
Aussen-T/F 1401 12-07-2010 08:00:00 23.86 C 13.64 g/m*3 23.86 C 0 km/h
1402 12-07-2010 09:00:00 26.72 C 13.58 g/m*3 26.72 C 0 km/h
1403 12-07-2010 10:00:00 29.96 C 12.53 g/m*3 29.96 C 0 km/h
1404 12-07-2010 11:00:00 31.78 C 9.94 g/m*3 31.78 C 0 km/h
1405 12-07-2010 12:00:00 31.04 C 8.15 g/m*3 31.04 C 0 km/h
1406 12-07-2010 13:00:00 28.12 C 11.77 g/m*3 28.12 C 0 km/h
1407 12-07-2010 14:00:00 30.7 C 9.45 g/m*3 30.7 C 0 km/h
1408 12-07-2010 15:00:00 31.62 C 7.94 g/m*3 31.62 C 0 km/h
1409 12-07-2010 16:00:00 31.9 C 6.72 g/m*3 31.9 C 0 km/h
1410 12-07-2010 17:00:00 31.54 C 6.59 g/m*3 31.54 C 0 km/h
1411 12-07-2010 18:00:00 30.18 C 7.41 g/m*3 30.18 C 0 km/h
1412 12-07-2010 19:00:00 28.68 C 7.62 g/m*3 28.68 C 0 km/h
1413 12-07-2010 20:00:00 26.96 C 7.86 g/m*3 26.96 C 0 km/h
1414 12-07-2010 21:00:00 25.72 C 8.96 g/m*3 25.72 C 0 km/h
1415 12-07-2010 22:00:00 24.62 C 9.24 g/m*3 24.62 C 0 km/h
1416 12-07-2010 23:00:00 23.48 C 9.72 g/m*3 23.48 C 0 km/h
1417 13-07-2010 00:00:00 22.3 C 10.35 g/m*3 22.3 C 0 km/h
1418 13-07-2010 01:00:00 21.42 C 10.7 g/m*3 21.42 C 0 km/h
1419 13-07-2010 02:00:00 20.66 C 10.92 g/m*3 20.66 C 0 km/h
1420 13-07-2010 03:00:00 19.88 C 11.22 g/m*3 19.88 C 0 km/h
1421 13-07-2010 04:00:00 19.62 C 11.66 g/m*3 19.62 C 0 km/h
1422 13-07-2010 05:00:00 18.72 C 12.25 g/m*3 18.72 C 0 km/h
1423 13-07-2010 06:00:00 18.8 C 12.11 g/m*3 18.8 C 0 km/h
1424 13-07-2010 07:00:00 19.62 C 12.03 g/m*3 19.62 C 0 km/h
1425 13-07-2010 08:00:00 20.92 C 11.96 g/m*3 20.92 C 0 km/h
Sensor: Nr:Datum:Temp:Abs-Feuchte:Windchill:Wind:
Aussen-T/F 1426 13-07-2010 09:00:00 22.64 C 11.8 g/m*3 22.64 C 0 km/h
1427 13-07-2010 10:00:00 24.6 C 11.07 g/m*3 24.6 C 0 km/h
1428 13-07-2010 11:00:00 26.1 C 10.28 g/m*3 26.1 C 0 km/h
1429 13-07-2010 12:00:00 29.44 C 8.59 g/m*3 29.44 C 0 km/h
1430 13-07-2010 13:00:00 29.32 C 8.01 g/m*3 29.32 C 0 km/h
1431 13-07-2010 14:00:00 29.04 C 8.35 g/m*3 29.04 C 0 km/h
1432 13-07-2010 15:00:00 30.72 C 7.31 g/m*3 30.72 C 0 km/h
1433 13-07-2010 16:00:00 31.06 C 6.87 g/m*3 31.06 C 0 km/h
1434 13-07-2010 17:00:00 31.74 C 6.66 g/m*3 31.74 C 0 km/h
1435 13-07-2010 18:00:00 31.86 C 6.7 g/m*3 31.86 C 0 km/h
1436 13-07-2010 19:00:00 31.36 C 6.53 g/m*3 31.36 C 0 km/h
1437 13-07-2010 20:00:00 31.12 C 6.76 g/m*3 31.12 C 0 km/h
1438 13-07-2010 21:00:00 27.84 C 8.03 g/m*3 27.84 C 0 km/h
1439 13-07-2010 22:00:00 25.46 C 8.6 g/m*3 25.46 C 0 km/h
1440 13-07-2010 23:00:00 24.42 C 9.13 g/m*3 24.42 C 0 km/h
1441 14-07-2010 00:00:00 23.68 C 9.61 g/m*3 23.68 C 0 km/h
1442 14-07-2010 01:00:00 23.16 C 10 g/m*3 23.16 C 0 km/h
1443 14-07-2010 02:00:00 22.54 C 10.33 g/m*3 22.54 C 0 km/h
1444 14-07-2010 03:00:00 21.58 C 10.61 g/m*3 21.58 C 0 km/h
1445 14-07-2010 04:00:00 20.72 C 11.03 g/m*3 20.72 C 0 km/h
1446 14-07-2010 05:00:00 20.1 C 11.13 g/m*3 20.1 C 0 km/h
1447 14-07-2010 06:00:00 20.3 C 11.29 g/m*3 20.3 C 0 km/h
1448 14-07-2010 07:00:00 20.58 C 11.58 g/m*3 20.58 C 0 km/h
1449 14-07-2010 08:00:00 21.82 C 11.76 g/m*3 21.82 C 0 km/h
1450 14-07-2010 09:00:00 24.66 C 11.92 g/m*3 24.66 C 0 km/h
Sensor: Nr:Datum:Temp:Abs-Feuchte:Windchill:Wind:
Aussen-T/F 1451 14-07-2010 10:00:00 27.88 C 10.48 g/m*3 27.88 C 0 km/h
1452 14-07-2010 11:00:00 30.4 C 9.23 g/m*3 30.4 C 0 km/h
1453 14-07-2010 12:00:00 31.44 C 8.19 g/m*3 31.44 C 0 km/h
1454 14-07-2010 13:00:00 32.42 C 7.39 g/m*3 32.42 C 0 km/h
1455 14-07-2010 14:00:00 32.94 C 7.1 g/m*3 32.94 C 0 km/h
1456 14-07-2010 15:00:00 33.26 C 7.22 g/m*3 33.26 C 0 km/h
1457 14-07-2010 16:00:00 34.4 C 7.66 g/m*3 34.4 C 0 km/h
1458 14-07-2010 17:00:00 34.5 C 7.7 g/m*3 34.5 C 0 km/h
1459 14-07-2010 18:00:00 34.66 C 7.77 g/m*3 34.66 C 0 km/h
1460 14-07-2010 19:00:00 25.84 C 13.61 g/m*3 25.84 C 0 km/h
1461 14-07-2010 20:00:00 22.34 C 16.51 g/m*3 22.34 C 0 km/h
1462 14-07-2010 21:00:00 21.74 C 15.41 g/m*3 21.74 C 0 km/h
1463 14-07-2010 22:00:00 21.5 C 14.67 g/m*3 21.5 C 0 km/h
1464 14-07-2010 23:00:00 21.28 C 14 g/m*3 21.28 C 0 km/h
1465 15-07-2010 00:00:00 21.04 C 13.44 g/m*3 21.04 C 0 km/h
1466 15-07-2010 01:00:00 20.16 C 11.76 g/m*3 20.16 C 0 km/h
1467 15-07-2010 02:00:00 19.58 C 11.63 g/m*3 19.58 C 0 km/h
1468 15-07-2010 03:00:00 19.32 C 11.06 g/m*3 19.32 C 0 km/h
1469 15-07-2010 04:00:00 18.94 C 11.04 g/m*3 18.94 C 0 km/h
1470 15-07-2010 05:00:00 18.76 C 11.18 g/m*3 18.76 C 0 km/h
1471 15-07-2010 06:00:00 18.9 C 10.98 g/m*3 18.9 C 0 km/h
1472 15-07-2010 07:00:00 18.5 C 11.9 g/m*3 18.5 C 0 km/h
1473 15-07-2010 08:00:00 18.42 C 11.68 g/m*3 18.42 C 0 km/h
1474 15-07-2010 09:00:00 19.58 C 9.07 g/m*3 19.58 C 0 km/h
1475 15-07-2010 10:00:00 21.22 C 7.57 g/m*3 21.22 C 0 km/h
Sensor: Nr:Datum:Temp:Abs-Feuchte:Windchill:Wind:
Aussen-T/F 1476 15-07-2010 11:00:00 22.32 C 6.76 g/m*3 22.32 C 0 km/h
1477 15-07-2010 12:00:00 24.42 C 5.84 g/m*3 24.42 C 0 km/h
1478 15-07-2010 13:00:00 26.14 C 5.1 g/m*3 26.14 C 0 km/h
1479 15-07-2010 14:00:00 26.22 C 4.93 g/m*3 26.22 C 0 km/h
1480 15-07-2010 15:00:00 26.9 C 5.12 g/m*3 26.9 C 0 km/h
1481 15-07-2010 16:00:00 27.82 C 5.39 g/m*3 27.82 C 0 km/h
1482 15-07-2010 17:00:00 28.46 C 5.58 g/m*3 28.46 C 0 km/h
1483 15-07-2010 18:00:00 27.98 C 5.43 g/m*3 27.98 C 0 km/h
1484 15-07-2010 19:00:00 27.26 C 5.22 g/m*3 27.26 C 0 km/h
1485 15-07-2010 20:00:00 26.6 C 5.24 g/m*3 26.6 C 0 km/h
1486 15-07-2010 21:00:00 23.74 C 6.09 g/m*3 23.74 C 0 km/h
1487 15-07-2010 22:00:00 21.46 C 6.4 g/m*3 21.46 C 0 km/h
1488 15-07-2010 23:00:00 19.92 C 6.78 g/m*3 19.92 C 0 km/h
1489 16-07-2010 00:00:00 18.6 C 6.91 g/m*3 18.6 C 0 km/h
1490 16-07-2010 01:00:00 17.76 C 7.3 g/m*3 17.76 C 0 km/h
1491 16-07-2010 02:00:00 16.74 C 7.89 g/m*3 16.74 C 0 km/h
1492 16-07-2010 03:00:00 15.96 C 8.1 g/m*3 15.96 C 0 km/h
1493 16-07-2010 04:00:00 15.22 C 8.16 g/m*3 15.22 C 0 km/h
1494 16-07-2010 05:00:00 14.64 C 8.3 g/m*3 14.64 C 0 km/h
1495 16-07-2010 06:00:00 14.46 C 8.61 g/m*3 14.46 C 0 km/h
1496 16-07-2010 07:00:00 15.16 C 8.88 g/m*3 15.16 C 0 km/h
1497 16-07-2010 08:00:00 16.62 C 9 g/m*3 16.62 C 0 km/h
1498 16-07-2010 09:00:00 19.68 C 9.36 g/m*3 19.68 C 0 km/h
1499 16-07-2010 10:00:00 23.6 C 8.72 g/m*3 23.6 C 0 km/h
1500 16-07-2010 11:00:00 26.26 C 5.83 g/m*3 26.26 C 0 km/h
Sensor: Nr:Datum:Temp:Abs-Feuchte:Windchill:Wind:
Aussen-T/F 1501 16-07-2010 12:00:00 28.54 C 5.66 g/m*3 28.54 C 0 km/h
1502 16-07-2010 13:00:00 30.68 C 6.29 g/m*3 30.68 C 0 km/h
1503 16-07-2010 14:00:00 31.06 C 6.42 g/m*3 31.06 C 0 km/h
1504 16-07-2010 15:00:00 31.86 C 6.7 g/m*3 31.86 C 0 km/h
1505 16-07-2010 16:00:00 32.44 C 6.91 g/m*3 32.44 C 0 km/h
1506 16-07-2010 17:00:00 32.56 C 6.96 g/m*3 32.56 C 0 km/h
1507 16-07-2010 18:00:00 32.72 C 7.01 g/m*3 32.72 C 0 km/h
1508 16-07-2010 19:00:00 31.24 C 6.55 g/m*3 31.24 C 0 km/h
1509 16-07-2010 20:00:00 29.4 C 7.22 g/m*3 29.4 C 0 km/h
1510 16-07-2010 21:00:00 28.3 C 7.46 g/m*3 28.3 C 0 km/h
1511 16-07-2010 22:00:00 26.38 C 7.71 g/m*3 26.38 C 0 km/h
1512 16-07-2010 23:00:00 25.56 C 8.46 g/m*3 25.56 C 0 km/h
1513 17-07-2010 00:00:00 23.3 C 9.12 g/m*3 23.3 C 0 km/h
1514 17-07-2010 01:00:00 20.7 C 11.2 g/m*3 20.7 C 0 km/h
1515 17-07-2010 02:00:00 20.18 C 11.11 g/m*3 20.18 C 0 km/h
1516 17-07-2010 03:00:00 19.88 C 11.88 g/m*3 19.88 C 0 km/h
1517 17-07-2010 04:00:00 19.16 C 12.5 g/m*3 19.16 C 0 km/h
1518 17-07-2010 05:00:00 18.08 C 13.36 g/m*3 18.08 C 0 km/h
1519 17-07-2010 06:00:00 17.68 C 13.38 g/m*3 17.68 C 0 km/h
1520 17-07-2010 07:00:00 17.88 C 13.54 g/m*3 17.88 C 0 km/h
1521 17-07-2010 08:00:00 17.64 C 13.38 g/m*3 17.64 C 0 km/h
1522 17-07-2010 09:00:00 18.54 C 13.51 g/m*3 18.54 C 0 km/h
1523 17-07-2010 10:00:00 19.6 C 12.56 g/m*3 19.6 C 0 km/h
1524 17-07-2010 11:00:00 22.2 C 11.5 g/m*3 22.2 C 0 km/h
1525 17-07-2010 12:00:00 24.66 C 9.08 g/m*3 24.66 C 0 km/h
Sensor: Nr:Datum:Temp:Abs-Feuchte:Windchill:Wind:
Aussen-T/F 1526 17-07-2010 13:00:00 26.02 C 7.56 g/m*3 26.02 C 0 km/h
1527 17-07-2010 14:00:00 26.14 C 7.26 g/m*3 26.14 C 0 km/h
1528 17-07-2010 15:00:00 27.18 C 6.5 g/m*3 27.18 C 0 km/h
1529 17-07-2010 16:00:00 26.72 C 6.08 g/m*3 26.72 C 0 km/h
1530 17-07-2010 17:00:00 25.8 C 7.42 g/m*3 25.8 C 0 km/h
1531 17-07-2010 18:00:00 24 C 7.57 g/m*3 24 C 0 km/h
1532 17-07-2010 19:00:00 24.16 C 7.11 g/m*3 24.16 C 0 km/h
1533 17-07-2010 20:00:00 24.46 C 5.81 g/m*3 24.46 C 0 km/h
1534 17-07-2010 21:00:00 22.26 C 6.15 g/m*3 22.26 C 0 km/h
1535 17-07-2010 22:00:00 21.44 C 6.28 g/m*3 21.44 C 0 km/h
1536 17-07-2010 23:00:00 20.12 C 6.13 g/m*3 20.12 C 0 km/h
1537 18-07-2010 00:00:00 18.64 C 6.06 g/m*3 18.64 C 0 km/h
1538 18-07-2010 01:00:00 17.16 C 6.34 g/m*3 17.16 C 0 km/h
1539 18-07-2010 02:00:00 15.96 C 6.88 g/m*3 15.96 C 0 km/h
1540 18-07-2010 03:00:00 14.8 C 7.14 g/m*3 14.8 C 0 km/h
1541 18-07-2010 04:00:00 13.9 C 7.48 g/m*3 13.9 C 0 km/h
1542 18-07-2010 05:00:00 13 C 7.83 g/m*3 13 C 0 km/h
1543 18-07-2010 06:00:00 12.56 C 8.1 g/m*3 12.56 C 0 km/h
1544 18-07-2010 07:00:00 12.96 C 8.05 g/m*3 12.96 C 0 km/h
1545 18-07-2010 08:00:00 14.54 C 7.9 g/m*3 14.54 C 0 km/h
1546 18-07-2010 09:00:00 17.16 C 7.68 g/m*3 17.16 C 0 km/h
1547 18-07-2010 10:00:00 20.18 C 7.09 g/m*3 20.18 C 0 km/h
1548 18-07-2010 11:00:00 22.12 C 5.75 g/m*3 22.12 C 0 km/h
1549 18-07-2010 12:00:00 25.16 C 4.88 g/m*3 25.16 C 0 km/h
1550 18-07-2010 13:00:00 27.62 C 5.33 g/m*3 27.62 C 0 km/h
Sensor: Nr:Datum:Temp:Abs-Feuchte:Windchill:Wind:
Aussen-T/F 1551 18-07-2010 14:00:00 27.34 C 5.24 g/m*3 27.34 C 0 km/h
1552 18-07-2010 15:00:00 29.58 C 5.93 g/m*3 29.58 C 0 km/h
1553 18-07-2010 16:00:00 30.76 C 6.32 g/m*3 30.76 C 0 km/h
1554 18-07-2010 17:00:00 31.26 C 6.49 g/m*3 31.26 C 0 km/h
1555 18-07-2010 18:00:00 31.26 C 6.49 g/m*3 31.26 C 0 km/h
1556 18-07-2010 19:00:00 30.48 C 6.22 g/m*3 30.48 C 0 km/h
1557 18-07-2010 20:00:00 29.1 C 5.78 g/m*3 29.1 C 0 km/h
1558 18-07-2010 21:00:00 24.12 C 5.39 g/m*3 24.12 C 0 km/h
1559 18-07-2010 22:00:00 21.72 C 5.92 g/m*3 21.72 C 0 km/h
1560 18-07-2010 23:00:00 20.34 C 6.28 g/m*3 20.34 C 0 km/h
1561 19-07-2010 00:00:00 18.92 C 6.36 g/m*3 18.92 C 0 km/h
1562 19-07-2010 01:00:00 17.68 C 6.66 g/m*3 17.68 C 0 km/h
1563 19-07-2010 02:00:00 16.46 C 6.86 g/m*3 16.46 C 0 km/h
1564 19-07-2010 03:00:00 15.48 C 7.1 g/m*3 15.48 C 0 km/h
1565 19-07-2010 04:00:00 14.62 C 7.32 g/m*3 14.62 C 0 km/h
1566 19-07-2010 05:00:00 13.8 C 7.51 g/m*3 13.8 C 0 km/h
1567 19-07-2010 06:00:00 13.58 C 7.88 g/m*3 13.58 C 0 km/h
1568 19-07-2010 07:00:00 14.02 C 8.21 g/m*3 14.02 C 0 km/h
1569 19-07-2010 08:00:00 15.3 C 8.28 g/m*3 15.3 C 0 km/h
1570 19-07-2010 09:00:00 18.52 C 8.55 g/m*3 18.52 C 0 km/h
1571 19-07-2010 10:00:00 22.46 C 8.01 g/m*3 22.46 C 0 km/h
1572 19-07-2010 11:00:00 25.78 C 6.54 g/m*3 25.78 C 0 km/h
1573 19-07-2010 12:00:00 28.82 C 5.8 g/m*3 28.82 C 0 km/h
1574 19-07-2010 13:00:00 31.2 C 6.47 g/m*3 31.2 C 0 km/h
1575 19-07-2010 14:00:00 30.84 C 6.35 g/m*3 30.84 C 0 km/h
Sensor: Nr:Datum:Temp:Abs-Feuchte:Windchill:Wind:
Aussen-T/F 1576 19-07-2010 15:00:00 31.7 C 6.64 g/m*3 31.7 C 0 km/h
1577 19-07-2010 16:00:00 32.82 C 7.05 g/m*3 32.82 C 0 km/h
1578 19-07-2010 17:00:00 33.58 C 7.34 g/m*3 33.58 C 0 km/h
1579 19-07-2010 18:00:00 33.5 C 7.31 g/m*3 33.5 C 0 km/h
1580 19-07-2010 19:00:00 32.84 C 7.06 g/m*3 32.84 C 0 km/h
1581 19-07-2010 20:00:00 31.38 C 6.53 g/m*3 31.38 C 0 km/h
1582 19-07-2010 21:00:00 26.84 C 6.79 g/m*3 26.84 C 0 km/h
1583 19-07-2010 22:00:00 24.12 C 7.05 g/m*3 24.12 C 0 km/h
1584 19-07-2010 23:00:00 22.9 C 7.32 g/m*3 22.9 C 0 km/h
1585 20-07-2010 00:00:00 21.74 C 7.84 g/m*3 21.74 C 0 km/h
1586 20-07-2010 01:00:00 20.42 C 8.08 g/m*3 20.42 C 0 km/h
1587 20-07-2010 02:00:00 19.32 C 8.24 g/m*3 19.32 C 0 km/h
1588 20-07-2010 03:00:00 18.2 C 8.36 g/m*3 18.2 C 0 km/h
1589 20-07-2010 04:00:00 17.24 C 8.48 g/m*3 17.24 C 0 km/h
1590 20-07-2010 05:00:00 16.48 C 8.58 g/m*3 16.48 C 0 km/h
1591 20-07-2010 06:00:00 16.1 C 8.96 g/m*3 16.1 C 0 km/h
1592 20-07-2010 07:00:00 16.78 C 9.25 g/m*3 16.78 C 0 km/h
1593 20-07-2010 08:00:00 18.04 C 9.24 g/m*3 18.04 C 0 km/h
1594 20-07-2010 09:00:00 20.96 C 9.21 g/m*3 20.96 C 0 km/h
1595 20-07-2010 10:00:00 24.8 C 8.29 g/m*3 24.8 C 0 km/h
1596 20-07-2010 11:00:00 27.74 C 6.76 g/m*3 27.74 C 0 km/h
1597 20-07-2010 12:00:00 30.42 C 6.33 g/m*3 30.42 C 0 km/h
1598 20-07-2010 13:00:00 32.22 C 6.83 g/m*3 32.22 C 0 km/h
1599 20-07-2010 14:00:00 31.78 C 6.67 g/m*3 31.78 C 0 km/h
1600 20-07-2010 15:00:00 32.34 C 6.87 g/m*3 32.34 C 0 km/h
Sensor: Nr:Datum:Temp:Abs-Feuchte:Windchill:Wind:
Aussen-T/F 1601 20-07-2010 16:00:00 33.06 C 7.14 g/m*3 33.06 C 0 km/h
1602 20-07-2010 17:00:00 33.26 C 7.22 g/m*3 33.26 C 0 km/h
1603 20-07-2010 18:00:00 32.92 C 7.09 g/m*3 32.92 C 0 km/h
1604 20-07-2010 19:00:00 32.02 C 6.76 g/m*3 32.02 C 0 km/h
1605 20-07-2010 20:00:00 30.72 C 6.37 g/m*3 30.72 C 0 km/h
1606 20-07-2010 21:00:00 26.48 C 6.4 g/m*3 26.48 C 0 km/h
1607 20-07-2010 22:00:00 24.4 C 6.59 g/m*3 24.4 C 0 km/h
1608 20-07-2010 23:00:00 23.48 C 6.93 g/m*3 23.48 C 0 km/h
1609 21-07-2010 00:00:00 21.98 C 7.6 g/m*3 21.98 C 0 km/h
1610 21-07-2010 01:00:00 20.86 C 8.03 g/m*3 20.86 C 0 km/h
1611 21-07-2010 02:00:00 19.68 C 8.31 g/m*3 19.68 C 0 km/h
1612 21-07-2010 03:00:00 18.78 C 8.4 g/m*3 18.78 C 0 km/h
1613 21-07-2010 04:00:00 18.08 C 8.58 g/m*3 18.08 C 0 km/h
1614 21-07-2010 05:00:00 17.38 C 8.76 g/m*3 17.38 C 0 km/h
1615 21-07-2010 06:00:00 17.16 C 8.91 g/m*3 17.16 C 0 km/h
1616 21-07-2010 07:00:00 17.8 C 9.32 g/m*3 17.8 C 0 km/h
1617 21-07-2010 08:00:00 19.2 C 9.07 g/m*3 19.2 C 0 km/h
1618 21-07-2010 09:00:00 22.32 C 9.41 g/m*3 22.32 C 0 km/h
1619 21-07-2010 10:00:00 26.54 C 8.63 g/m*3 26.54 C 0 km/h
1620 21-07-2010 11:00:00 29.66 C 7.38 g/m*3 29.66 C 0 km/h
1621 21-07-2010 12:00:00 31.36 C 6.59 g/m*3 31.36 C 0 km/h
1622 21-07-2010 13:00:00 32.52 C 6.94 g/m*3 32.52 C 0 km/h
1623 21-07-2010 14:00:00 32.58 C 6.96 g/m*3 32.58 C 0 km/h
1624 21-07-2010 15:00:00 32.56 C 6.96 g/m*3 32.56 C 0 km/h
1625 21-07-2010 16:00:00 32.44 C 6.91 g/m*3 32.44 C 0 km/h
Sensor: Nr:Datum:Temp:Abs-Feuchte:Windchill:Wind:
Aussen-T/F 1626 21-07-2010 17:00:00 31.5 C 6.77 g/m*3 31.5 C 0 km/h
1627 21-07-2010 18:00:00 30.12 C 7.33 g/m*3 30.12 C 0 km/h
1628 21-07-2010 19:00:00 28.72 C 8.03 g/m*3 28.72 C 0 km/h
1629 21-07-2010 20:00:00 23.58 C 12.15 g/m*3 23.58 C 0 km/h
1630 21-07-2010 21:00:00 23.02 C 11.85 g/m*3 23.02 C 0 km/h
1631 21-07-2010 22:00:00 23 C 11.76 g/m*3 23 C 0 km/h
1632 21-07-2010 23:00:00 22.88 C 11.47 g/m*3 22.88 C 0 km/h
1633 22-07-2010 00:00:00 22.56 C 11.58 g/m*3 22.56 C 0 km/h
1634 22-07-2010 01:00:00 22.16 C 11.64 g/m*3 22.16 C 0 km/h
1635 22-07-2010 02:00:00 21.28 C 11.51 g/m*3 21.28 C 0 km/h
1636 22-07-2010 03:00:00 20.92 C 11.16 g/m*3 20.92 C 0 km/h
1637 22-07-2010 04:00:00 20.5 C 10.36 g/m*3 20.5 C 0 km/h
1638 22-07-2010 05:00:00 19.9 C 9.83 g/m*3 19.9 C 0 km/h
1639 22-07-2010 06:00:00 18.92 C 10.93 g/m*3 18.92 C 0 km/h
1640 22-07-2010 07:00:00 19.24 C 11.54 g/m*3 19.24 C 0 km/h
1641 22-07-2010 08:00:00 21.04 C 10.94 g/m*3 21.04 C 0 km/h
1642 22-07-2010 09:00:00 22.06 C 10.32 g/m*3 22.06 C 0 km/h
1643 22-07-2010 10:00:00 21.58 C 10.68 g/m*3 21.58 C 0 km/h
1644 22-07-2010 11:00:00 21.78 C 11.84 g/m*3 21.78 C 0 km/h
1645 22-07-2010 12:00:00 22.38 C 11.47 g/m*3 22.38 C 0 km/h
1646 22-07-2010 13:00:00 20.9 C 12.79 g/m*3 20.9 C 0 km/h
1647 22-07-2010 14:00:00 21.26 C 12.53 g/m*3 21.26 C 0 km/h
1648 22-07-2010 15:00:00 21.38 C 12.92 g/m*3 21.38 C 0 km/h
1649 22-07-2010 16:00:00 23.2 C 11.56 g/m*3 23.2 C 0 km/h
1650 22-07-2010 17:00:00 22.04 C 13.31 g/m*3 22.04 C 0 km/h
Sensor: Nr:Datum:Temp:Abs-Feuchte:Windchill:Wind:
Aussen-T/F 1651 22-07-2010 18:00:00 23 C 12.09 g/m*3 23 C 0 km/h
1652 22-07-2010 19:00:00 22.68 C 11.91 g/m*3 22.68 C 0 km/h
1653 22-07-2010 20:00:00 21.86 C 12.01 g/m*3 21.86 C 0 km/h
1654 22-07-2010 21:00:00 21.06 C 11.91 g/m*3 21.06 C 0 km/h
1655 22-07-2010 22:00:00 20.48 C 11.8 g/m*3 20.48 C 0 km/h
1656 22-07-2010 23:00:00 20.2 C 11.82 g/m*3 20.2 C 0 km/h
1657 23-07-2010 00:00:00 20.1 C 12.06 g/m*3 20.1 C 0 km/h
1658 23-07-2010 01:00:00 20 C 12.3 g/m*3 20 C 0 km/h
1659 23-07-2010 02:00:00 19.22 C 12.22 g/m*3 19.22 C 0 km/h
1660 23-07-2010 03:00:00 16.34 C 11.63 g/m*3 16.34 C 0 km/h
1661 23-07-2010 04:00:00 16.04 C 11.69 g/m*3 16.04 C 0 km/h
1662 23-07-2010 05:00:00 15.9 C 11.51 g/m*3 15.9 C 0 km/h
1663 23-07-2010 06:00:00 15.86 C 11.54 g/m*3 15.86 C 0 km/h
1664 23-07-2010 07:00:00 17.26 C 12.26 g/m*3 17.26 C 0 km/h
1665 23-07-2010 08:00:00 18.02 C 12.09 g/m*3 18.02 C 0 km/h
1666 23-07-2010 09:00:00 19.08 C 11.82 g/m*3 19.08 C 0 km/h
1667 23-07-2010 10:00:00 21.4 C 10.46 g/m*3 21.4 C 0 km/h
1668 23-07-2010 11:00:00 24.14 C 9.69 g/m*3 24.14 C 0 km/h
1669 23-07-2010 12:00:00 26.46 C 8.09 g/m*3 26.46 C 0 km/h
1670 23-07-2010 13:00:00 27.82 C 6.62 g/m*3 27.82 C 0 km/h
1671 23-07-2010 14:00:00 29.34 C 6.55 g/m*3 29.34 C 0 km/h
1672 23-07-2010 15:00:00 28.4 C 6.39 g/m*3 28.4 C 0 km/h
1673 23-07-2010 16:00:00 28.54 C 6.33 g/m*3 28.54 C 0 km/h
1674 23-07-2010 17:00:00 22.32 C 9.33 g/m*3 22.32 C 0 km/h
1675 23-07-2010 18:00:00 18.1 C 11.53 g/m*3 18.1 C 0 km/h
Sensor: Nr:Datum:Temp:Abs-Feuchte:Windchill:Wind:
Aussen-T/F 1676 23-07-2010 19:00:00 16.96 C 12.18 g/m*3 16.96 C 0 km/h
1677 23-07-2010 20:00:00 15.98 C 12.3 g/m*3 15.98 C 0 km/h
1678 23-07-2010 21:00:00 15.58 C 12.25 g/m*3 15.58 C 0 km/h
1679 23-07-2010 22:00:00 15.125 C 12.02 g/m*3 15.13 C 0 km/h
1680 23-07-2010 23:00:00 15.1 C 12.08 g/m*3 15.1 C 0 km/h
1681 24-07-2010 00:00:00 15.02 C 12.07 g/m*3 15.02 C 0 km/h
1682 24-07-2010 01:00:00 15.12 C 12.14 g/m*3 15.12 C 0 km/h
1683 24-07-2010 02:00:00 15.26 C 12.38 g/m*3 15.26 C 0 km/h
1684 24-07-2010 03:00:00 15.56 C 12.6 g/m*3 15.56 C 0 km/h
1685 24-07-2010 04:00:00 15.64 C 12.4 g/m*3 15.64 C 0 km/h
1686 24-07-2010 05:00:00 15.54 C 11.95 g/m*3 15.54 C 0 km/h
1687 24-07-2010 06:00:00 15.42 C 11.65 g/m*3 15.42 C 0 km/h
1688 24-07-2010 07:00:00 15.5 C 11.58 g/m*3 15.5 C 0 km/h
1689 24-07-2010 08:00:00 16.16 C 11.31 g/m*3 16.16 C 0 km/h
1690 24-07-2010 09:00:00 17.24 C 10.8 g/m*3 17.24 C 0 km/h
1691 24-07-2010 10:00:00 18.62 C 9.66 g/m*3 18.62 C 0 km/h
1692 24-07-2010 11:00:00 19.44 C 8.83 g/m*3 19.44 C 0 km/h
1693 24-07-2010 12:00:00 20.52 C 8.19 g/m*3 20.52 C 0 km/h
1694 24-07-2010 13:00:00 22.72 C 6.63 g/m*3 22.72 C 0 km/h
1695 24-07-2010 14:00:00 23.48 C 6.17 g/m*3 23.48 C 0 km/h
1696 24-07-2010 15:00:00 24.1 C 5.47 g/m*3 24.1 C 0 km/h
1697 24-07-2010 16:00:00 23.86 C 4.66 g/m*3 23.86 C 0 km/h
1698 24-07-2010 17:00:00 24.36 C 4.44 g/m*3 24.36 C 0 km/h
1699 24-07-2010 18:00:00 23.48 C 4.22 g/m*3 23.48 C 0 km/h
1700 24-07-2010 19:00:00 23.22 C 4.16 g/m*3 23.22 C 0 km/h
Sensor: Nr:Datum:Temp:Abs-Feuchte:Windchill:Wind:
Aussen-T/F 1701 24-07-2010 20:00:00 22.72 C 4.05 g/m*3 22.72 C 0 km/h
1702 24-07-2010 21:00:00 19.76 C 4.5 g/m*3 19.76 C 0 km/h
1703 24-07-2010 22:00:00 17.5 C 5.19 g/m*3 17.5 C 0 km/h
1704 24-07-2010 23:00:00 15.92 C 6.1 g/m*3 15.92 C 0 km/h
1705 25-07-2010 00:00:00 14.54 C 6.58 g/m*3 14.54 C 0 km/h
1706 25-07-2010 01:00:00 13.5 C 6.81 g/m*3 13.5 C 0 km/h
1707 25-07-2010 02:00:00 12.7 C 6.97 g/m*3 12.7 C 0 km/h
1708 25-07-2010 03:00:00 11.86 C 7.06 g/m*3 11.86 C 0 km/h
1709 25-07-2010 04:00:00 10.96 C 7.31 g/m*3 10.96 C 0 km/h
1710 25-07-2010 05:00:00 10.16 C 7.38 g/m*3 10.16 C 0 km/h
1711 25-07-2010 06:00:00 10.04 C 7.4 g/m*3 10.04 C 0 km/h
1712 25-07-2010 07:00:00 10.92 C 7.55 g/m*3 10.92 C 0 km/h
1713 25-07-2010 08:00:00 12.12 C 7.9 g/m*3 12.12 C 0 km/h
1714 25-07-2010 09:00:00 14.94 C 7.61 g/m*3 14.94 C 0 km/h
1715 25-07-2010 10:00:00 17.8 C 6.77 g/m*3 17.8 C 0 km/h
1716 25-07-2010 11:00:00 20.86 C 6.14 g/m*3 20.86 C 0 km/h
1717 25-07-2010 12:00:00 22.94 C 5.9 g/m*3 22.94 C 0 km/h
1718 25-07-2010 13:00:00 23.38 C 6.22 g/m*3 23.38 C 0 km/h
1719 25-07-2010 14:00:00 22.2 C 6.95 g/m*3 22.2 C 0 km/h
1720 25-07-2010 15:00:00 21.58 C 7.01 g/m*3 21.58 C 0 km/h
1721 25-07-2010 16:00:00 21.98 C 7.13 g/m*3 21.98 C 0 km/h
1722 25-07-2010 17:00:00 23.4 C 6.6 g/m*3 23.4 C 0 km/h
1723 25-07-2010 18:00:00 22.26 C 7.53 g/m*3 22.26 C 0 km/h
1724 25-07-2010 19:00:00 20.8 C 7.89 g/m*3 20.8 C 0 km/h
1725 25-07-2010 20:00:00 20.16 C 7.82 g/m*3 20.16 C 0 km/h
Sensor: Nr:Datum:Temp:Abs-Feuchte:Windchill:Wind:
Aussen-T/F 1726 25-07-2010 21:00:00 19.08 C 9.43 g/m*3 19.08 C 0 km/h
1727 25-07-2010 22:00:00 18.38 C 10.18 g/m*3 18.38 C 0 km/h
1728 25-07-2010 23:00:00 17.88 C 10.28 g/m*3 17.88 C 0 km/h
1729 26-07-2010 00:00:00 17.56 C 9.93 g/m*3 17.56 C 0 km/h
1730 26-07-2010 01:00:00 17.26 C 9.99 g/m*3 17.26 C 0 km/h
1731 26-07-2010 02:00:00 16.8 C 10.04 g/m*3 16.8 C 0 km/h
1732 26-07-2010 03:00:00 16.42 C 10.2 g/m*3 16.42 C 0 km/h
1733 26-07-2010 04:00:00 16.24 C 10.59 g/m*3 16.24 C 0 km/h
1734 26-07-2010 05:00:00 15.52 C 11.28 g/m*3 15.52 C 0 km/h
1735 26-07-2010 06:00:00 15.4 C 11.46 g/m*3 15.4 C 0 km/h
1736 26-07-2010 07:00:00 16.02 C 11.95 g/m*3 16.02 C 0 km/h
1737 26-07-2010 08:00:00 16.98 C 11.91 g/m*3 16.98 C 0 km/h
1738 26-07-2010 09:00:00 18.38 C 11.72 g/m*3 18.38 C 0 km/h
1739 26-07-2010 10:00:00 20.24 C 10.76 g/m*3 20.24 C 0 km/h
1740 26-07-2010 11:00:00 20.94 C 10.59 g/m*3 20.94 C 0 km/h
1741 26-07-2010 12:00:00 19.04 C 12.55 g/m*3 19.04 C 0 km/h
1742 26-07-2010 13:00:00 18.16 C 12.72 g/m*3 18.16 C 0 km/h
1743 26-07-2010 14:00:00 17.36 C 13.16 g/m*3 17.36 C 0 km/h
1744 26-07-2010 15:00:00 17.92 C 13.7 g/m*3 17.92 C 0 km/h
1745 26-07-2010 16:00:00 19.68 C 13.4 g/m*3 19.68 C 0 km/h
1746 26-07-2010 17:00:00 19.08 C 11.33 g/m*3 19.08 C 0 km/h
1747 26-07-2010 18:00:00 17.16 C 11.34 g/m*3 17.16 C 0 km/h
1748 26-07-2010 19:00:00 16.92 C 11.61 g/m*3 16.92 C 0 km/h
1749 26-07-2010 20:00:00 16.16 C 11.12 g/m*3 16.16 C 0 km/h
1750 26-07-2010 21:00:00 15.3 C 11.28 g/m*3 15.3 C 0 km/h
Sensor: Nr:Datum:Temp:Abs-Feuchte:Windchill:Wind:
Aussen-T/F 1751 26-07-2010 22:00:00 15.22 C 10.86 g/m*3 15.22 C 0 km/h
1752 26-07-2010 23:00:00 15.26 C 10.84 g/m*3 15.26 C 0 km/h
1753 27-07-2010 00:00:00 15.34 C 11.13 g/m*3 15.34 C 0 km/h
1754 27-07-2010 01:00:00 15.48 C 11.2 g/m*3 15.48 C 0 km/h
1755 27-07-2010 02:00:00 15.6 C 11.04 g/m*3 15.6 C 0 km/h
1756 27-07-2010 03:00:00 15.42 C 10.97 g/m*3 15.42 C 0 km/h
1757 27-07-2010 04:00:00 15.26 C 10.84 g/m*3 15.26 C 0 km/h
1758 27-07-2010 05:00:00 15.14 C 10.84 g/m*3 15.14 C 0 km/h
1759 27-07-2010 06:00:00 15.28 C 10.77 g/m*3 15.28 C 0 km/h
1760 27-07-2010 07:00:00 15.68 C 10.64 g/m*3 15.68 C 0 km/h
1761 27-07-2010 08:00:00 16.22 C 10.6 g/m*3 16.22 C 0 km/h
1762 27-07-2010 09:00:00 16.88 C 10.54 g/m*3 16.88 C 0 km/h
1763 27-07-2010 10:00:00 18.52 C 10.07 g/m*3 18.52 C 0 km/h
1764 27-07-2010 11:00:00 20.18 C 9.57 g/m*3 20.18 C 0 km/h
1765 27-07-2010 12:00:00 22.08 C 9.09 g/m*3 22.08 C 0 km/h
1766 27-07-2010 13:00:00 23.96 C 7.9 g/m*3 23.96 C 0 km/h
1767 27-07-2010 14:00:00 24.42 C 7.66 g/m*3 24.42 C 0 km/h
1768 27-07-2010 15:00:00 25.38 C 7.57 g/m*3 25.38 C 0 km/h
1769 27-07-2010 16:00:00 27.9 C 6.82 g/m*3 27.9 C 0 km/h
1770 27-07-2010 17:00:00 28.32 C 6.2 g/m*3 28.32 C 0 km/h
1771 27-07-2010 18:00:00 25.06 C 7.67 g/m*3 25.06 C 0 km/h
1772 27-07-2010 19:00:00 23.42 C 8.63 g/m*3 23.42 C 0 km/h
1773 27-07-2010 20:00:00 22 C 8.38 g/m*3 22 C 0 km/h
1774 27-07-2010 21:00:00 20.46 C 8.7 g/m*3 20.46 C 0 km/h
1775 27-07-2010 22:00:00 19.12 C 9.16 g/m*3 19.12 C 0 km/h
Sensor: Nr:Datum:Temp:Abs-Feuchte:Windchill:Wind:
Aussen-T/F 1776 27-07-2010 23:00:00 18.44 C 9.33 g/m*3 18.44 C 0 km/h
1777 28-07-2010 00:00:00 18.2 C 9.79 g/m*3 18.2 C 0 km/h
1778 28-07-2010 01:00:00 17.16 C 9.85 g/m*3 17.16 C 0 km/h
1779 28-07-2010 02:00:00 16.96 C 10.22 g/m*3 16.96 C 0 km/h
1780 28-07-2010 03:00:00 17.04 C 10.33 g/m*3 17.04 C 0 km/h
1781 28-07-2010 04:00:00 16.96 C 10.48 g/m*3 16.96 C 0 km/h
1782 28-07-2010 05:00:00 16.84 C 10.58 g/m*3 16.84 C 0 km/h
1783 28-07-2010 06:00:00 17.02 C 10.81 g/m*3 17.02 C 0 km/h
1784 28-07-2010 07:00:00 16.32 C 12.11 g/m*3 16.32 C 0 km/h
1785 28-07-2010 08:00:00 17.1 C 13.01 g/m*3 17.1 C 0 km/h
1786 28-07-2010 09:00:00 17.56 C 12.78 g/m*3 17.56 C 0 km/h
1787 28-07-2010 10:00:00 17.7 C 13.25 g/m*3 17.7 C 0 km/h
1788 28-07-2010 11:00:00 20.26 C 13.58 g/m*3 20.26 C 0 km/h
1789 28-07-2010 12:00:00 21.22 C 13.02 g/m*3 21.22 C 0 km/h
1790 28-07-2010 13:00:00 23.74 C 12.26 g/m*3 23.74 C 0 km/h
1791 28-07-2010 14:00:00 25.74 C 9.31 g/m*3 25.74 C 0 km/h
1792 28-07-2010 15:00:00 26 C 7.69 g/m*3 26 C 0 km/h
1793 28-07-2010 16:00:00 27.78 C 7.04 g/m*3 27.78 C 0 km/h
1794 28-07-2010 17:00:00 28.8 C 6.65 g/m*3 28.8 C 0 km/h
1795 28-07-2010 18:00:00 26.74 C 6.7 g/m*3 26.74 C 0 km/h
1796 28-07-2010 19:00:00 22.5 C 10.07 g/m*3 22.5 C 0 km/h
1797 28-07-2010 20:00:00 21.78 C 10.2 g/m*3 21.78 C 0 km/h
1798 28-07-2010 21:00:00 20.6 C 10.63 g/m*3 20.6 C 0 km/h
1799 28-07-2010 22:00:00 19.78 C 11.26 g/m*3 19.78 C 0 km/h
1800 28-07-2010 23:00:00 18.38 C 13.01 g/m*3 18.38 C 0 km/h
Sensor: Nr:Datum:Temp:Abs-Feuchte:Windchill:Wind:
Aussen-T/F 1801 29-07-2010 00:00:00 17.16 C 13.12 g/m*3 17.16 C 0 km/h
1802 29-07-2010 01:00:00 16.06 C 12.63 g/m*3 16.06 C 0 km/h
1803 29-07-2010 02:00:00 15.16 C 12.04 g/m*3 15.16 C 0 km/h
1804 29-07-2010 03:00:00 14.76 C 11.85 g/m*3 14.76 C 0 km/h
1805 29-07-2010 04:00:00 14.44 C 11.65 g/m*3 14.44 C 0 km/h
1806 29-07-2010 05:00:00 14.34 C 11.6 g/m*3 14.34 C 0 km/h
1807 29-07-2010 06:00:00 14.62 C 11.9 g/m*3 14.62 C 0 km/h
1808 29-07-2010 07:00:00 14.88 C 12.07 g/m*3 14.88 C 0 km/h
1809 29-07-2010 08:00:00 15.38 C 12.47 g/m*3 15.38 C 0 km/h
1810 29-07-2010 09:00:00 15.48 C 12.23 g/m*3 15.48 C 0 km/h
1811 29-07-2010 10:00:00 15.22 C 11.67 g/m*3 15.22 C 0 km/h
1812 29-07-2010 11:00:00 14.64 C 11.42 g/m*3 14.64 C 0 km/h
1813 29-07-2010 12:00:00 17.28 C 12.6 g/m*3 17.28 C 0 km/h
1814 29-07-2010 13:00:00 18.44 C 11.1 g/m*3 18.44 C 0 km/h
1815 29-07-2010 14:00:00 17.76 C 10.93 g/m*3 17.76 C 0 km/h
1816 29-07-2010 15:00:00 18.24 C 10.75 g/m*3 18.24 C 0 km/h
1817 29-07-2010 16:00:00 19.64 C 10.93 g/m*3 19.64 C 0 km/h
1818 29-07-2010 17:00:00 17.12 C 11.16 g/m*3 17.12 C 0 km/h
1819 29-07-2010 18:00:00 17.82 C 11.31 g/m*3 17.82 C 0 km/h
1820 29-07-2010 19:00:00 18.34 C 9.69 g/m*3 18.34 C 0 km/h
1821 29-07-2010 20:00:00 17.6 C 9.51 g/m*3 17.6 C 0 km/h
1822 29-07-2010 21:00:00 16.04 C 9.92 g/m*3 16.04 C 0 km/h
1823 29-07-2010 22:00:00 15.66 C 9.9 g/m*3 15.66 C 0 km/h
1824 29-07-2010 23:00:00 15.7 C 9.61 g/m*3 15.7 C 0 km/h
1825 30-07-2010 00:00:00 15.2 C 9.84 g/m*3 15.2 C 0 km/h
Sensor: Nr:Datum:Temp:Abs-Feuchte:Windchill:Wind:
Aussen-T/F 1826 30-07-2010 01:00:00 15.2 C 9.86 g/m*3 15.2 C 0 km/h
1827 30-07-2010 02:00:00 14.74 C 9.89 g/m*3 14.74 C 0 km/h
1828 30-07-2010 03:00:00 14.6 C 10.24 g/m*3 14.6 C 0 km/h
1829 30-07-2010 04:00:00 14.42 C 10.4 g/m*3 14.42 C 0 km/h
1830 30-07-2010 05:00:00 14.7 C 10.6 g/m*3 14.7 C 0 km/h
1831 30-07-2010 06:00:00 14.76 C 10.51 g/m*3 14.76 C 0 km/h
1832 30-07-2010 07:00:00 15.18 C 10.53 g/m*3 15.18 C 0 km/h
1833 30-07-2010 08:00:00 16.28 C 10.56 g/m*3 16.28 C 0 km/h
1834 30-07-2010 09:00:00 17.26 C 9.79 g/m*3 17.26 C 0 km/h
1835 30-07-2010 10:00:00 19 C 9 g/m*3 19 C 0 km/h
1836 30-07-2010 11:00:00 22 C 8.35 g/m*3 22 C 0 km/h
1837 30-07-2010 12:00:00 21.54 C 8.32 g/m*3 21.54 C 0 km/h
1838 30-07-2010 13:00:00 24 C 7.48 g/m*3 24 C 0 km/h
1839 30-07-2010 14:00:00 24.48 C 7.6 g/m*3 24.48 C 0 km/h
1840 30-07-2010 15:00:00 25.14 C 7.15 g/m*3 25.14 C 0 km/h
1841 30-07-2010 16:00:00 25.94 C 6.6 g/m*3 25.94 C 0 km/h
1842 30-07-2010 17:00:00 26.82 C 6.42 g/m*3 26.82 C 0 km/h
1843 30-07-2010 18:00:00 26.8 C 6.06 g/m*3 26.8 C 0 km/h
1844 30-07-2010 19:00:00 26.02 C 6.97 g/m*3 26.02 C 0 km/h
1845 30-07-2010 20:00:00 22.54 C 7.53 g/m*3 22.54 C 0 km/h
1846 30-07-2010 21:00:00 19.84 C 7.7 g/m*3 19.84 C 0 km/h
1847 30-07-2010 22:00:00 18.5 C 7.47 g/m*3 18.5 C 0 km/h
1848 30-07-2010 23:00:00 17 C 8.54 g/m*3 17 C 0 km/h
1849 31-07-2010 00:00:00 15.92 C 8.73 g/m*3 15.92 C 0 km/h
1850 31-07-2010 01:00:00 14.84 C 8.79 g/m*3 14.84 C 0 km/h
Sensor: Nr:Datum:Temp:Abs-Feuchte:Windchill:Wind:
Aussen-T/F 1851 31-07-2010 02:00:00 14.04 C 8.66 g/m*3 14.04 C 0 km/h
1852 31-07-2010 03:00:00 13.34 C 8.64 g/m*3 13.34 C 0 km/h
1853 31-07-2010 04:00:00 12.7 C 8.66 g/m*3 12.7 C 0 km/h
1854 31-07-2010 05:00:00 12.26 C 8.67 g/m*3 12.26 C 0 km/h
1855 31-07-2010 06:00:00 12.02 C 8.77 g/m*3 12.02 C 0 km/h
1856 31-07-2010 07:00:00 12.6 C 9.12 g/m*3 12.6 C 0 km/h
1857 31-07-2010 08:00:00 13.84 C 9.27 g/m*3 13.84 C 0 km/h
1858 31-07-2010 09:00:00 16.36 C 9.55 g/m*3 16.36 C 0 km/h
1859 31-07-2010 10:00:00 22 C 9.04 g/m*3 22 C 0 km/h
1860 31-07-2010 11:00:00 23.48 C 7.44 g/m*3 23.48 C 0 km/h
1861 31-07-2010 12:00:00 24.12 C 6.83 g/m*3 24.12 C 0 km/h
1862 31-07-2010 13:00:00 25.56 C 6.56 g/m*3 25.56 C 0 km/h
1863 31-07-2010 14:00:00 26.84 C 6.63 g/m*3 26.84 C 0 km/h
1864 31-07-2010 15:00:00 27.88 C 6.32 g/m*3 27.88 C 0 km/h
1865 31-07-2010 16:00:00 29.44 C 6 g/m*3 29.44 C 0 km/h
1866 31-07-2010 17:00:00 29.84 C 6.01 g/m*3 29.84 C 0 km/h
1867 31-07-2010 18:00:00 29.86 C 6.08 g/m*3 29.86 C 0 km/h
1868 31-07-2010 19:00:00 27.88 C 7.24 g/m*3 27.88 C 0 km/h
1869 31-07-2010 20:00:00 24.6 C 8.19 g/m*3 24.6 C 0 km/h
1870 31-07-2010 21:00:00 23.04 C 8.41 g/m*3 23.04 C 0 km/h
1871 31-07-2010 22:00:00 22.02 C 9.17 g/m*3 22.02 C 0 km/h
1872 31-07-2010 23:00:00 20.5 C 11.74 g/m*3 20.5 C 0 km/h
1873 01-08-2010 00:00:00 19.4 C 12.38 g/m*3 19.4 C 0 km/h
1874 01-08-2010 01:00:00 18.26 C 13.1 g/m*3 18.26 C 0 km/h
1875 01-08-2010 02:00:00 18.1 C 13.38 g/m*3 18.1 C 0 km/h
Sensor: Nr:Datum:Temp:Abs-Feuchte:Windchill:Wind:
Aussen-T/F 1876 01-08-2010 03:00:00 17.98 C 13.16 g/m*3 17.98 C 0 km/h
1877 01-08-2010 04:00:00 17.84 C 12.93 g/m*3 17.84 C 0 km/h
1878 01-08-2010 05:00:00 17.72 C 12.78 g/m*3 17.72 C 0 km/h
1879 01-08-2010 06:00:00 17.42 C 13.15 g/m*3 17.42 C 0 km/h
1880 01-08-2010 07:00:00 18.34 C 13.73 g/m*3 18.34 C 0 km/h
1881 01-08-2010 08:00:00 19.68 C 13.77 g/m*3 19.68 C 0 km/h
1882 01-08-2010 09:00:00 20.86 C 13.56 g/m*3 20.86 C 0 km/h
1883 01-08-2010 10:00:00 21.94 C 13.58 g/m*3 21.94 C 0 km/h
1884 01-08-2010 11:00:00 24.06 C 12.92 g/m*3 24.06 C 0 km/h
1885 01-08-2010 12:00:00 25.46 C 10.72 g/m*3 25.46 C 0 km/h
1886 01-08-2010 13:00:00 27.84 C 9.43 g/m*3 27.84 C 0 km/h
1887 01-08-2010 14:00:00 29.02 C 7.94 g/m*3 29.02 C 0 km/h
1888 01-08-2010 15:00:00 30.04 C 7.23 g/m*3 30.04 C 0 km/h
1889 01-08-2010 16:00:00 30.66 C 7.1 g/m*3 30.66 C 0 km/h
1890 01-08-2010 17:00:00 30.1 C 7.44 g/m*3 30.1 C 0 km/h
1891 01-08-2010 18:00:00 28.36 C 8.38 g/m*3 28.36 C 0 km/h
1892 01-08-2010 19:00:00 25.88 C 9.48 g/m*3 25.88 C 0 km/h
1893 01-08-2010 20:00:00 24.64 C 10.24 g/m*3 24.64 C 0 km/h
1894 01-08-2010 21:00:00 23.16 C 9.83 g/m*3 23.16 C 0 km/h
1895 01-08-2010 22:00:00 21.96 C 9.53 g/m*3 21.96 C 0 km/h
1896 01-08-2010 23:00:00 21.08 C 9.97 g/m*3 21.08 C 0 km/h
1897 02-08-2010 00:00:00 19.74 C 10.01 g/m*3 19.74 C 0 km/h
1898 02-08-2010 01:00:00 19.24 C 10.28 g/m*3 19.24 C 0 km/h
1899 02-08-2010 02:00:00 18.64 C 10.53 g/m*3 18.64 C 0 km/h
1900 02-08-2010 03:00:00 17.94 C 10.62 g/m*3 17.94 C 0 km/h
Sensor: Nr:Datum:Temp:Abs-Feuchte:Windchill:Wind:
Aussen-T/F 1901 02-08-2010 04:00:00 17.1 C 10.86 g/m*3 17.1 C 0 km/h
1902 02-08-2010 05:00:00 16.32 C 10.64 g/m*3 16.32 C 0 km/h
1903 02-08-2010 06:00:00 16.48 C 10.91 g/m*3 16.48 C 0 km/h
1904 02-08-2010 07:00:00 16.38 C 10.96 g/m*3 16.38 C 0 km/h
1905 02-08-2010 08:00:00 16.86 C 11.16 g/m*3 16.86 C 0 km/h
1906 02-08-2010 09:00:00 18.68 C 11.16 g/m*3 18.68 C 0 km/h
1907 02-08-2010 10:00:00 20.88 C 10.59 g/m*3 20.88 C 0 km/h
1908 02-08-2010 11:00:00 23.84 C 9.31 g/m*3 23.84 C 0 km/h
1909 02-08-2010 12:00:00 25.54 C 8.16 g/m*3 25.54 C 0 km/h
1910 02-08-2010 13:00:00 23.28 C 8.65 g/m*3 23.28 C 0 km/h
1911 02-08-2010 14:00:00 20.48 C 11.23 g/m*3 20.48 C 0 km/h
1912 02-08-2010 15:00:00 21.32 C 11.23 g/m*3 21.32 C 0 km/h
1913 02-08-2010 16:00:00 23.06 C 10.93 g/m*3 23.06 C 0 km/h
1914 02-08-2010 17:00:00 24.2 C 9.77 g/m*3 24.2 C 0 km/h
1915 02-08-2010 18:00:00 21.28 C 11.17 g/m*3 21.28 C 0 km/h
1916 02-08-2010 19:00:00 20.02 C 12.35 g/m*3 20.02 C 0 km/h
1917 02-08-2010 20:00:00 18.6 C 13.5 g/m*3 18.6 C 0 km/h
1918 02-08-2010 21:00:00 17.58 C 13.45 g/m*3 17.58 C 0 km/h
1919 02-08-2010 22:00:00 17.12 C 13.32 g/m*3 17.12 C 0 km/h
1920 02-08-2010 23:00:00 16.04 C 12.43 g/m*3 16.04 C 0 km/h
1921 03-08-2010 00:00:00 15.94 C 12.08 g/m*3 15.94 C 0 km/h
1922 03-08-2010 01:00:00 15.96 C 12.02 g/m*3 15.96 C 0 km/h
1923 03-08-2010 02:00:00 15.46 C 11.76 g/m*3 15.46 C 0 km/h
1924 03-08-2010 03:00:00 15.26 C 12.06 g/m*3 15.26 C 0 km/h
1925 03-08-2010 04:00:00 15.02 C 12.04 g/m*3 15.02 C 0 km/h
Sensor: Nr:Datum:Temp:Abs-Feuchte:Windchill:Wind:
Aussen-T/F 1926 03-08-2010 05:00:00 14.96 C 12.08 g/m*3 14.96 C 0 km/h
1927 03-08-2010 06:00:00 14.62 C 11.9 g/m*3 14.62 C 0 km/h
1928 03-08-2010 07:00:00 15.06 C 12.23 g/m*3 15.06 C 0 km/h
1929 03-08-2010 08:00:00 15.96 C 12.37 g/m*3 15.96 C 0 km/h
1930 03-08-2010 09:00:00 16.78 C 11.71 g/m*3 16.78 C 0 km/h
1931 03-08-2010 10:00:00 17.64 C 11.03 g/m*3 17.64 C 0 km/h
1932 03-08-2010 11:00:00 18.94 C 9.58 g/m*3 18.94 C 0 km/h
1933 03-08-2010 12:00:00 21.22 C 7.94 g/m*3 21.22 C 0 km/h
1934 03-08-2010 13:00:00 21.34 C 7.66 g/m*3 21.34 C 0 km/h
1935 03-08-2010 14:00:00 21.88 C 8.29 g/m*3 21.88 C 0 km/h
1936 03-08-2010 15:00:00 24.2 C 6.29 g/m*3 24.2 C 0 km/h
1937 03-08-2010 16:00:00 25.38 C 5.31 g/m*3 25.38 C 0 km/h
1938 03-08-2010 17:00:00 25.84 C 4.97 g/m*3 25.84 C 0 km/h
1939 03-08-2010 18:00:00 26.12 C 5.15 g/m*3 26.12 C 0 km/h
1940 03-08-2010 19:00:00 23.6 C 5.91 g/m*3 23.6 C 0 km/h
1941 03-08-2010 20:00:00 21.72 C 7.22 g/m*3 21.72 C 0 km/h
1942 03-08-2010 21:00:00 18.32 C 7.61 g/m*3 18.32 C 0 km/h
1943 03-08-2010 22:00:00 17.26 C 8.29 g/m*3 17.26 C 0 km/h
1944 03-08-2010 23:00:00 16.12 C 8.51 g/m*3 16.12 C 0 km/h
1945 04-08-2010 00:00:00 15.44 C 8.98 g/m*3 15.44 C 0 km/h
1946 04-08-2010 01:00:00 15.68 C 9.22 g/m*3 15.68 C 0 km/h
1947 04-08-2010 02:00:00 15.42 C 9.71 g/m*3 15.42 C 0 km/h
1948 04-08-2010 03:00:00 15.36 C 9.7 g/m*3 15.36 C 0 km/h
1949 04-08-2010 04:00:00 15.2 C 9.53 g/m*3 15.2 C 0 km/h
1950 04-08-2010 05:00:00 15.14 C 9.57 g/m*3 15.14 C 0 km/h
Sensor: Nr:Datum:Temp:Abs-Feuchte:Windchill:Wind:
Aussen-T/F 1951 04-08-2010 06:00:00 15.28 C 9.78 g/m*3 15.28 C 0 km/h
1952 04-08-2010 07:00:00 15.88 C 10.01 g/m*3 15.88 C 0 km/h
1953 04-08-2010 08:00:00 16.86 C 9.96 g/m*3 16.86 C 0 km/h
1954 04-08-2010 09:00:00 18.8 C 9.86 g/m*3 18.8 C 0 km/h
1955 04-08-2010 10:00:00 21.08 C 9.13 g/m*3 21.08 C 0 km/h
1956 04-08-2010 11:00:00 22.5 C 8.11 g/m*3 22.5 C 0 km/h
1957 04-08-2010 12:00:00 23.72 C 7.02 g/m*3 23.72 C 0 km/h
1958 04-08-2010 13:00:00 24.98 C 6.39 g/m*3 24.98 C 0 km/h
1959 04-08-2010 14:00:00 24.56 C 6.65 g/m*3 24.56 C 0 km/h
1960 04-08-2010 15:00:00 23.88 C 6.83 g/m*3 23.88 C 0 km/h
1961 04-08-2010 16:00:00 23.36 C 7.01 g/m*3 23.36 C 0 km/h
1962 04-08-2010 17:00:00 23.1 C 7.23 g/m*3 23.1 C 0 km/h
1963 04-08-2010 18:00:00 23.32 C 7.37 g/m*3 23.32 C 0 km/h
1964 04-08-2010 19:00:00 22.44 C 7.84 g/m*3 22.44 C 0 km/h
1965 04-08-2010 20:00:00 21.14 C 8.98 g/m*3 21.14 C 0 km/h
1966 04-08-2010 21:00:00 20.1 C 9.11 g/m*3 20.1 C 0 km/h
1967 04-08-2010 22:00:00 19.325 C 10.09 g/m*3 19.33 C 0 km/h
1968 04-08-2010 23:00:00 18.32 C 11.46 g/m*3 18.32 C 0 km/h
1969 05-08-2010 00:00:00 16.78 C 12.37 g/m*3 16.78 C 0 km/h
1970 05-08-2010 01:00:00 16.28 C 12.44 g/m*3 16.28 C 0 km/h
1971 05-08-2010 02:00:00 15.82 C 12.37 g/m*3 15.82 C 0 km/h
1972 05-08-2010 03:00:00 15.54 C 12.3 g/m*3 15.54 C 0 km/h
1973 05-08-2010 04:00:00 15.3 C 12.14 g/m*3 15.3 C 0 km/h
1974 05-08-2010 05:00:00 15.32 C 12.21 g/m*3 15.32 C 0 km/h
1975 05-08-2010 06:00:00 15.68 C 12.56 g/m*3 15.68 C 0 km/h
Sensor: Nr:Datum:Temp:Abs-Feuchte:Windchill:Wind:
Aussen-T/F 1976 05-08-2010 07:00:00 15.72 C 12.57 g/m*3 15.72 C 0 km/h
1977 05-08-2010 08:00:00 16.2 C 12.55 g/m*3 16.2 C 0 km/h
1978 05-08-2010 09:00:00 16.84 C 11.44 g/m*3 16.84 C 0 km/h
1979 05-08-2010 10:00:00 17.46 C 10.38 g/m*3 17.46 C 0 km/h
1980 05-08-2010 11:00:00 18.36 C 9.67 g/m*3 18.36 C 0 km/h
1981 05-08-2010 12:00:00 18.42 C 9.35 g/m*3 18.42 C 0 km/h
1982 05-08-2010 13:00:00 18.98 C 8.2 g/m*3 18.98 C 0 km/h
1983 05-08-2010 14:00:00 21.28 C 7.56 g/m*3 21.28 C 0 km/h
1984 05-08-2010 15:00:00 23 C 6.41 g/m*3 23 C 0 km/h
1985 05-08-2010 16:00:00 25.08 C 5.69 g/m*3 25.08 C 0 km/h
1986 05-08-2010 17:00:00 23.98 C 5.3 g/m*3 23.98 C 0 km/h
1987 05-08-2010 18:00:00 22.7 C 5.62 g/m*3 22.7 C 0 km/h
1988 05-08-2010 19:00:00 21.26 C 6.17 g/m*3 21.26 C 0 km/h
1989 05-08-2010 20:00:00 20.22 C 6.9 g/m*3 20.22 C 0 km/h
1990 05-08-2010 21:00:00 18.94 C 7.15 g/m*3 18.94 C 0 km/h
1991 05-08-2010 22:00:00 17.7 C 7.48 g/m*3 17.7 C 0 km/h
1992 05-08-2010 23:00:00 17 C 8.1 g/m*3 17 C 0 km/h
1993 06-08-2010 00:00:00 16.02 C 8.48 g/m*3 16.02 C 0 km/h
1994 06-08-2010 01:00:00 15.26 C 8.62 g/m*3 15.26 C 0 km/h
1995 06-08-2010 02:00:00 14.52 C 8.87 g/m*3 14.52 C 0 km/h
1996 06-08-2010 03:00:00 13.96 C 8.86 g/m*3 13.96 C 0 km/h
1997 06-08-2010 04:00:00 13.44 C 9.3 g/m*3 13.44 C 0 km/h
1998 06-08-2010 05:00:00 12.96 C 9.34 g/m*3 12.96 C 0 km/h
1999 06-08-2010 06:00:00 13.34 C 9.29 g/m*3 13.34 C 0 km/h
2000 06-08-2010 07:00:00 13.18 C 9.27 g/m*3 13.18 C 0 km/h
Sensor: Nr:Datum:Temp:Abs-Feuchte:Windchill:Wind:
Aussen-T/F 2001 06-08-2010 08:00:00 13.48 C 9.49 g/m*3 13.48 C 0 km/h
2002 06-08-2010 09:00:00 15.46 C 9.44 g/m*3 15.46 C 0 km/h
2003 06-08-2010 10:00:00 17.84 C 8.31 g/m*3 17.84 C 0 km/h
2004 06-08-2010 11:00:00 19.84 C 7.22 g/m*3 19.84 C 0 km/h
2005 06-08-2010 12:00:00 21.34 C 6.17 g/m*3 21.34 C 0 km/h
2006 06-08-2010 13:00:00 23.7 C 4.79 g/m*3 23.7 C 0 km/h
2007 06-08-2010 14:00:00 24.84 C 4.56 g/m*3 24.84 C 0 km/h
2008 06-08-2010 15:00:00 25.28 C 4.68 g/m*3 25.28 C 0 km/h
2009 06-08-2010 16:00:00 28.1 C 5.47 g/m*3 28.1 C 0 km/h
2010 06-08-2010 17:00:00 24.86 C 7.63 g/m*3 24.86 C 0 km/h
2011 06-08-2010 18:00:00 26.42 C 4.98 g/m*3 26.42 C 0 km/h
2012 06-08-2010 19:00:00 26.2 C 4.92 g/m*3 26.2 C 0 km/h
2013 06-08-2010 20:00:00 23.66 C 5.29 g/m*3 23.66 C 0 km/h
2014 06-08-2010 21:00:00 19.3 C 6.14 g/m*3 19.3 C 0 km/h
2015 06-08-2010 22:00:00 17.72 C 6.34 g/m*3 17.72 C 0 km/h
2016 06-08-2010 23:00:00 16.4 C 6.67 g/m*3 16.4 C 0 km/h
2017 07-08-2010 00:00:00 15.04 C 7.15 g/m*3 15.04 C 0 km/h
2018 07-08-2010 01:00:00 13.94 C 7.55 g/m*3 13.94 C 0 km/h
2019 07-08-2010 02:00:00 13 C 7.89 g/m*3 13 C 0 km/h
2020 07-08-2010 03:00:00 12.32 C 7.74 g/m*3 12.32 C 0 km/h
2021 07-08-2010 04:00:00 11.64 C 7.71 g/m*3 11.64 C 0 km/h
2022 07-08-2010 05:00:00 11.06 C 7.7 g/m*3 11.06 C 0 km/h
2023 07-08-2010 06:00:00 10.48 C 7.77 g/m*3 10.48 C 0 km/h
2024 07-08-2010 07:00:00 10.7 C 7.96 g/m*3 10.7 C 0 km/h
2025 07-08-2010 08:00:00 11.74 C 8.07 g/m*3 11.74 C 0 km/h
Sensor: Nr:Datum:Temp:Abs-Feuchte:Windchill:Wind:
Aussen-T/F 2026 07-08-2010 09:00:00 14.06 C 8.4 g/m*3 14.06 C 0 km/h
2027 07-08-2010 10:00:00 18.22 C 8.5 g/m*3 18.22 C 0 km/h
2028 07-08-2010 11:00:00 21.26 C 6.36 g/m*3 21.26 C 0 km/h
2029 07-08-2010 12:00:00 22.86 C 5.46 g/m*3 22.86 C 0 km/h
2030 07-08-2010 13:00:00 25.48 C 4.87 g/m*3 25.48 C 0 km/h
2031 07-08-2010 14:00:00 26.66 C 5.05 g/m*3 26.66 C 0 km/h
2032 07-08-2010 15:00:00 27.78 C 5.37 g/m*3 27.78 C 0 km/h
2033 07-08-2010 16:00:00 29.2 C 5.81 g/m*3 29.2 C 0 km/h
2034 07-08-2010 17:00:00 29.3 C 5.84 g/m*3 29.3 C 0 km/h
2035 07-08-2010 18:00:00 27.4 C 6.26 g/m*3 27.4 C 0 km/h
2036 07-08-2010 19:00:00 25.16 C 6.83 g/m*3 25.16 C 0 km/h
2037 07-08-2010 20:00:00 23.86 C 6.99 g/m*3 23.86 C 0 km/h
2038 07-08-2010 21:00:00 22.46 C 7.05 g/m*3 22.46 C 0 km/h
2039 07-08-2010 22:00:00 21.96 C 7.4 g/m*3 21.96 C 0 km/h
2040 07-08-2010 23:00:00 21.6 C 7.74 g/m*3 21.6 C 0 km/h
2041 08-08-2010 00:00:00 21.04 C 8.12 g/m*3 21.04 C 0 km/h
2042 08-08-2010 01:00:00 20.16 C 8.44 g/m*3 20.16 C 0 km/h
2043 08-08-2010 02:00:00 19.82 C 9.44 g/m*3 19.82 C 0 km/h
2044 08-08-2010 03:00:00 18.68 C 10.01 g/m*3 18.68 C 0 km/h
2045 08-08-2010 04:00:00 18.36 C 10.39 g/m*3 18.36 C 0 km/h
2046 08-08-2010 05:00:00 17.56 C 11.46 g/m*3 17.56 C 0 km/h
2047 08-08-2010 06:00:00 16.68 C 12.49 g/m*3 16.68 C 0 km/h
2048 08-08-2010 07:00:00 16.66 C 12.96 g/m*3 16.66 C 0 km/h
2049 08-08-2010 08:00:00 17.2 C 13.47 g/m*3 17.2 C 0 km/h
2050 08-08-2010 09:00:00 17.64 C 13.35 g/m*3 17.64 C 0 km/h
Sensor: Nr:Datum:Temp:Abs-Feuchte:Windchill:Wind:
Aussen-T/F 2051 08-08-2010 10:00:00 18.46 C 12.66 g/m*3 18.46 C 0 km/h
2052 08-08-2010 11:00:00 16.48 C 12.15 g/m*3 16.48 C 0 km/h
2053 08-08-2010 12:00:00 16.58 C 12.56 g/m*3 16.58 C 0 km/h
2054 08-08-2010 13:00:00 17.16 C 12.86 g/m*3 17.16 C 0 km/h
2055 08-08-2010 14:00:00 18.98 C 12.57 g/m*3 18.98 C 0 km/h
2056 08-08-2010 15:00:00 20.18 C 12.5 g/m*3 20.18 C 0 km/h
2057 08-08-2010 16:00:00 19.94 C 12.36 g/m*3 19.94 C 0 km/h
2058 08-08-2010 17:00:00 21.68 C 12 g/m*3 21.68 C 0 km/h
2059 08-08-2010 18:00:00 21.42 C 10.21 g/m*3 21.42 C 0 km/h
2060 08-08-2010 19:00:00 19.98 C 10.77 g/m*3 19.98 C 0 km/h
2061 08-08-2010 20:00:00 17.72 C 11.81 g/m*3 17.72 C 0 km/h
2062 08-08-2010 21:00:00 17.46 C 11.42 g/m*3 17.46 C 0 km/h
2063 08-08-2010 22:00:00 17.1 C 11.5 g/m*3 17.1 C 0 km/h
2064 08-08-2010 23:00:00 16.7 C 11.68 g/m*3 16.7 C 0 km/h
2065 09-08-2010 00:00:00 16.42 C 12.05 g/m*3 16.42 C 0 km/h
2066 09-08-2010 01:00:00 16.44 C 12.17 g/m*3 16.44 C 0 km/h
2067 09-08-2010 02:00:00 15.6 C 11.68 g/m*3 15.6 C 0 km/h
2068 09-08-2010 03:00:00 15.6 C 11.7 g/m*3 15.6 C 0 km/h
2069 09-08-2010 04:00:00 15.74 C 11.4 g/m*3 15.74 C 0 km/h
2070 09-08-2010 05:00:00 14.84 C 10.97 g/m*3 14.84 C 0 km/h
2071 09-08-2010 06:00:00 14.6 C 11.31 g/m*3 14.6 C 0 km/h
2072 09-08-2010 07:00:00 14.6 C 11.34 g/m*3 14.6 C 0 km/h
2073 09-08-2010 08:00:00 15.22 C 11.05 g/m*3 15.22 C 0 km/h
2074 09-08-2010 09:00:00 15.8 C 10.82 g/m*3 15.8 C 0 km/h
2075 09-08-2010 10:00:00 17.4 C 10.55 g/m*3 17.4 C 0 km/h
Sensor: Nr:Datum:Temp:Abs-Feuchte:Windchill:Wind:
Aussen-T/F 2076 09-08-2010 11:00:00 19.6 C 9.25 g/m*3 19.6 C 0 km/h
2077 09-08-2010 12:00:00 21.3 C 8.61 g/m*3 21.3 C 0 km/h
2078 09-08-2010 13:00:00 24.36 C 8.17 g/m*3 24.36 C 0 km/h
2079 09-08-2010 14:00:00 24.1 C 7.83 g/m*3 24.1 C 0 km/h
2080 09-08-2010 15:00:00 25.54 C 7.59 g/m*3 25.54 C 0 km/h
2081 09-08-2010 16:00:00 26.18 C 6.84 g/m*3 26.18 C 0 km/h
2082 09-08-2010 17:00:00 26.22 C 8.08 g/m*3 26.22 C 0 km/h
2083 09-08-2010 18:00:00 27.5 C 7.88 g/m*3 27.5 C 0 km/h
2084 09-08-2010 19:00:00 23.52 C 8.81 g/m*3 23.52 C 0 km/h
2085 09-08-2010 20:00:00 21.26 C 8.55 g/m*3 21.26 C 0 km/h
2086 09-08-2010 21:00:00 19.76 C 8.79 g/m*3 19.76 C 0 km/h
2087 09-08-2010 22:00:00 18.64 C 8.97 g/m*3 18.64 C 0 km/h
2088 09-08-2010 23:00:00 18.12 C 9.25 g/m*3 18.12 C 0 km/h
2089 10-08-2010 00:00:00 17.62 C 9.79 g/m*3 17.62 C 0 km/h
2090 10-08-2010 01:00:00 17.52 C 10.15 g/m*3 17.52 C 0 km/h
2091 10-08-2010 02:00:00 17.38 C 10.04 g/m*3 17.38 C 0 km/h
2092 10-08-2010 03:00:00 17.14 C 10.1 g/m*3 17.14 C 0 km/h
2093 10-08-2010 04:00:00 16.86 C 10.24 g/m*3 16.86 C 0 km/h
2094 10-08-2010 05:00:00 15.62 C 10.09 g/m*3 15.62 C 0 km/h
2095 10-08-2010 06:00:00 14.66 C 9.92 g/m*3 14.66 C 0 km/h
2096 10-08-2010 07:00:00 14.88 C 10.31 g/m*3 14.88 C 0 km/h
2097 10-08-2010 08:00:00 15.84 C 10.71 g/m*3 15.84 C 0 km/h
2098 10-08-2010 09:00:00 18.2 C 10.6 g/m*3 18.2 C 0 km/h
2099 10-08-2010 10:00:00 20.92 C 11.01 g/m*3 20.92 C 0 km/h
2100 10-08-2010 11:00:00 23.74 C 9.52 g/m*3 23.74 C 0 km/h
Sensor: Nr:Datum:Temp:Abs-Feuchte:Windchill:Wind:
Aussen-T/F 2101 10-08-2010 12:00:00 25.9 C 6.83 g/m*3 25.9 C 0 km/h
2102 10-08-2010 13:00:00 28.16 C 5.98 g/m*3 28.16 C 0 km/h
2103 10-08-2010 14:00:00 29.04 C 6.22 g/m*3 29.04 C 0 km/h
2104 10-08-2010 15:00:00 28.46 C 7.36 g/m*3 28.46 C 0 km/h
2105 10-08-2010 16:00:00 29.88 C 6.51 g/m*3 29.88 C 0 km/h
2106 10-08-2010 17:00:00 29.94 C 6.47 g/m*3 29.94 C 0 km/h
2107 10-08-2010 18:00:00 29.68 C 6.74 g/m*3 29.68 C 0 km/h
2108 10-08-2010 19:00:00 26.94 C 8.16 g/m*3 26.94 C 0 km/h
2109 10-08-2010 20:00:00 24.76 C 8.27 g/m*3 24.76 C 0 km/h
2110 10-08-2010 21:00:00 23.36 C 8.77 g/m*3 23.36 C 0 km/h
2111 10-08-2010 22:00:00 22.86 C 8.93 g/m*3 22.86 C 0 km/h
2112 10-08-2010 23:00:00 21.9 C 9.26 g/m*3 21.9 C 0 km/h
2113 11-08-2010 00:00:00 21.46 C 9.67 g/m*3 21.46 C 0 km/h
2114 11-08-2010 01:00:00 20.54 C 10.56 g/m*3 20.54 C 0 km/h
2115 11-08-2010 02:00:00 18.38 C 12.32 g/m*3 18.38 C 0 km/h
2116 11-08-2010 03:00:00 17.64 C 13.14 g/m*3 17.64 C 0 km/h
2117 11-08-2010 04:00:00 17.52 C 13.4 g/m*3 17.52 C 0 km/h
2118 11-08-2010 05:00:00 17.42 C 13.24 g/m*3 17.42 C 0 km/h
2119 11-08-2010 06:00:00 17.4 C 13.04 g/m*3 17.4 C 0 km/h
2120 11-08-2010 07:00:00 17.62 C 13.03 g/m*3 17.62 C 0 km/h
2121 11-08-2010 08:00:00 18.68 C 13.02 g/m*3 18.68 C 0 km/h
2122 11-08-2010 09:00:00 19.64 C 11.51 g/m*3 19.64 C 0 km/h
2123 11-08-2010 10:00:00 20.8 C 11.08 g/m*3 20.8 C 0 km/h
2124 11-08-2010 11:00:00 20.62 C 11.18 g/m*3 20.62 C 0 km/h
2125 11-08-2010 12:00:00 22.46 C 11 g/m*3 22.46 C 0 km/h
Sensor: Nr:Datum:Temp:Abs-Feuchte:Windchill:Wind:
Aussen-T/F 2126 11-08-2010 13:00:00 23.8 C 10.37 g/m*3 23.8 C 0 km/h
2127 11-08-2010 14:00:00 24.4 C 10.1 g/m*3 24.4 C 0 km/h
2128 11-08-2010 15:00:00 25.56 C 9.88 g/m*3 25.56 C 0 km/h
2129 11-08-2010 16:00:00 22.88 C 12 g/m*3 22.88 C 0 km/h
2130 11-08-2010 17:00:00 21.74 C 14 g/m*3 21.74 C 0 km/h
2131 11-08-2010 18:00:00 22.86 C 14.31 g/m*3 22.86 C 0 km/h
2132 11-08-2010 19:00:00 21.28 C 13.7 g/m*3 21.28 C 0 km/h
2133 11-08-2010 20:00:00 19.56 C 13.57 g/m*3 19.56 C 0 km/h
2134 11-08-2010 21:00:00 18.84 C 14.4 g/m*3 18.84 C 0 km/h
2135 11-08-2010 22:00:00 18.48 C 14.38 g/m*3 18.48 C 0 km/h
2136 11-08-2010 23:00:00 18.3 C 14.38 g/m*3 18.3 C 0 km/h
2137 12-08-2010 00:00:00 17.88 C 14.27 g/m*3 17.88 C 0 km/h
2138 12-08-2010 01:00:00 17.52 C 14.03 g/m*3 17.52 C 0 km/h
2139 12-08-2010 02:00:00 17.16 C 13.73 g/m*3 17.16 C 0 km/h
2140 12-08-2010 03:00:00 16.86 C 13.49 g/m*3 16.86 C 0 km/h
2141 12-08-2010 04:00:00 16.46 C 13.22 g/m*3 16.46 C 0 km/h
2142 12-08-2010 05:00:00 16.48 C 13.3 g/m*3 16.48 C 0 km/h
2143 12-08-2010 06:00:00 16.72 C 13.52 g/m*3 16.72 C 0 km/h
2144 12-08-2010 07:00:00 16.86 C 13.6 g/m*3 16.86 C 0 km/h
2145 12-08-2010 08:00:00 16.64 C 12.89 g/m*3 16.64 C 0 km/h
2146 12-08-2010 09:00:00 17.72 C 13.44 g/m*3 17.72 C 0 km/h
2147 12-08-2010 10:00:00 18.58 C 12.24 g/m*3 18.58 C 0 km/h
2148 12-08-2010 11:00:00 18.62 C 12.17 g/m*3 18.62 C 0 km/h
2149 12-08-2010 12:00:00 19.56 C 11.25 g/m*3 19.56 C 0 km/h
2150 12-08-2010 13:00:00 20.26 C 9.58 g/m*3 20.26 C 0 km/h
Sensor: Nr:Datum:Temp:Abs-Feuchte:Windchill:Wind:
Aussen-T/F 2151 12-08-2010 14:00:00 20.3 C 9.04 g/m*3 20.3 C 0 km/h
2152 12-08-2010 15:00:00 23.02 C 8.4 g/m*3 23.02 C 0 km/h
2153 12-08-2010 16:00:00 22.56 C 7.14 g/m*3 22.56 C 0 km/h
2154 12-08-2010 17:00:00 25.42 C 5.89 g/m*3 25.42 C 0 km/h
2155 12-08-2010 18:00:00 23.3 C 6.65 g/m*3 23.3 C 0 km/h
2156 12-08-2010 19:00:00 21.68 C 8.23 g/m*3 21.68 C 0 km/h
2157 12-08-2010 20:00:00 20.1 C 8.45 g/m*3 20.1 C 0 km/h
2158 12-08-2010 21:00:00 19.14 C 7.99 g/m*3 19.14 C 0 km/h
2159 12-08-2010 22:00:00 18.44 C 8.58 g/m*3 18.44 C 0 km/h
2160 12-08-2010 23:00:00 17.34 C 9.19 g/m*3 17.34 C 0 km/h
2161 13-08-2010 00:00:00 16.82 C 9.42 g/m*3 16.82 C 0 km/h
2162 13-08-2010 01:00:00 16.18 C 9.26 g/m*3 16.18 C 0 km/h
2163 13-08-2010 02:00:00 15.82 C 9.68 g/m*3 15.82 C 0 km/h
2164 13-08-2010 03:00:00 15.34 C 9.84 g/m*3 15.34 C 0 km/h
2165 13-08-2010 04:00:00 15.04 C 10 g/m*3 15.04 C 0 km/h
2166 13-08-2010 05:00:00 14.76 C 9.98 g/m*3 14.76 C 0 km/h
2167 13-08-2010 06:00:00 14.7 C 10.05 g/m*3 14.7 C 0 km/h
2168 13-08-2010 07:00:00 15.02 C 10.12 g/m*3 15.02 C 0 km/h
2169 13-08-2010 08:00:00 15.16 C 10.33 g/m*3 15.16 C 0 km/h
2170 13-08-2010 09:00:00 16.26 C 10.3 g/m*3 16.26 C 0 km/h
2171 13-08-2010 10:00:00 18.84 C 9.65 g/m*3 18.84 C 0 km/h
2172 13-08-2010 11:00:00 21.24 C 8.4 g/m*3 21.24 C 0 km/h
2173 13-08-2010 12:00:00 22.2 C 7.74 g/m*3 22.2 C 0 km/h
2174 13-08-2010 13:00:00 23 C 6.99 g/m*3 23 C 0 km/h
2175 13-08-2010 14:00:00 23.92 C 6.5 g/m*3 23.92 C 0 km/h
Sensor: Nr:Datum:Temp:Abs-Feuchte:Windchill:Wind:
Aussen-T/F 2176 13-08-2010 15:00:00 24.42 C 6.02 g/m*3 24.42 C 0 km/h
2177 13-08-2010 16:00:00 24.24 C 6.75 g/m*3 24.24 C 0 km/h
2178 13-08-2010 17:00:00 23.66 C 7.43 g/m*3 23.66 C 0 km/h
2179 13-08-2010 18:00:00 22.5 C 8.15 g/m*3 22.5 C 0 km/h
2180 13-08-2010 19:00:00 21.84 C 7.88 g/m*3 21.84 C 0 km/h
2181 13-08-2010 20:00:00 19.9 C 7.94 g/m*3 19.9 C 0 km/h
2182 13-08-2010 21:00:00 17.66 C 7.83 g/m*3 17.66 C 0 km/h
2183 13-08-2010 22:00:00 16.72 C 8.2 g/m*3 16.72 C 0 km/h
2184 13-08-2010 23:00:00 15.44 C 8.64 g/m*3 15.44 C 0 km/h
2185 14-08-2010 00:00:00 14.7 C 8.91 g/m*3 14.7 C 0 km/h
2186 14-08-2010 01:00:00 13.98 C 9.11 g/m*3 13.98 C 0 km/h
2187 14-08-2010 02:00:00 13.32 C 9 g/m*3 13.32 C 0 km/h
2188 14-08-2010 03:00:00 12.6 C 8.87 g/m*3 12.6 C 0 km/h
2189 14-08-2010 04:00:00 12.06 C 8.75 g/m*3 12.06 C 0 km/h
2190 14-08-2010 05:00:00 11.62 C 8.76 g/m*3 11.62 C 0 km/h
2191 14-08-2010 06:00:00 11.12 C 8.73 g/m*3 11.12 C 0 km/h
2192 14-08-2010 07:00:00 11.28 C 8.9 g/m*3 11.28 C 0 km/h
2193 14-08-2010 08:00:00 12.32 C 9.42 g/m*3 12.32 C 0 km/h
2194 14-08-2010 09:00:00 14.4 C 9.94 g/m*3 14.4 C 0 km/h
2195 14-08-2010 10:00:00 17.62 C 10.39 g/m*3 17.62 C 0 km/h
2196 14-08-2010 11:00:00 20.68 C 10.36 g/m*3 20.68 C 0 km/h
2197 14-08-2010 12:00:00 22.96 C 9.19 g/m*3 22.96 C 0 km/h
2198 14-08-2010 13:00:00 26.24 C 7.4 g/m*3 26.24 C 0 km/h
2199 14-08-2010 14:00:00 27.62 C 6.98 g/m*3 27.62 C 0 km/h
2200 14-08-2010 15:00:00 28.04 C 6.7 g/m*3 28.04 C 0 km/h
Sensor: Nr:Datum:Temp:Abs-Feuchte:Windchill:Wind:
Aussen-T/F 2201 14-08-2010 16:00:00 30.1 C 6.46 g/m*3 30.1 C 0 km/h
2202 14-08-2010 17:00:00 30.88 C 6.36 g/m*3 30.88 C 0 km/h
2203 14-08-2010 18:00:00 31.22 C 6.48 g/m*3 31.22 C 0 km/h
2204 14-08-2010 19:00:00 27.86 C 7.56 g/m*3 27.86 C 0 km/h
2205 14-08-2010 20:00:00 24.86 C 8.18 g/m*3 24.86 C 0 km/h
2206 14-08-2010 21:00:00 22.14 C 8.73 g/m*3 22.14 C 0 km/h
2207 14-08-2010 22:00:00 21.24 C 9.14 g/m*3 21.24 C 0 km/h
2208 14-08-2010 23:00:00 20.36 C 9.14 g/m*3 20.36 C 0 km/h
2209 15-08-2010 00:00:00 19.74 C 8.82 g/m*3 19.74 C 0 km/h
2210 15-08-2010 01:00:00 19.38 C 8.73 g/m*3 19.38 C 0 km/h
2211 15-08-2010 02:00:00 18.98 C 8.98 g/m*3 18.98 C 0 km/h
2212 15-08-2010 03:00:00 18.6 C 9.29 g/m*3 18.6 C 0 km/h
2213 15-08-2010 04:00:00 18.14 C 9.14 g/m*3 18.14 C 0 km/h
2214 15-08-2010 05:00:00 18.06 C 8.88 g/m*3 18.06 C 0 km/h
2215 15-08-2010 06:00:00 17.9 C 9.04 g/m*3 17.9 C 0 km/h
2216 15-08-2010 07:00:00 17.1 C 9.69 g/m*3 17.1 C 0 km/h
2217 15-08-2010 08:00:00 15.24 C 11.48 g/m*3 15.24 C 0 km/h
2218 15-08-2010 09:00:00 15.2 C 11.99 g/m*3 15.2 C 0 km/h
2219 15-08-2010 10:00:00 15.48 C 12.44 g/m*3 15.48 C 0 km/h
2220 15-08-2010 11:00:00 15.82 C 12.8 g/m*3 15.82 C 0 km/h
2221 15-08-2010 12:00:00 16.04 C 12.97 g/m*3 16.04 C 0 km/h
2222 15-08-2010 13:00:00 16.14 C 13.05 g/m*3 16.14 C 0 km/h
2223 15-08-2010 14:00:00 16.44 C 13.29 g/m*3 16.44 C 0 km/h
2224 15-08-2010 15:00:00 16.4 C 13.26 g/m*3 16.4 C 0 km/h
2225 15-08-2010 16:00:00 16.48 C 13.32 g/m*3 16.48 C 0 km/h
Sensor: Nr:Datum:Temp:Abs-Feuchte:Windchill:Wind:
Aussen-T/F 2226 15-08-2010 17:00:00 16.68 C 13.48 g/m*3 16.68 C 0 km/h
2227 15-08-2010 18:00:00 16.6 C 13.42 g/m*3 16.6 C 0 km/h
2228 15-08-2010 19:00:00 16.6 C 13.42 g/m*3 16.6 C 0 km/h
2229 15-08-2010 20:00:00 16.38 C 13.24 g/m*3 16.38 C 0 km/h
2230 15-08-2010 21:00:00 16.24 C 13.13 g/m*3 16.24 C 0 km/h
2231 15-08-2010 22:00:00 16.14 C 13.05 g/m*3 16.14 C 0 km/h
2232 15-08-2010 23:00:00 15.5 C 12.56 g/m*3 15.5 C 0 km/h
2233 16-08-2010 00:00:00 14.9 C 12.11 g/m*3 14.9 C 0 km/h
2234 16-08-2010 01:00:00 14.72 C 11.87 g/m*3 14.72 C 0 km/h
2235 16-08-2010 02:00:00 14.6 C 11.61 g/m*3 14.6 C 0 km/h
2236 16-08-2010 03:00:00 14.6 C 11.64 g/m*3 14.6 C 0 km/h
2237 16-08-2010 04:00:00 14.5 C 11.34 g/m*3 14.5 C 0 km/h
2238 16-08-2010 05:00:00 14.5 C 11.39 g/m*3 14.5 C 0 km/h
2239 16-08-2010 06:00:00 14.54 C 11.37 g/m*3 14.54 C 0 km/h
2240 16-08-2010 07:00:00 14.84 C 11.45 g/m*3 14.84 C 0 km/h
2241 16-08-2010 08:00:00 15.92 C 11.44 g/m*3 15.92 C 0 km/h
2242 16-08-2010 09:00:00 17.4 C 11.09 g/m*3 17.4 C 0 km/h
2243 16-08-2010 10:00:00 17.2 C 10.84 g/m*3 17.2 C 0 km/h
2244 16-08-2010 11:00:00 17.7 C 11.09 g/m*3 17.7 C 0 km/h
2245 16-08-2010 12:00:00 17.76 C 11.45 g/m*3 17.76 C 0 km/h
2246 16-08-2010 13:00:00 18.38 C 10.59 g/m*3 18.38 C 0 km/h
2247 16-08-2010 14:00:00 19.88 C 9.88 g/m*3 19.88 C 0 km/h
2248 16-08-2010 15:00:00 19.72 C 9.42 g/m*3 19.72 C 0 km/h
2249 16-08-2010 16:00:00 19.76 C 9.75 g/m*3 19.76 C 0 km/h
2250 16-08-2010 17:00:00 19.96 C 9.79 g/m*3 19.96 C 0 km/h
Sensor: Nr:Datum:Temp:Abs-Feuchte:Windchill:Wind:
Aussen-T/F 2251 16-08-2010 18:00:00 19.76 C 9.65 g/m*3 19.76 C 0 km/h
2252 16-08-2010 19:00:00 18.6 C 10.06 g/m*3 18.6 C 0 km/h
2253 16-08-2010 20:00:00 17.9 C 10.63 g/m*3 17.9 C 0 km/h
2254 16-08-2010 21:00:00 17.44 C 11.32 g/m*3 17.44 C 0 km/h
2255 16-08-2010 22:00:00 17.58 C 11.83 g/m*3 17.58 C 0 km/h
2256 16-08-2010 23:00:00 17.76 C 12.05 g/m*3 17.76 C 0 km/h
2257 17-08-2010 00:00:00 17.62 C 11.95 g/m*3 17.62 C 0 km/h
2258 17-08-2010 01:00:00 16.68 C 12.29 g/m*3 16.68 C 0 km/h
2259 17-08-2010 02:00:00 16.48 C 12.37 g/m*3 16.48 C 0 km/h
2260 17-08-2010 03:00:00 16.42 C 11.79 g/m*3 16.42 C 0 km/h
2261 17-08-2010 04:00:00 16.42 C 11.18 g/m*3 16.42 C 0 km/h
2262 17-08-2010 05:00:00 15.62 C 11.34 g/m*3 15.62 C 0 km/h
2263 17-08-2010 06:00:00 15.84 C 11.23 g/m*3 15.84 C 0 km/h
2264 17-08-2010 07:00:00 16.36 C 10.83 g/m*3 16.36 C 0 km/h
2265 17-08-2010 08:00:00 16.72 C 10.33 g/m*3 16.72 C 0 km/h
2266 17-08-2010 09:00:00 16.98 C 9.65 g/m*3 16.98 C 0 km/h
2267 17-08-2010 10:00:00 17.06 C 9.35 g/m*3 17.06 C 0 km/h
2268 17-08-2010 11:00:00 17.58 C 9.2 g/m*3 17.58 C 0 km/h
2269 17-08-2010 12:00:00 16.62 C 10.13 g/m*3 16.62 C 0 km/h
2270 17-08-2010 13:00:00 17.3 C 11.73 g/m*3 17.3 C 0 km/h
2271 17-08-2010 14:00:00 17.74 C 9.16 g/m*3 17.74 C 0 km/h
2272 17-08-2010 15:00:00 17.08 C 8.75 g/m*3 17.08 C 0 km/h
2273 17-08-2010 16:00:00 14.7 C 9.74 g/m*3 14.7 C 0 km/h
2274 17-08-2010 17:00:00 14.42 C 9.98 g/m*3 14.42 C 0 km/h
2275 17-08-2010 18:00:00 14.8 C 11 g/m*3 14.8 C 0 km/h
Sensor: Nr:Datum:Temp:Abs-Feuchte:Windchill:Wind:
Aussen-T/F 2276 17-08-2010 19:00:00 14.84 C 11.05 g/m*3 14.84 C 0 km/h
2277 17-08-2010 20:00:00 14.32 C 11.02 g/m*3 14.32 C 0 km/h
2278 17-08-2010 21:00:00 14.38 C 11.31 g/m*3 14.38 C 0 km/h
2279 17-08-2010 22:00:00 14.62 C 10.75 g/m*3 14.62 C 0 km/h
2280 17-08-2010 23:00:00 15 C 10.05 g/m*3 15 C 0 km/h
2281 18-08-2010 00:00:00 15.52 C 9.66 g/m*3 15.52 C 0 km/h
2282 18-08-2010 01:00:00 15.76 C 9.43 g/m*3 15.76 C 0 km/h
2283 18-08-2010 02:00:00 15.54 C 9.43 g/m*3 15.54 C 0 km/h
2284 18-08-2010 03:00:00 15.46 C 9.49 g/m*3 15.46 C 0 km/h
2285 18-08-2010 04:00:00 15.2 C 9.55 g/m*3 15.2 C 0 km/h
2286 18-08-2010 05:00:00 14.96 C 9.8 g/m*3 14.96 C 0 km/h
2287 18-08-2010 06:00:00 15.08 C 9.56 g/m*3 15.08 C 0 km/h
2288 18-08-2010 07:00:00 15.44 C 9.69 g/m*3 15.44 C 0 km/h
2289 18-08-2010 08:00:00 16.16 C 9.88 g/m*3 16.16 C 0 km/h
2290 18-08-2010 09:00:00 17.1 C 10.16 g/m*3 17.1 C 0 km/h
2291 18-08-2010 10:00:00 18.16 C 10.2 g/m*3 18.16 C 0 km/h
2292 18-08-2010 11:00:00 18.7 C 10.18 g/m*3 18.7 C 0 km/h
2293 18-08-2010 12:00:00 18.82 C 10.67 g/m*3 18.82 C 0 km/h
2294 18-08-2010 13:00:00 20.8 C 10.25 g/m*3 20.8 C 0 km/h
2295 18-08-2010 14:00:00 22.84 C 9.04 g/m*3 22.84 C 0 km/h
2296 18-08-2010 15:00:00 22.24 C 9.01 g/m*3 22.24 C 0 km/h
2297 18-08-2010 16:00:00 23.68 C 9.02 g/m*3 23.68 C 0 km/h
2298 18-08-2010 17:00:00 23.88 C 8.86 g/m*3 23.88 C 0 km/h
2299 18-08-2010 18:00:00 22.36 C 9.15 g/m*3 22.36 C 0 km/h
2300 18-08-2010 19:00:00 20.68 C 9.35 g/m*3 20.68 C 0 km/h
Sensor: Nr:Datum:Temp:Abs-Feuchte:Windchill:Wind:
Aussen-T/F 2301 18-08-2010 20:00:00 19.44 C 10 g/m*3 19.44 C 0 km/h
2302 18-08-2010 21:00:00 18.82 C 10.19 g/m*3 18.82 C 0 km/h
2303 18-08-2010 22:00:00 17.6 C 10.59 g/m*3 17.6 C 0 km/h
2304 18-08-2010 23:00:00 17.58 C 10.19 g/m*3 17.58 C 0 km/h
2305 19-08-2010 00:00:00 17.36 C 9.14 g/m*3 17.36 C 0 km/h
2306 19-08-2010 01:00:00 16.86 C 9.18 g/m*3 16.86 C 0 km/h
2307 19-08-2010 02:00:00 16.32 C 8.81 g/m*3 16.32 C 0 km/h
2308 19-08-2010 03:00:00 15.9 C 9.21 g/m*3 15.9 C 0 km/h
2309 19-08-2010 04:00:00 15.54 C 9.38 g/m*3 15.54 C 0 km/h
2310 19-08-2010 05:00:00 15.1 C 9.31 g/m*3 15.1 C 0 km/h
2311 19-08-2010 06:00:00 14.18 C 8.9 g/m*3 14.18 C 0 km/h
2312 19-08-2010 07:00:00 13.92 C 8.21 g/m*3 13.92 C 0 km/h
2313 19-08-2010 08:00:00 14.78 C 8.05 g/m*3 14.78 C 0 km/h
2314 19-08-2010 09:00:00 15.72 C 8.06 g/m*3 15.72 C 0 km/h
2315 19-08-2010 10:00:00 17.9 C 7.7 g/m*3 17.9 C 0 km/h
2316 19-08-2010 11:00:00 20 C 7.26 g/m*3 20 C 0 km/h
2317 19-08-2010 12:00:00 21.44 C 6.65 g/m*3 21.44 C 0 km/h
2318 19-08-2010 13:00:00 22.64 C 6.16 g/m*3 22.64 C 0 km/h
2319 19-08-2010 14:00:00 23.04 C 6.02 g/m*3 23.04 C 0 km/h
2320 19-08-2010 15:00:00 23.74 C 6.22 g/m*3 23.74 C 0 km/h
2321 19-08-2010 16:00:00 23.28 C 7.64 g/m*3 23.28 C 0 km/h
2322 19-08-2010 17:00:00 23.9 C 7.53 g/m*3 23.9 C 0 km/h
2323 19-08-2010 18:00:00 25.42 C 5.75 g/m*3 25.42 C 0 km/h
2324 19-08-2010 19:00:00 25.24 C 6.63 g/m*3 25.24 C 0 km/h
2325 19-08-2010 20:00:00 20.5 C 7.15 g/m*3 20.5 C 0 km/h
Sensor: Nr:Datum:Temp:Abs-Feuchte:Windchill:Wind:
Aussen-T/F 2326 19-08-2010 21:00:00 18.08 C 7.78 g/m*3 18.08 C 0 km/h
2327 19-08-2010 22:00:00 16.86 C 8.01 g/m*3 16.86 C 0 km/h
2328 19-08-2010 23:00:00 15.62 C 8.36 g/m*3 15.62 C 0 km/h
2329 20-08-2010 00:00:00 14.72 C 8.55 g/m*3 14.72 C 0 km/h
2330 20-08-2010 01:00:00 14.04 C 8.61 g/m*3 14.04 C 0 km/h
2331 20-08-2010 02:00:00 13.34 C 8.59 g/m*3 13.34 C 0 km/h
2332 20-08-2010 03:00:00 12.8 C 8.62 g/m*3 12.8 C 0 km/h
2333 20-08-2010 04:00:00 12.26 C 8.58 g/m*3 12.26 C 0 km/h
2334 20-08-2010 05:00:00 11.9 C 8.56 g/m*3 11.9 C 0 km/h
2335 20-08-2010 06:00:00 11.48 C 8.54 g/m*3 11.48 C 0 km/h
2336 20-08-2010 07:00:00 11.76 C 8.78 g/m*3 11.76 C 0 km/h
2337 20-08-2010 08:00:00 12.54 C 9.19 g/m*3 12.54 C 0 km/h
2338 20-08-2010 09:00:00 14.5 C 9.85 g/m*3 14.5 C 0 km/h
2339 20-08-2010 10:00:00 18.02 C 10.3 g/m*3 18.02 C 0 km/h
2340 20-08-2010 11:00:00 20.98 C 10.87 g/m*3 20.98 C 0 km/h
2341 20-08-2010 12:00:00 23.76 C 10.86 g/m*3 23.76 C 0 km/h
2342 20-08-2010 13:00:00 26.76 C 9.04 g/m*3 26.76 C 0 km/h
2343 20-08-2010 14:00:00 28.36 C 7.82 g/m*3 28.36 C 0 km/h
2344 20-08-2010 15:00:00 29.54 C 7.45 g/m*3 29.54 C 0 km/h
2345 20-08-2010 16:00:00 30.72 C 7.57 g/m*3 30.72 C 0 km/h
2346 20-08-2010 17:00:00 31.16 C 7.29 g/m*3 31.16 C 0 km/h
2347 20-08-2010 18:00:00 31.22 C 7.64 g/m*3 31.22 C 0 km/h
2348 20-08-2010 19:00:00 29.58 C 8.42 g/m*3 29.58 C 0 km/h
2349 20-08-2010 20:00:00 25.1 C 9.07 g/m*3 25.1 C 0 km/h
2350 20-08-2010 21:00:00 23.08 C 9.58 g/m*3 23.08 C 0 km/h
Sensor: Nr:Datum:Temp:Abs-Feuchte:Windchill:Wind:
Aussen-T/F 2351 20-08-2010 22:00:00 22.025 C 10.2 g/m*3 22.03 C 0 km/h
2352 20-08-2010 23:00:00 20.9 C 10.64 g/m*3 20.9 C 0 km/h
2353 21-08-2010 00:00:00 19.76 C 10.77 g/m*3 19.76 C 0 km/h
2354 21-08-2010 01:00:00 18.84 C 11.01 g/m*3 18.84 C 0 km/h
2355 21-08-2010 02:00:00 18.16 C 11.04 g/m*3 18.16 C 0 km/h
2356 21-08-2010 03:00:00 17.66 C 11.11 g/m*3 17.66 C 0 km/h
2357 21-08-2010 04:00:00 17.06 C 11.12 g/m*3 17.06 C 0 km/h
2358 21-08-2010 05:00:00 16.46 C 10.95 g/m*3 16.46 C 0 km/h
2359 21-08-2010 06:00:00 16.04 C 10.9 g/m*3 16.04 C 0 km/h
2360 21-08-2010 07:00:00 16 C 11.06 g/m*3 16 C 0 km/h
2361 21-08-2010 08:00:00 16.78 C 11.54 g/m*3 16.78 C 0 km/h
2362 21-08-2010 09:00:00 18.42 C 12.22 g/m*3 18.42 C 0 km/h
2363 21-08-2010 10:00:00 21.4 C 12.86 g/m*3 21.4 C 0 km/h
2364 21-08-2010 11:00:00 24.76 C 12.17 g/m*3 24.76 C 0 km/h
2365 21-08-2010 12:00:00 27.54 C 9.81 g/m*3 27.54 C 0 km/h
2366 21-08-2010 13:00:00 29.12 C 9.19 g/m*3 29.12 C 0 km/h
2367 21-08-2010 14:00:00 30.42 C 8.69 g/m*3 30.42 C 0 km/h
2368 21-08-2010 15:00:00 31.28 C 8.51 g/m*3 31.28 C 0 km/h
2369 21-08-2010 16:00:00 32.14 C 7.89 g/m*3 32.14 C 0 km/h
2370 21-08-2010 17:00:00 32.38 C 7.58 g/m*3 32.38 C 0 km/h
2371 21-08-2010 18:00:00 32.42 C 7.39 g/m*3 32.42 C 0 km/h
2372 21-08-2010 19:00:00 31.66 C 7.96 g/m*3 31.66 C 0 km/h
2373 21-08-2010 20:00:00 28.82 C 9.33 g/m*3 28.82 C 0 km/h
2374 21-08-2010 21:00:00 25.72 C 10.26 g/m*3 25.72 C 0 km/h
2375 21-08-2010 22:00:00 24.34 C 10.87 g/m*3 24.34 C 0 km/h
Sensor: Nr:Datum:Temp:Abs-Feuchte:Windchill:Wind:
Aussen-T/F 2376 21-08-2010 23:00:00 23.16 C 11.24 g/m*3 23.16 C 0 km/h
2377 22-08-2010 00:00:00 22 C 11.45 g/m*3 22 C 0 km/h
2378 22-08-2010 01:00:00 21.04 C 11.68 g/m*3 21.04 C 0 km/h
2379 22-08-2010 02:00:00 20.14 C 11.88 g/m*3 20.14 C 0 km/h
2380 22-08-2010 03:00:00 19.52 C 12.1 g/m*3 19.52 C 0 km/h
2381 22-08-2010 04:00:00 19.16 C 12.11 g/m*3 19.16 C 0 km/h
2382 22-08-2010 05:00:00 18.54 C 12.08 g/m*3 18.54 C 0 km/h
2383 22-08-2010 06:00:00 18 C 12.01 g/m*3 18 C 0 km/h
2384 22-08-2010 07:00:00 18.3 C 12.2 g/m*3 18.3 C 0 km/h
2385 22-08-2010 08:00:00 18.96 C 12.62 g/m*3 18.96 C 0 km/h
2386 22-08-2010 09:00:00 20.32 C 12.64 g/m*3 20.32 C 0 km/h
2387 22-08-2010 10:00:00 23.1 C 12.69 g/m*3 23.1 C 0 km/h
2388 22-08-2010 11:00:00 24.88 C 12.71 g/m*3 24.88 C 0 km/h
2389 22-08-2010 12:00:00 27.46 C 11.67 g/m*3 27.46 C 0 km/h
2390 22-08-2010 13:00:00 28.44 C 10.53 g/m*3 28.44 C 0 km/h
2391 22-08-2010 14:00:00 28.74 C 10.48 g/m*3 28.74 C 0 km/h
2392 22-08-2010 15:00:00 25.76 C 12.2 g/m*3 25.76 C 0 km/h
2393 22-08-2010 16:00:00 27.8 C 11.89 g/m*3 27.8 C 0 km/h
2394 22-08-2010 17:00:00 26.68 C 11.88 g/m*3 26.68 C 0 km/h
2395 22-08-2010 18:00:00 26.28 C 11.72 g/m*3 26.28 C 0 km/h
2396 22-08-2010 19:00:00 25.52 C 11.57 g/m*3 25.52 C 0 km/h
2397 22-08-2010 20:00:00 24.42 C 10.65 g/m*3 24.42 C 0 km/h
2398 22-08-2010 21:00:00 23.16 C 11.49 g/m*3 23.16 C 0 km/h
2399 22-08-2010 22:00:00 22.66 C 11.69 g/m*3 22.66 C 0 km/h
2400 22-08-2010 23:00:00 21.52 C 11.89 g/m*3 21.52 C 0 km/h
Sensor: Nr:Datum:Temp:Abs-Feuchte:Windchill:Wind:
Aussen-T/F 2401 23-08-2010 00:00:00 20.88 C 12.01 g/m*3 20.88 C 0 km/h
2402 23-08-2010 01:00:00 20.38 C 12.16 g/m*3 20.38 C 0 km/h
2403 23-08-2010 02:00:00 20.02 C 12.32 g/m*3 20.02 C 0 km/h
2404 23-08-2010 03:00:00 19.82 C 12.31 g/m*3 19.82 C 0 km/h
2405 23-08-2010 04:00:00 19.52 C 12.33 g/m*3 19.52 C 0 km/h
2406 23-08-2010 05:00:00 19.44 C 12.21 g/m*3 19.44 C 0 km/h
2407 23-08-2010 06:00:00 19.48 C 12.34 g/m*3 19.48 C 0 km/h
2408 23-08-2010 07:00:00 19.92 C 12.49 g/m*3 19.92 C 0 km/h
2409 23-08-2010 08:00:00 19.74 C 13.31 g/m*3 19.74 C 0 km/h
2410 23-08-2010 09:00:00 19.44 C 14.52 g/m*3 19.44 C 0 km/h
2411 23-08-2010 10:00:00 20.64 C 15.07 g/m*3 20.64 C 0 km/h
2412 23-08-2010 11:00:00 22.26 C 14.78 g/m*3 22.26 C 0 km/h
2413 23-08-2010 12:00:00 23.08 C 15.61 g/m*3 23.08 C 0 km/h
2414 23-08-2010 13:00:00 23.68 C 14.36 g/m*3 23.68 C 0 km/h
2415 23-08-2010 14:00:00 24.34 C 14.28 g/m*3 24.34 C 0 km/h
2416 23-08-2010 15:00:00 25.86 C 12.32 g/m*3 25.86 C 0 km/h
2417 23-08-2010 16:00:00 25.94 C 11.4 g/m*3 25.94 C 0 km/h
2418 23-08-2010 17:00:00 23.58 C 11.98 g/m*3 23.58 C 0 km/h
2419 23-08-2010 18:00:00 21.12 C 13.76 g/m*3 21.12 C 0 km/h
2420 23-08-2010 19:00:00 20.76 C 13.77 g/m*3 20.76 C 0 km/h
2421 23-08-2010 20:00:00 20.34 C 12.94 g/m*3 20.34 C 0 km/h
2422 23-08-2010 21:00:00 19.8 C 12.61 g/m*3 19.8 C 0 km/h
2423 23-08-2010 22:00:00 19.58 C 12.24 g/m*3 19.58 C 0 km/h
2424 23-08-2010 23:00:00 19.3 C 11.94 g/m*3 19.3 C 0 km/h
2425 24-08-2010 00:00:00 19.18 C 12.09 g/m*3 19.18 C 0 km/h
Sensor: Nr:Datum:Temp:Abs-Feuchte:Windchill:Wind:
Aussen-T/F 2426 24-08-2010 01:00:00 19.2 C 12.43 g/m*3 19.2 C 0 km/h
2427 24-08-2010 02:00:00 19.68 C 12.28 g/m*3 19.68 C 0 km/h
2428 24-08-2010 03:00:00 18.34 C 11.85 g/m*3 18.34 C 0 km/h
2429 24-08-2010 04:00:00 18.06 C 9.53 g/m*3 18.06 C 0 km/h
2430 24-08-2010 05:00:00 17.24 C 9.51 g/m*3 17.24 C 0 km/h
2431 24-08-2010 06:00:00 17.08 C 9.48 g/m*3 17.08 C 0 km/h
2432 24-08-2010 07:00:00 16.44 C 9.23 g/m*3 16.44 C 0 km/h
2433 24-08-2010 08:00:00 16.16 C 8.45 g/m*3 16.16 C 0 km/h
2434 24-08-2010 09:00:00 16.76 C 7.3 g/m*3 16.76 C 0 km/h
2435 24-08-2010 10:00:00 17.88 C 7.23 g/m*3 17.88 C 0 km/h
2436 24-08-2010 11:00:00 19.08 C 6.88 g/m*3 19.08 C 0 km/h
2437 24-08-2010 12:00:00 20.04 C 6.34 g/m*3 20.04 C 0 km/h
2438 24-08-2010 13:00:00 21 C 5.94 g/m*3 21 C 0 km/h
2439 24-08-2010 14:00:00 21.46 C 5.49 g/m*3 21.46 C 0 km/h
2440 24-08-2010 15:00:00 21.82 C 5.11 g/m*3 21.82 C 0 km/h
2441 24-08-2010 16:00:00 23.04 C 4.61 g/m*3 23.04 C 0 km/h
2442 24-08-2010 17:00:00 23.22 C 4.7 g/m*3 23.22 C 0 km/h
2443 24-08-2010 18:00:00 22.92 C 5.11 g/m*3 22.92 C 0 km/h
2444 24-08-2010 19:00:00 21.68 C 5.18 g/m*3 21.68 C 0 km/h
2445 24-08-2010 20:00:00 19.76 C 5.79 g/m*3 19.76 C 0 km/h
2446 24-08-2010 21:00:00 18.28 C 6.12 g/m*3 18.28 C 0 km/h
2447 24-08-2010 22:00:00 17.4 C 6.28 g/m*3 17.4 C 0 km/h
2448 24-08-2010 23:00:00 16.78 C 6.43 g/m*3 16.78 C 0 km/h
2449 25-08-2010 00:00:00 16.16 C 6.55 g/m*3 16.16 C 0 km/h
2450 25-08-2010 01:00:00 15.52 C 6.8 g/m*3 15.52 C 0 km/h
Sensor: Nr:Datum:Temp:Abs-Feuchte:Windchill:Wind:
Aussen-T/F 2451 25-08-2010 02:00:00 14.66 C 7.11 g/m*3 14.66 C 0 km/h
2452 25-08-2010 03:00:00 13.76 C 7.56 g/m*3 13.76 C 0 km/h
2453 25-08-2010 04:00:00 13.4 C 7.7 g/m*3 13.4 C 0 km/h
2454 25-08-2010 05:00:00 13.38 C 7.52 g/m*3 13.38 C 0 km/h
2455 25-08-2010 06:00:00 12.94 C 7.71 g/m*3 12.94 C 0 km/h
2456 25-08-2010 07:00:00 12.76 C 7.84 g/m*3 12.76 C 0 km/h
2457 25-08-2010 08:00:00 13.54 C 7.86 g/m*3 13.54 C 0 km/h
2458 25-08-2010 09:00:00 14.92 C 7.91 g/m*3 14.92 C 0 km/h
2459 25-08-2010 10:00:00 16.3 C 7.8 g/m*3 16.3 C 0 km/h
2460 25-08-2010 11:00:00 17.9 C 7.82 g/m*3 17.9 C 0 km/h
2461 25-08-2010 12:00:00 20 C 7.19 g/m*3 20 C 0 km/h
2462 25-08-2010 13:00:00 20.82 C 6.67 g/m*3 20.82 C 0 km/h
2463 25-08-2010 14:00:00 21.46 C 6.43 g/m*3 21.46 C 0 km/h
2464 25-08-2010 15:00:00 23.54 C 6.1 g/m*3 23.54 C 0 km/h
2465 25-08-2010 16:00:00 24.46 C 5.67 g/m*3 24.46 C 0 km/h
2466 25-08-2010 17:00:00 23.2 C 6.65 g/m*3 23.2 C 0 km/h
2467 25-08-2010 18:00:00 21.9 C 7.1 g/m*3 21.9 C 0 km/h
2468 25-08-2010 19:00:00 20.22 C 7.91 g/m*3 20.22 C 0 km/h
2469 25-08-2010 20:00:00 19.04 C 8.23 g/m*3 19.04 C 0 km/h
2470 25-08-2010 21:00:00 18.12 C 8.35 g/m*3 18.12 C 0 km/h
2471 25-08-2010 22:00:00 17.56 C 8.5 g/m*3 17.56 C 0 km/h
2472 25-08-2010 23:00:00 17.3 C 8.81 g/m*3 17.3 C 0 km/h
2473 26-08-2010 00:00:00 17.28 C 9.06 g/m*3 17.28 C 0 km/h
2474 26-08-2010 01:00:00 17.48 C 9.11 g/m*3 17.48 C 0 km/h
2475 26-08-2010 02:00:00 16.88 C 9.97 g/m*3 16.88 C 0 km/h
Sensor: Nr:Datum:Temp:Abs-Feuchte:Windchill:Wind:
Aussen-T/F 2476 26-08-2010 03:00:00 16.86 C 10.04 g/m*3 16.86 C 0 km/h
2477 26-08-2010 04:00:00 16.94 C 9.86 g/m*3 16.94 C 0 km/h
2478 26-08-2010 05:00:00 18.28 C 10.31 g/m*3 18.28 C 0 km/h
2479 26-08-2010 06:00:00 18.18 C 10.53 g/m*3 18.18 C 0 km/h
2480 26-08-2010 07:00:00 19.26 C 10.69 g/m*3 19.26 C 0 km/h
2481 26-08-2010 08:00:00 20.2 C 11.12 g/m*3 20.2 C 0 km/h
2482 26-08-2010 09:00:00 21.52 C 11.33 g/m*3 21.52 C 0 km/h
2483 26-08-2010 10:00:00 22.76 C 11.19 g/m*3 22.76 C 0 km/h
2484 26-08-2010 11:00:00 23.76 C 11.16 g/m*3 23.76 C 0 km/h
2485 26-08-2010 12:00:00 23.54 C 11.15 g/m*3 23.54 C 0 km/h
2486 26-08-2010 13:00:00 22.96 C 11.2 g/m*3 22.96 C 0 km/h
2487 26-08-2010 14:00:00 23.8 C 11.19 g/m*3 23.8 C 0 km/h
2488 26-08-2010 15:00:00 23.68 C 11.32 g/m*3 23.68 C 0 km/h
2489 26-08-2010 16:00:00 23.94 C 11.28 g/m*3 23.94 C 0 km/h
2490 26-08-2010 17:00:00 23.62 C 11.29 g/m*3 23.62 C 0 km/h
2491 26-08-2010 18:00:00 23.18 C 11.67 g/m*3 23.18 C 0 km/h
2492 26-08-2010 19:00:00 21.66 C 13.36 g/m*3 21.66 C 0 km/h
2493 26-08-2010 20:00:00 20.94 C 14.49 g/m*3 20.94 C 0 km/h
2494 26-08-2010 21:00:00 20.42 C 14.03 g/m*3 20.42 C 0 km/h
2495 26-08-2010 22:00:00 19.76 C 14.62 g/m*3 19.76 C 0 km/h
2496 26-08-2010 23:00:00 19.44 C 14.95 g/m*3 19.44 C 0 km/h
2497 27-08-2010 00:00:00 18.98 C 14.91 g/m*3 18.98 C 0 km/h
2498 27-08-2010 01:00:00 18.76 C 14.97 g/m*3 18.76 C 0 km/h
2499 27-08-2010 02:00:00 18.62 C 14.98 g/m*3 18.62 C 0 km/h
2500 27-08-2010 03:00:00 18.38 C 14.77 g/m*3 18.38 C 0 km/h
Sensor: Nr:Datum:Temp:Abs-Feuchte:Windchill:Wind:
Aussen-T/F 2501 27-08-2010 04:00:00 18.34 C 14.73 g/m*3 18.34 C 0 km/h
2502 27-08-2010 05:00:00 18.4 C 14.88 g/m*3 18.4 C 0 km/h
2503 27-08-2010 06:00:00 18.82 C 15.32 g/m*3 18.82 C 0 km/h
2504 27-08-2010 07:00:00 18.68 C 15.03 g/m*3 18.68 C 0 km/h
2505 27-08-2010 08:00:00 18.58 C 14.94 g/m*3 18.58 C 0 km/h
2506 27-08-2010 09:00:00 19.26 C 15.06 g/m*3 19.26 C 0 km/h
2507 27-08-2010 10:00:00 19.32 C 14.35 g/m*3 19.32 C 0 km/h
2508 27-08-2010 11:00:00 18.16 C 13.58 g/m*3 18.16 C 0 km/h
2509 27-08-2010 12:00:00 20.1 C 13.52 g/m*3 20.1 C 0 km/h
2510 27-08-2010 13:00:00 22.92 C 12.6 g/m*3 22.92 C 0 km/h
2511 27-08-2010 14:00:00 20.76 C 12.07 g/m*3 20.76 C 0 km/h
2512 27-08-2010 15:00:00 18.92 C 13.49 g/m*3 18.92 C 0 km/h
2513 27-08-2010 16:00:00 21.9 C 12.89 g/m*3 21.9 C 0 km/h
2514 27-08-2010 17:00:00 21.3 C 11.71 g/m*3 21.3 C 0 km/h
2515 27-08-2010 18:00:00 16.8 C 12.01 g/m*3 16.8 C 0 km/h
2516 27-08-2010 19:00:00 15.64 C 10.93 g/m*3 15.64 C 0 km/h
2517 27-08-2010 20:00:00 15.12 C 10.44 g/m*3 15.12 C 0 km/h
2518 27-08-2010 21:00:00 14.58 C 10.17 g/m*3 14.58 C 0 km/h
2519 27-08-2010 22:00:00 14.74 C 10.02 g/m*3 14.74 C 0 km/h
2520 27-08-2010 23:00:00 13.96 C 9.34 g/m*3 13.96 C 0 km/h
2521 28-08-2010 00:00:00 13.78 C 9.21 g/m*3 13.78 C 0 km/h
2522 28-08-2010 01:00:00 13.1 C 9.88 g/m*3 13.1 C 0 km/h
2523 28-08-2010 02:00:00 13.14 C 9.82 g/m*3 13.14 C 0 km/h
2524 28-08-2010 03:00:00 13.1 C 9.56 g/m*3 13.1 C 0 km/h
2525 28-08-2010 04:00:00 12.54 C 9.3 g/m*3 12.54 C 0 km/h
Sensor: Nr:Datum:Temp:Abs-Feuchte:Windchill:Wind:
Aussen-T/F 2526 28-08-2010 05:00:00 12.12 C 9.15 g/m*3 12.12 C 0 km/h
2527 28-08-2010 06:00:00 11.58 C 8.76 g/m*3 11.58 C 0 km/h
2528 28-08-2010 07:00:00 11.72 C 8.88 g/m*3 11.72 C 0 km/h
2529 28-08-2010 08:00:00 13.08 C 8.94 g/m*3 13.08 C 0 km/h
2530 28-08-2010 09:00:00 14.22 C 8.58 g/m*3 14.22 C 0 km/h
2531 28-08-2010 10:00:00 15.14 C 8.35 g/m*3 15.14 C 0 km/h
2532 28-08-2010 11:00:00 16.44 C 7.81 g/m*3 16.44 C 0 km/h
2533 28-08-2010 12:00:00 15.42 C 8.71 g/m*3 15.42 C 0 km/h
2534 28-08-2010 13:00:00 16.24 C 10.62 g/m*3 16.24 C 0 km/h
2535 28-08-2010 14:00:00 15.6 C 7.69 g/m*3 15.6 C 0 km/h
2536 28-08-2010 15:00:00 16.72 C 7.46 g/m*3 16.72 C 0 km/h
2537 28-08-2010 16:00:00 15.1 C 8.08 g/m*3 15.1 C 0 km/h
2538 28-08-2010 17:00:00 15.6 C 8.67 g/m*3 15.6 C 0 km/h
2539 28-08-2010 18:00:00 17.56 C 7.42 g/m*3 17.56 C 0 km/h
2540 28-08-2010 19:00:00 15.26 C 8.34 g/m*3 15.26 C 0 km/h
2541 28-08-2010 20:00:00 13.1 C 9.04 g/m*3 13.1 C 0 km/h
2542 28-08-2010 21:00:00 12.46 C 9.12 g/m*3 12.46 C 0 km/h
2543 28-08-2010 22:00:00 12.24 C 8.96 g/m*3 12.24 C 0 km/h
2544 28-08-2010 23:00:00 12.36 C 8.72 g/m*3 12.36 C 0 km/h
2545 29-08-2010 00:00:00 11.9 C 8.47 g/m*3 11.9 C 0 km/h
2546 29-08-2010 01:00:00 11.5 C 8.45 g/m*3 11.5 C 0 km/h
2547 29-08-2010 02:00:00 11.74 C 8.54 g/m*3 11.74 C 0 km/h
2548 29-08-2010 03:00:00 11.76 C 8.48 g/m*3 11.76 C 0 km/h
2549 29-08-2010 04:00:00 11.5 C 8.39 g/m*3 11.5 C 0 km/h
2550 29-08-2010 05:00:00 11.74 C 8.33 g/m*3 11.74 C 0 km/h
Sensor: Nr:Datum:Temp:Abs-Feuchte:Windchill:Wind:
Aussen-T/F 2551 29-08-2010 06:00:00 12.1 C 8.3 g/m*3 12.1 C 0 km/h
2552 29-08-2010 07:00:00 12.2 C 8.33 g/m*3 12.2 C 0 km/h
2553 29-08-2010 08:00:00 12.44 C 8.35 g/m*3 12.44 C 0 km/h
2554 29-08-2010 09:00:00 14 C 8.18 g/m*3 14 C 0 km/h
2555 29-08-2010 10:00:00 15.4 C 8.04 g/m*3 15.4 C 0 km/h
2556 29-08-2010 11:00:00 16.26 C 7.92 g/m*3 16.26 C 0 km/h
2557 29-08-2010 12:00:00 15.12 C 9.04 g/m*3 15.12 C 0 km/h
2558 29-08-2010 13:00:00 16.04 C 8.71 g/m*3 16.04 C 0 km/h
2559 29-08-2010 14:00:00 16.46 C 8.4 g/m*3 16.46 C 0 km/h
2560 29-08-2010 15:00:00 15.08 C 8.92 g/m*3 15.08 C 0 km/h
2561 29-08-2010 16:00:00 15.76 C 8.51 g/m*3 15.76 C 0 km/h
2562 29-08-2010 17:00:00 14.96 C 8.31 g/m*3 14.96 C 0 km/h
2563 29-08-2010 18:00:00 13.06 C 9.31 g/m*3 13.06 C 0 km/h
2564 29-08-2010 19:00:00 12 C 9.29 g/m*3 12 C 0 km/h
2565 29-08-2010 20:00:00 11.78 C 8.96 g/m*3 11.78 C 0 km/h
2566 29-08-2010 21:00:00 11.64 C 8.71 g/m*3 11.64 C 0 km/h
2567 29-08-2010 22:00:00 9.2 C 8.02 g/m*3 9.2 C 0 km/h
2568 29-08-2010 23:00:00 9.12 C 8.16 g/m*3 9.12 C 0 km/h
2569 30-08-2010 00:00:00 9.2 C 7.98 g/m*3 9.2 C 0 km/h
2570 30-08-2010 01:00:00 9.94 C 7.84 g/m*3 9.94 C 0 km/h
2571 30-08-2010 02:00:00 10.52 C 7.77 g/m*3 10.52 C 0 km/h
2572 30-08-2010 03:00:00 10.82 C 7.66 g/m*3 10.82 C 0 km/h
2573 30-08-2010 04:00:00 10.26 C 7.99 g/m*3 10.26 C 0 km/h
2574 30-08-2010 05:00:00 9.62 C 8.02 g/m*3 9.62 C 0 km/h
2575 30-08-2010 06:00:00 10.06 C 8.47 g/m*3 10.06 C 0 km/h
Sensor: Nr:Datum:Temp:Abs-Feuchte:Windchill:Wind:
Aussen-T/F 2576 30-08-2010 07:00:00 9.96 C 8.4 g/m*3 9.96 C 0 km/h
2577 30-08-2010 08:00:00 10.82 C 8.63 g/m*3 10.82 C 0 km/h
2578 30-08-2010 09:00:00 10.98 C 8.64 g/m*3 10.98 C 0 km/h
2579 30-08-2010 10:00:00 11.86 C 8.83 g/m*3 11.86 C 0 km/h
2580 30-08-2010 11:00:00 13 C 8.32 g/m*3 13 C 0 km/h
2581 30-08-2010 12:00:00 14.02 C 7.63 g/m*3 14.02 C 0 km/h
2582 30-08-2010 13:00:00 16.04 C 6.77 g/m*3 16.04 C 0 km/h
2583 30-08-2010 14:00:00 16.28 C 7.73 g/m*3 16.28 C 0 km/h
2584 30-08-2010 15:00:00 17.48 C 7.8 g/m*3 17.48 C 0 km/h
2585 30-08-2010 16:00:00 15.86 C 9.16 g/m*3 15.86 C 0 km/h
2586 30-08-2010 17:00:00 15.04 C 9.23 g/m*3 15.04 C 0 km/h
2587 30-08-2010 18:00:00 14.32 C 8.76 g/m*3 14.32 C 0 km/h
2588 30-08-2010 19:00:00 14.04 C 8.97 g/m*3 14.04 C 0 km/h
2589 30-08-2010 20:00:00 13.76 C 8.72 g/m*3 13.76 C 0 km/h
2590 30-08-2010 21:00:00 12.72 C 9.56 g/m*3 12.72 C 0 km/h
2591 30-08-2010 22:00:00 12.72 C 9.92 g/m*3 12.72 C 0 km/h
2592 30-08-2010 23:00:00 12.3 C 9.69 g/m*3 12.3 C 0 km/h
2593 31-08-2010 00:00:00 12.22 C 9.62 g/m*3 12.22 C 0 km/h
2594 31-08-2010 01:00:00 12.42 C 9.45 g/m*3 12.42 C 0 km/h
2595 31-08-2010 02:00:00 12.36 C 9.31 g/m*3 12.36 C 0 km/h
2596 31-08-2010 03:00:00 12.1 C 9.07 g/m*3 12.1 C 0 km/h
2597 31-08-2010 04:00:00 11.52 C 9.06 g/m*3 11.52 C 0 km/h
2598 31-08-2010 05:00:00 11.38 C 9.04 g/m*3 11.38 C 0 km/h
2599 31-08-2010 06:00:00 11.7 C 9.22 g/m*3 11.7 C 0 km/h
2600 31-08-2010 07:00:00 12.2 C 9.09 g/m*3 12.2 C 0 km/h
Sensor: Nr:Datum:Temp:Abs-Feuchte:Windchill:Wind:
Aussen-T/F 2601 31-08-2010 08:00:00 12.64 C 9.07 g/m*3 12.64 C 0 km/h
2602 31-08-2010 09:00:00 13.58 C 8.86 g/m*3 13.58 C 0 km/h
2603 31-08-2010 10:00:00 14.14 C 8.35 g/m*3 14.14 C 0 km/h
2604 31-08-2010 11:00:00 15.6 C 8.09 g/m*3 15.6 C 0 km/h
2605 31-08-2010 12:00:00 16.88 C 7.93 g/m*3 16.88 C 0 km/h
2606 31-08-2010 13:00:00 17.96 C 6.99 g/m*3 17.96 C 0 km/h
2607 31-08-2010 14:00:00 20.16 C 6.45 g/m*3 20.16 C 0 km/h
2608 31-08-2010 15:00:00 21.2 C 5.86 g/m*3 21.2 C 0 km/h
2609 31-08-2010 16:00:00 21.46 C 5.64 g/m*3 21.46 C 0 km/h
2610 31-08-2010 17:00:00 21.82 C 5.57 g/m*3 21.82 C 0 km/h
2611 31-08-2010 18:00:00 22.26 C 5.67 g/m*3 22.26 C 0 km/h
2612 31-08-2010 19:00:00 20.32 C 6.55 g/m*3 20.32 C 0 km/h
2613 31-08-2010 20:00:00 16.38 C 7.17 g/m*3 16.38 C 0 km/h
2614 31-08-2010 21:00:00 14.44 C 7.61 g/m*3 14.44 C 0 km/h
2615 31-08-2010 22:00:00 13.24 C 8.1 g/m*3 13.24 C 0 km/h
2616 31-08-2010 23:00:00 12.32 C 8.09 g/m*3 12.32 C 0 km/h
2617 01-09-2010 00:00:00 11.58 C 8.08 g/m*3 11.58 C 0 km/h
2618 01-09-2010 01:00:00 10.98 C 8.1 g/m*3 10.98 C 0 km/h
2619 01-09-2010 02:00:00 10.36 C 7.96 g/m*3 10.36 C 0 km/h
2620 01-09-2010 03:00:00 9.74 C 7.97 g/m*3 9.74 C 0 km/h
2621 01-09-2010 04:00:00 9.14 C 7.86 g/m*3 9.14 C 0 km/h
2622 01-09-2010 05:00:00 8.92 C 7.95 g/m*3 8.92 C 0 km/h
2623 01-09-2010 06:00:00 8.94 C 8.04 g/m*3 8.94 C 0 km/h
2624 01-09-2010 07:00:00 9.02 C 7.98 g/m*3 9.02 C 0 km/h
2625 01-09-2010 08:00:00 9.26 C 8.05 g/m*3 9.26 C 0 km/h
Sensor: Nr:Datum:Temp:Abs-Feuchte:Windchill:Wind:
Aussen-T/F 2626 01-09-2010 09:00:00 10.22 C 8.14 g/m*3 10.22 C 0 km/h
2627 01-09-2010 10:00:00 12.1 C 8.56 g/m*3 12.1 C 0 km/h
2628 01-09-2010 11:00:00 14.26 C 8.78 g/m*3 14.26 C 0 km/h
2629 01-09-2010 12:00:00 17.24 C 8.54 g/m*3 17.24 C 0 km/h
2630 01-09-2010 13:00:00 19.52 C 7.96 g/m*3 19.52 C 0 km/h
2631 01-09-2010 14:00:00 21.18 C 7.03 g/m*3 21.18 C 0 km/h
2632 01-09-2010 15:00:00 23.6 C 6 g/m*3 23.6 C 0 km/h
2633 01-09-2010 16:00:00 23.8 C 6.02 g/m*3 23.8 C 0 km/h
2634 01-09-2010 17:00:00 22.04 C 6.38 g/m*3 22.04 C 0 km/h
2635 01-09-2010 18:00:00 21.1 C 6.96 g/m*3 21.1 C 0 km/h
2636 01-09-2010 19:00:00 19.62 C 7.88 g/m*3 19.62 C 0 km/h
2637 01-09-2010 20:00:00 17.36 C 8.72 g/m*3 17.36 C 0 km/h
2638 01-09-2010 21:00:00 16.24 C 8.85 g/m*3 16.24 C 0 km/h
2639 01-09-2010 22:00:00 15.55 C 8.82 g/m*3 15.55 C 0 km/h
2640 01-09-2010 23:00:00 14.16 C 8.28 g/m*3 14.16 C 0 km/h
2641 02-09-2010 00:00:00 13.02 C 8.22 g/m*3 13.02 C 0 km/h
2642 02-09-2010 01:00:00 12.32 C 8.37 g/m*3 12.32 C 0 km/h
2643 02-09-2010 02:00:00 11.6 C 8.56 g/m*3 11.6 C 0 km/h
2644 02-09-2010 03:00:00 11 C 8.31 g/m*3 11 C 0 km/h
2645 02-09-2010 04:00:00 10.44 C 8.29 g/m*3 10.44 C 0 km/h
2646 02-09-2010 05:00:00 10.32 C 8.5 g/m*3 10.32 C 0 km/h
2647 02-09-2010 06:00:00 10.34 C 8.6 g/m*3 10.34 C 0 km/h
2648 02-09-2010 07:00:00 10.68 C 8.81 g/m*3 10.68 C 0 km/h
2649 02-09-2010 08:00:00 11.34 C 8.96 g/m*3 11.34 C 0 km/h
2650 02-09-2010 09:00:00 12.4 C 8.98 g/m*3 12.4 C 0 km/h
Sensor: Nr:Datum:Temp:Abs-Feuchte:Windchill:Wind:
Aussen-T/F 2651 02-09-2010 10:00:00 14.02 C 8.65 g/m*3 14.02 C 0 km/h
2652 02-09-2010 11:00:00 15.46 C 9.02 g/m*3 15.46 C 0 km/h
2653 02-09-2010 12:00:00 18.66 C 8.75 g/m*3 18.66 C 0 km/h
2654 02-09-2010 13:00:00 20.84 C 7.37 g/m*3 20.84 C 0 km/h
2655 02-09-2010 14:00:00 22.2 C 7.22 g/m*3 22.2 C 0 km/h
2656 02-09-2010 15:00:00 21.42 C 6.91 g/m*3 21.42 C 0 km/h
2657 02-09-2010 16:00:00 20.6 C 6.91 g/m*3 20.6 C 0 km/h
2658 02-09-2010 17:00:00 19.54 C 7.13 g/m*3 19.54 C 0 km/h
2659 02-09-2010 18:00:00 18.66 C 7.41 g/m*3 18.66 C 0 km/h
2660 02-09-2010 19:00:00 17.64 C 8.93 g/m*3 17.64 C 0 km/h
2661 02-09-2010 20:00:00 15.14 C 10.01 g/m*3 15.14 C 0 km/h
2662 02-09-2010 21:00:00 14.42 C 9.85 g/m*3 14.42 C 0 km/h
2663 02-09-2010 22:00:00 13.84 C 9.34 g/m*3 13.84 C 0 km/h
2664 02-09-2010 23:00:00 12.98 C 9.2 g/m*3 12.98 C 0 km/h
2665 03-09-2010 00:00:00 12.42 C 9.1 g/m*3 12.42 C 0 km/h
2666 03-09-2010 01:00:00 11.82 C 8.92 g/m*3 11.82 C 0 km/h
2667 03-09-2010 02:00:00 11.24 C 8.76 g/m*3 11.24 C 0 km/h
2668 03-09-2010 03:00:00 10.72 C 8.63 g/m*3 10.72 C 0 km/h
2669 03-09-2010 04:00:00 10.34 C 8.6 g/m*3 10.34 C 0 km/h
2670 03-09-2010 05:00:00 10.4 C 8.75 g/m*3 10.4 C 0 km/h
2671 03-09-2010 06:00:00 11.08 C 9.24 g/m*3 11.08 C 0 km/h
2672 03-09-2010 07:00:00 11.36 C 9.32 g/m*3 11.36 C 0 km/h
2673 03-09-2010 08:00:00 11.64 C 9.34 g/m*3 11.64 C 0 km/h
2674 03-09-2010 09:00:00 12.44 C 9.29 g/m*3 12.44 C 0 km/h
2675 03-09-2010 10:00:00 13.58 C 9.22 g/m*3 13.58 C 0 km/h
Sensor: Nr:Datum:Temp:Abs-Feuchte:Windchill:Wind:
Aussen-T/F 2676 03-09-2010 11:00:00 15.9 C 8.94 g/m*3 15.9 C 0 km/h
2677 03-09-2010 12:00:00 17.86 C 8.47 g/m*3 17.86 C 0 km/h
2678 03-09-2010 13:00:00 19.68 C 8.18 g/m*3 19.68 C 0 km/h
2679 03-09-2010 14:00:00 20.4 C 7.64 g/m*3 20.4 C 0 km/h
2680 03-09-2010 15:00:00 22.78 C 7.02 g/m*3 22.78 C 0 km/h
2681 03-09-2010 16:00:00 25.12 C 6.58 g/m*3 25.12 C 0 km/h
2682 03-09-2010 17:00:00 24.12 C 6.53 g/m*3 24.12 C 0 km/h
2683 03-09-2010 18:00:00 22.7 C 8.12 g/m*3 22.7 C 0 km/h
2684 03-09-2010 19:00:00 20.7 C 8.86 g/m*3 20.7 C 0 km/h
2685 03-09-2010 20:00:00 18.62 C 8.25 g/m*3 18.62 C 0 km/h
2686 03-09-2010 21:00:00 16.32 C 8.56 g/m*3 16.32 C 0 km/h
2687 03-09-2010 22:00:00 15.36 C 8.86 g/m*3 15.36 C 0 km/h
2688 03-09-2010 23:00:00 15.34 C 9.22 g/m*3 15.34 C 0 km/h
2689 04-09-2010 00:00:00 15.1 C 9.29 g/m*3 15.1 C 0 km/h
2690 04-09-2010 01:00:00 14.82 C 9.41 g/m*3 14.82 C 0 km/h
2691 04-09-2010 02:00:00 14.28 C 9.4 g/m*3 14.28 C 0 km/h
2692 04-09-2010 03:00:00 13.72 C 9.41 g/m*3 13.72 C 0 km/h
2693 04-09-2010 04:00:00 13.2 C 9.48 g/m*3 13.2 C 0 km/h
2694 04-09-2010 05:00:00 13.1 C 9.59 g/m*3 13.1 C 0 km/h
2695 04-09-2010 06:00:00 12.54 C 9.3 g/m*3 12.54 C 0 km/h
2696 04-09-2010 07:00:00 12.08 C 9.25 g/m*3 12.08 C 0 km/h
2697 04-09-2010 08:00:00 12.8 C 9.77 g/m*3 12.8 C 0 km/h
2698 04-09-2010 09:00:00 14.44 C 9.96 g/m*3 14.44 C 0 km/h
2699 04-09-2010 10:00:00 16.3 C 9.49 g/m*3 16.3 C 0 km/h
2700 04-09-2010 11:00:00 18.88 C 8.77 g/m*3 18.88 C 0 km/h
Sensor: Nr:Datum:Temp:Abs-Feuchte:Windchill:Wind:
Aussen-T/F 2701 04-09-2010 12:00:00 18.86 C 7.89 g/m*3 18.86 C 0 km/h
2702 04-09-2010 13:00:00 19.58 C 7.62 g/m*3 19.58 C 0 km/h
2703 04-09-2010 14:00:00 22.2 C 6.71 g/m*3 22.2 C 0 km/h
2704 04-09-2010 15:00:00 22.88 C 6.29 g/m*3 22.88 C 0 km/h
2705 04-09-2010 16:00:00 22.42 C 5.53 g/m*3 22.42 C 0 km/h
2706 04-09-2010 17:00:00 23.12 C 4.88 g/m*3 23.12 C 0 km/h
2707 04-09-2010 18:00:00 22.74 C 4.37 g/m*3 22.74 C 0 km/h
2708 04-09-2010 19:00:00 19.74 C 5.55 g/m*3 19.74 C 0 km/h
2709 04-09-2010 20:00:00 16.14 C 6.54 g/m*3 16.14 C 0 km/h
2710 04-09-2010 21:00:00 14.92 C 6.94 g/m*3 14.92 C 0 km/h
2711 04-09-2010 22:00:00 14.16 C 7.26 g/m*3 14.16 C 0 km/h
2712 04-09-2010 23:00:00 13.12 C 7.59 g/m*3 13.12 C 0 km/h
2713 05-09-2010 00:00:00 12.16 C 7.62 g/m*3 12.16 C 0 km/h
2714 05-09-2010 01:00:00 11.22 C 7.53 g/m*3 11.22 C 0 km/h
2715 05-09-2010 02:00:00 10.44 C 7.52 g/m*3 10.44 C 0 km/h
2716 05-09-2010 03:00:00 9.72 C 7.4 g/m*3 9.72 C 0 km/h
2717 05-09-2010 04:00:00 9.12 C 7.27 g/m*3 9.12 C 0 km/h
2718 05-09-2010 05:00:00 8.64 C 7.27 g/m*3 8.64 C 0 km/h
2719 05-09-2010 06:00:00 8.08 C 7.25 g/m*3 8.08 C 0 km/h
2720 05-09-2010 07:00:00 8.4 C 7.52 g/m*3 8.4 C 0 km/h
2721 05-09-2010 08:00:00 9.82 C 7.91 g/m*3 9.82 C 0 km/h
2722 05-09-2010 09:00:00 11.1 C 7.88 g/m*3 11.1 C 0 km/h
2723 05-09-2010 10:00:00 12.36 C 8.44 g/m*3 12.36 C 0 km/h
2724 05-09-2010 11:00:00 15.42 C 8.16 g/m*3 15.42 C 0 km/h
2725 05-09-2010 12:00:00 18.02 C 6.52 g/m*3 18.02 C 0 km/h
Sensor: Nr:Datum:Temp:Abs-Feuchte:Windchill:Wind:
Aussen-T/F 2726 05-09-2010 13:00:00 20.14 C 5.92 g/m*3 20.14 C 0 km/h
2727 05-09-2010 14:00:00 23.5 C 5.2 g/m*3 23.5 C 0 km/h
2728 05-09-2010 15:00:00 24.16 C 4.83 g/m*3 24.16 C 0 km/h
2729 05-09-2010 16:00:00 24.4 C 4.67 g/m*3 24.4 C 0 km/h
2730 05-09-2010 17:00:00 24.6 C 5.04 g/m*3 24.6 C 0 km/h
2731 05-09-2010 18:00:00 24.84 C 5.29 g/m*3 24.84 C 0 km/h
2732 05-09-2010 19:00:00 19.38 C 6.4 g/m*3 19.38 C 0 km/h
2733 05-09-2010 20:00:00 16.44 C 6.38 g/m*3 16.44 C 0 km/h
2734 05-09-2010 21:00:00 14.9 C 6.81 g/m*3 14.9 C 0 km/h
2735 05-09-2010 22:00:00 14.12 C 7.1 g/m*3 14.12 C 0 km/h
2736 05-09-2010 23:00:00 13.94 C 6.92 g/m*3 13.94 C 0 km/h
2737 06-09-2010 00:00:00 13.22 C 7.08 g/m*3 13.22 C 0 km/h
2738 06-09-2010 01:00:00 12.36 C 7.11 g/m*3 12.36 C 0 km/h
2739 06-09-2010 02:00:00 11.62 C 7.2 g/m*3 11.62 C 0 km/h
2740 06-09-2010 03:00:00 11.1 C 7.15 g/m*3 11.1 C 0 km/h
2741 06-09-2010 04:00:00 10.7 C 7.09 g/m*3 10.7 C 0 km/h
2742 06-09-2010 05:00:00 10.24 C 7.02 g/m*3 10.24 C 0 km/h
2743 06-09-2010 06:00:00 9.56 C 7 g/m*3 9.56 C 0 km/h
2744 06-09-2010 07:00:00 9.28 C 7.07 g/m*3 9.28 C 0 km/h
2745 06-09-2010 08:00:00 9.68 C 7.22 g/m*3 9.68 C 0 km/h
2746 06-09-2010 09:00:00 10.94 C 7.52 g/m*3 10.94 C 0 km/h
2747 06-09-2010 10:00:00 13.48 C 7.52 g/m*3 13.48 C 0 km/h
2748 06-09-2010 11:00:00 16.32 C 7.14 g/m*3 16.32 C 0 km/h
2749 06-09-2010 12:00:00 18.64 C 5.58 g/m*3 18.64 C 0 km/h
2750 06-09-2010 13:00:00 20.24 C 5.4 g/m*3 20.24 C 0 km/h
Sensor: Nr:Datum:Temp:Abs-Feuchte:Windchill:Wind:
Aussen-T/F 2751 06-09-2010 14:00:00 22.34 C 4.51 g/m*3 22.34 C 0 km/h
2752 06-09-2010 15:00:00 24 C 4.35 g/m*3 24 C 0 km/h
2753 06-09-2010 16:00:00 23.88 C 4.32 g/m*3 23.88 C 0 km/h
2754 06-09-2010 17:00:00 24.42 C 4.46 g/m*3 24.42 C 0 km/h
2755 06-09-2010 18:00:00 21.44 C 5.34 g/m*3 21.44 C 0 km/h
2756 06-09-2010 19:00:00 18.72 C 5.87 g/m*3 18.72 C 0 km/h
2757 06-09-2010 20:00:00 17.1 C 5.62 g/m*3 17.1 C 0 km/h
2758 06-09-2010 21:00:00 16.22 C 5.44 g/m*3 16.22 C 0 km/h
2759 06-09-2010 22:00:00 15.5 C 5.6 g/m*3 15.5 C 0 km/h
2760 06-09-2010 23:00:00 15.2 C 5.63 g/m*3 15.2 C 0 km/h
2761 07-09-2010 00:00:00 15.38 C 5.51 g/m*3 15.38 C 0 km/h
2762 07-09-2010 01:00:00 15.42 C 5.39 g/m*3 15.42 C 0 km/h
2763 07-09-2010 02:00:00 15.46 C 5.38 g/m*3 15.46 C 0 km/h
2764 07-09-2010 03:00:00 14.34 C 6.03 g/m*3 14.34 C 0 km/h
2765 07-09-2010 04:00:00 13.06 C 7.01 g/m*3 13.06 C 0 km/h
2766 07-09-2010 05:00:00 12.98 C 7.11 g/m*3 12.98 C 0 km/h
2767 07-09-2010 06:00:00 12.5 C 7.04 g/m*3 12.5 C 0 km/h
2768 07-09-2010 07:00:00 12.12 C 7.09 g/m*3 12.12 C 0 km/h
2769 07-09-2010 08:00:00 11.56 C 8.11 g/m*3 11.56 C 0 km/h
2770 07-09-2010 09:00:00 11.46 C 8.41 g/m*3 11.46 C 0 km/h
2771 07-09-2010 10:00:00 11.46 C 8.88 g/m*3 11.46 C 0 km/h
2772 07-09-2010 11:00:00 11.64 C 9.21 g/m*3 11.64 C 0 km/h
2773 07-09-2010 12:00:00 12.42 C 9.5 g/m*3 12.42 C 0 km/h
2774 07-09-2010 13:00:00 12.78 C 9.31 g/m*3 12.78 C 0 km/h
2775 07-09-2010 14:00:00 13.36 C 9.37 g/m*3 13.36 C 0 km/h
Sensor: Nr:Datum:Temp:Abs-Feuchte:Windchill:Wind:
Aussen-T/F 2776 07-09-2010 15:00:00 14.58 C 9.12 g/m*3 14.58 C 0 km/h
2777 07-09-2010 16:00:00 15.52 C 9.11 g/m*3 15.52 C 0 km/h
2778 07-09-2010 17:00:00 14.88 C 9.06 g/m*3 14.88 C 0 km/h
2779 07-09-2010 18:00:00 13.98 C 9.08 g/m*3 13.98 C 0 km/h
2780 07-09-2010 19:00:00 13.78 C 9.38 g/m*3 13.78 C 0 km/h
2781 07-09-2010 20:00:00 13.24 C 9.55 g/m*3 13.24 C 0 km/h
2782 07-09-2010 21:00:00 12.96 C 9.89 g/m*3 12.96 C 0 km/h
2783 07-09-2010 22:00:00 12.86 C 10.03 g/m*3 12.86 C 0 km/h
2784 07-09-2010 23:00:00 12.92 C 10.16 g/m*3 12.92 C 0 km/h
2785 08-09-2010 00:00:00 12.88 C 10.24 g/m*3 12.88 C 0 km/h
2786 08-09-2010 01:00:00 13 C 10.37 g/m*3 13 C 0 km/h
2787 08-09-2010 02:00:00 13.2 C 10.61 g/m*3 13.2 C 0 km/h
2788 08-09-2010 03:00:00 13.56 C 10.92 g/m*3 13.56 C 0 km/h
2789 08-09-2010 04:00:00 13.56 C 10.92 g/m*3 13.56 C 0 km/h
2790 08-09-2010 05:00:00 14.16 C 11.4 g/m*3 14.16 C 0 km/h
2791 08-09-2010 06:00:00 14.36 C 11.44 g/m*3 14.36 C 0 km/h
2792 08-09-2010 07:00:00 14.22 C 11.25 g/m*3 14.22 C 0 km/h
2793 08-09-2010 08:00:00 14.22 C 11.25 g/m*3 14.22 C 0 km/h
2794 08-09-2010 09:00:00 15.22 C 11.62 g/m*3 15.22 C 0 km/h
2795 08-09-2010 10:00:00 15.52 C 11.41 g/m*3 15.52 C 0 km/h
2796 08-09-2010 11:00:00 15.24 C 11.03 g/m*3 15.24 C 0 km/h
2797 08-09-2010 12:00:00 14.74 C 11.26 g/m*3 14.74 C 0 km/h
2798 08-09-2010 13:00:00 16.22 C 12.12 g/m*3 16.22 C 0 km/h
2799 08-09-2010 14:00:00 17.58 C 11.56 g/m*3 17.58 C 0 km/h
2800 08-09-2010 15:00:00 17.94 C 11.17 g/m*3 17.94 C 0 km/h
Sensor: Nr:Datum:Temp:Abs-Feuchte:Windchill:Wind:
Aussen-T/F 2801 08-09-2010 16:00:00 18.54 C 10.69 g/m*3 18.54 C 0 km/h
2802 08-09-2010 17:00:00 19.88 C 10.23 g/m*3 19.88 C 0 km/h
2803 08-09-2010 18:00:00 19.06 C 10.24 g/m*3 19.06 C 0 km/h
2804 08-09-2010 19:00:00 18.2 C 10.54 g/m*3 18.2 C 0 km/h
2805 08-09-2010 20:00:00 16.8 C 10.52 g/m*3 16.8 C 0 km/h
2806 08-09-2010 21:00:00 15.72 C 9.7 g/m*3 15.72 C 0 km/h
2807 08-09-2010 22:00:00 14.78 C 9.79 g/m*3 14.78 C 0 km/h
2808 08-09-2010 23:00:00 14.48 C 10.01 g/m*3 14.48 C 0 km/h
2809 09-09-2010 00:00:00 14.38 C 10.2 g/m*3 14.38 C 0 km/h
2810 09-09-2010 01:00:00 15.04 C 10.08 g/m*3 15.04 C 0 km/h
2811 09-09-2010 02:00:00 15.14 C 9.93 g/m*3 15.14 C 0 km/h
2812 09-09-2010 03:00:00 15.32 C 9.78 g/m*3 15.32 C 0 km/h
2813 09-09-2010 04:00:00 15.22 C 9.33 g/m*3 15.22 C 0 km/h
2814 09-09-2010 05:00:00 14.9 C 9.02 g/m*3 14.9 C 0 km/h
2815 09-09-2010 06:00:00 14.78 C 8.88 g/m*3 14.78 C 0 km/h
2816 09-09-2010 07:00:00 14.58 C 9.07 g/m*3 14.58 C 0 km/h
2817 09-09-2010 08:00:00 14.8 C 9.1 g/m*3 14.8 C 0 km/h
2818 09-09-2010 09:00:00 15.26 C 9.09 g/m*3 15.26 C 0 km/h
2819 09-09-2010 10:00:00 16.76 C 9.1 g/m*3 16.76 C 0 km/h
2820 09-09-2010 11:00:00 17.78 C 8.88 g/m*3 17.78 C 0 km/h
2821 09-09-2010 12:00:00 18.64 C 8.17 g/m*3 18.64 C 0 km/h
2822 09-09-2010 13:00:00 18.8 C 8.21 g/m*3 18.8 C 0 km/h
2823 09-09-2010 14:00:00 18.98 C 8.59 g/m*3 18.98 C 0 km/h
2824 09-09-2010 15:00:00 19.38 C 9.13 g/m*3 19.38 C 0 km/h
2825 09-09-2010 16:00:00 17.1 C 10.92 g/m*3 17.1 C 0 km/h
Sensor: Nr:Datum:Temp:Abs-Feuchte:Windchill:Wind:
Aussen-T/F 2826 09-09-2010 17:00:00 17.92 C 11.62 g/m*3 17.92 C 0 km/h
2827 09-09-2010 18:00:00 17.7 C 10.47 g/m*3 17.7 C 0 km/h
2828 09-09-2010 19:00:00 16.54 C 9.46 g/m*3 16.54 C 0 km/h
2829 09-09-2010 20:00:00 15.4 C 9.78 g/m*3 15.4 C 0 km/h
2830 09-09-2010 21:00:00 14.8 C 10.26 g/m*3 14.8 C 0 km/h
2831 09-09-2010 22:00:00 14.74 C 10.17 g/m*3 14.74 C 0 km/h
2832 09-09-2010 23:00:00 14.98 C 9.71 g/m*3 14.98 C 0 km/h
2833 10-09-2010 00:00:00 14.66 C 9.92 g/m*3 14.66 C 0 km/h
2834 10-09-2010 01:00:00 14 C 9.77 g/m*3 14 C 0 km/h
2835 10-09-2010 02:00:00 13.9 C 9.95 g/m*3 13.9 C 0 km/h
2836 10-09-2010 03:00:00 13.9 C 10.07 g/m*3 13.9 C 0 km/h
2837 10-09-2010 04:00:00 13.84 C 10.25 g/m*3 13.84 C 0 km/h
2838 10-09-2010 05:00:00 13.06 C 9.99 g/m*3 13.06 C 0 km/h
2839 10-09-2010 06:00:00 13.12 C 10.24 g/m*3 13.12 C 0 km/h
2840 10-09-2010 07:00:00 13.18 C 9.84 g/m*3 13.18 C 0 km/h
2841 10-09-2010 08:00:00 13.32 C 9.95 g/m*3 13.32 C 0 km/h
2842 10-09-2010 09:00:00 14.6 C 9.54 g/m*3 14.6 C 0 km/h
2843 10-09-2010 10:00:00 16.16 C 9.35 g/m*3 16.16 C 0 km/h
2844 10-09-2010 11:00:00 17.88 C 9.21 g/m*3 17.88 C 0 km/h
2845 10-09-2010 12:00:00 18.74 C 9.18 g/m*3 18.74 C 0 km/h
2846 10-09-2010 13:00:00 19.18 C 8.66 g/m*3 19.18 C 0 km/h
2847 10-09-2010 14:00:00 19.94 C 8.75 g/m*3 19.94 C 0 km/h
2848 10-09-2010 15:00:00 20.82 C 8.59 g/m*3 20.82 C 0 km/h
2849 10-09-2010 16:00:00 21.1 C 8.44 g/m*3 21.1 C 0 km/h
2850 10-09-2010 17:00:00 20.18 C 8.98 g/m*3 20.18 C 0 km/h
Sensor: Nr:Datum:Temp:Abs-Feuchte:Windchill:Wind:
Aussen-T/F 2851 10-09-2010 18:00:00 17.86 C 10.21 g/m*3 17.86 C 0 km/h
2852 10-09-2010 19:00:00 16.26 C 11.43 g/m*3 16.26 C 0 km/h
2853 10-09-2010 20:00:00 15.68 C 11.57 g/m*3 15.68 C 0 km/h
2854 10-09-2010 21:00:00 15.8 C 11.68 g/m*3 15.8 C 0 km/h
2855 10-09-2010 22:00:00 15.68 C 11.44 g/m*3 15.68 C 0 km/h
2856 10-09-2010 23:00:00 15.46 C 11.18 g/m*3 15.46 C 0 km/h
2857 11-09-2010 00:00:00 15.14 C 10.86 g/m*3 15.14 C 0 km/h
2858 11-09-2010 01:00:00 15 C 10.8 g/m*3 15 C 0 km/h
2859 11-09-2010 02:00:00 14.74 C 10.73 g/m*3 14.74 C 0 km/h
2860 11-09-2010 03:00:00 14.08 C 10.42 g/m*3 14.08 C 0 km/h
2861 11-09-2010 04:00:00 13.14 C 9.86 g/m*3 13.14 C 0 km/h
2862 11-09-2010 05:00:00 12.64 C 9.78 g/m*3 12.64 C 0 km/h
2863 11-09-2010 06:00:00 12.74 C 9.91 g/m*3 12.74 C 0 km/h
2864 11-09-2010 07:00:00 12.16 C 9.54 g/m*3 12.16 C 0 km/h
2865 11-09-2010 08:00:00 13.04 C 10.23 g/m*3 13.04 C 0 km/h
2866 11-09-2010 09:00:00 13.76 C 10.55 g/m*3 13.76 C 0 km/h
2867 11-09-2010 10:00:00 15.66 C 11.32 g/m*3 15.66 C 0 km/h
2868 11-09-2010 11:00:00 18.24 C 11.37 g/m*3 18.24 C 0 km/h
2869 11-09-2010 12:00:00 19.9 C 9.59 g/m*3 19.9 C 0 km/h
2870 11-09-2010 13:00:00 21.76 C 8.81 g/m*3 21.76 C 0 km/h
2871 11-09-2010 14:00:00 24.2 C 8.14 g/m*3 24.2 C 0 km/h
2872 11-09-2010 15:00:00 26.04 C 7.86 g/m*3 26.04 C 0 km/h
2873 11-09-2010 16:00:00 26.34 C 8.19 g/m*3 26.34 C 0 km/h
2874 11-09-2010 17:00:00 27.62 C 8.31 g/m*3 27.62 C 0 km/h
2875 11-09-2010 18:00:00 26.06 C 9.28 g/m*3 26.06 C 0 km/h
Sensor: Nr:Datum:Temp:Abs-Feuchte:Windchill:Wind:
Aussen-T/F 2876 11-09-2010 19:00:00 21.76 C 9.72 g/m*3 21.76 C 0 km/h
2877 11-09-2010 20:00:00 19.34 C 9.51 g/m*3 19.34 C 0 km/h
2878 11-09-2010 21:00:00 18.1 C 10.01 g/m*3 18.1 C 0 km/h
2879 11-09-2010 22:00:00 17.2 C 10.28 g/m*3 17.2 C 0 km/h
2880 11-09-2010 23:00:00 16.56 C 10.4 g/m*3 16.56 C 0 km/h
2881 12-09-2010 00:00:00 16.06 C 10.42 g/m*3 16.06 C 0 km/h
2882 12-09-2010 01:00:00 15.34 C 10.34 g/m*3 15.34 C 0 km/h
2883 12-09-2010 02:00:00 14.88 C 10.39 g/m*3 14.88 C 0 km/h
2884 12-09-2010 03:00:00 14.46 C 10.2 g/m*3 14.46 C 0 km/h
2885 12-09-2010 04:00:00 14.1 C 10.07 g/m*3 14.1 C 0 km/h
2886 12-09-2010 05:00:00 13.76 C 9.98 g/m*3 13.76 C 0 km/h
2887 12-09-2010 06:00:00 13.52 C 9.93 g/m*3 13.52 C 0 km/h
2888 12-09-2010 07:00:00 13.7 C 10.14 g/m*3 13.7 C 0 km/h
2889 12-09-2010 08:00:00 14.26 C 10.3 g/m*3 14.26 C 0 km/h
2890 12-09-2010 09:00:00 14.84 C 10.51 g/m*3 14.84 C 0 km/h
2891 12-09-2010 10:00:00 16.94 C 11.16 g/m*3 16.94 C 0 km/h
2892 12-09-2010 11:00:00 20.02 C 10.69 g/m*3 20.02 C 0 km/h
2893 12-09-2010 12:00:00 21.62 C 10.75 g/m*3 21.62 C 0 km/h
2894 12-09-2010 13:00:00 24.4 C 9.84 g/m*3 24.4 C 0 km/h
2895 12-09-2010 14:00:00 23.86 C 9.2 g/m*3 23.86 C 0 km/h
2896 12-09-2010 15:00:00 19.32 C 8.87 g/m*3 19.32 C 0 km/h
2897 12-09-2010 16:00:00 17.78 C 9.19 g/m*3 17.78 C 0 km/h
2898 12-09-2010 17:00:00 16.2 C 9.68 g/m*3 16.2 C 0 km/h
2899 12-09-2010 18:00:00 14.92 C 10.59 g/m*3 14.92 C 0 km/h
2900 12-09-2010 19:00:00 14.26 C 10.79 g/m*3 14.26 C 0 km/h
Sensor: Nr:Datum:Temp:Abs-Feuchte:Windchill:Wind:
Aussen-T/F 2901 12-09-2010 20:00:00 13.82 C 10.81 g/m*3 13.82 C 0 km/h
2902 12-09-2010 21:00:00 13.78 C 10.97 g/m*3 13.78 C 0 km/h
2903 12-09-2010 22:00:00 13.78 C 11.07 g/m*3 13.78 C 0 km/h
2904 12-09-2010 23:00:00 13.58 C 10.93 g/m*3 13.58 C 0 km/h
2905 13-09-2010 00:00:00 13.68 C 11 g/m*3 13.68 C 0 km/h
2906 13-09-2010 01:00:00 13.7 C 11.01 g/m*3 13.7 C 0 km/h
2907 13-09-2010 02:00:00 13.52 C 10.89 g/m*3 13.52 C 0 km/h
2908 13-09-2010 03:00:00 13.26 C 10.58 g/m*3 13.26 C 0 km/h
2909 13-09-2010 04:00:00 13 C 10.21 g/m*3 13 C 0 km/h
2910 13-09-2010 05:00:00 13.26 C 9.77 g/m*3 13.26 C 0 km/h
2911 13-09-2010 06:00:00 13.3 C 9.57 g/m*3 13.3 C 0 km/h
2912 13-09-2010 07:00:00 12.72 C 9.18 g/m*3 12.72 C 0 km/h
2913 13-09-2010 08:00:00 13.04 C 9.62 g/m*3 13.04 C 0 km/h
2914 13-09-2010 09:00:00 13.98 C 9.47 g/m*3 13.98 C 0 km/h
2915 13-09-2010 10:00:00 15.32 C 9.05 g/m*3 15.32 C 0 km/h
2916 13-09-2010 11:00:00 16.5 C 8.57 g/m*3 16.5 C 0 km/h
2917 13-09-2010 12:00:00 17.24 C 7.93 g/m*3 17.24 C 0 km/h
2918 13-09-2010 13:00:00 18.94 C 7.53 g/m*3 18.94 C 0 km/h
2919 13-09-2010 14:00:00 20.18 C 6.95 g/m*3 20.18 C 0 km/h
2920 13-09-2010 15:00:00 20.8 C 7.1 g/m*3 20.8 C 0 km/h
2921 13-09-2010 16:00:00 21.56 C 6.93 g/m*3 21.56 C 0 km/h
2922 13-09-2010 17:00:00 20.48 C 7.96 g/m*3 20.48 C 0 km/h
2923 13-09-2010 18:00:00 18.22 C 8.62 g/m*3 18.22 C 0 km/h
2924 13-09-2010 19:00:00 16.92 C 8.55 g/m*3 16.92 C 0 km/h
2925 13-09-2010 20:00:00 15.24 C 8.9 g/m*3 15.24 C 0 km/h
Sensor: Nr:Datum:Temp:Abs-Feuchte:Windchill:Wind:
Aussen-T/F 2926 13-09-2010 21:00:00 14.52 C 8.97 g/m*3 14.52 C 0 km/h
2927 13-09-2010 22:00:00 13.7 C 8.86 g/m*3 13.7 C 0 km/h
2928 13-09-2010 23:00:00 13.14 C 8.85 g/m*3 13.14 C 0 km/h
2929 14-09-2010 00:00:00 12.82 C 9.2 g/m*3 12.82 C 0 km/h
2930 14-09-2010 01:00:00 12.8 C 9.27 g/m*3 12.8 C 0 km/h
2931 14-09-2010 02:00:00 13.1 C 9.33 g/m*3 13.1 C 0 km/h
2932 14-09-2010 03:00:00 13.36 C 9.23 g/m*3 13.36 C 0 km/h
2933 14-09-2010 04:00:00 12.94 C 9.42 g/m*3 12.94 C 0 km/h
2934 14-09-2010 05:00:00 12.96 C 9.84 g/m*3 12.96 C 0 km/h
2935 14-09-2010 06:00:00 13.9 C 9.28 g/m*3 13.9 C 0 km/h
2936 14-09-2010 07:00:00 14.06 C 8.93 g/m*3 14.06 C 0 km/h
2937 14-09-2010 08:00:00 14.1 C 9.32 g/m*3 14.1 C 0 km/h
2938 14-09-2010 09:00:00 15.16 C 9.06 g/m*3 15.16 C 0 km/h
2939 14-09-2010 10:00:00 16.1 C 9.07 g/m*3 16.1 C 0 km/h
2940 14-09-2010 11:00:00 17.06 C 9.15 g/m*3 17.06 C 0 km/h
2941 14-09-2010 12:00:00 18.44 C 9.18 g/m*3 18.44 C 0 km/h
2942 14-09-2010 13:00:00 19.98 C 9.22 g/m*3 19.98 C 0 km/h
2943 14-09-2010 14:00:00 19.66 C 8.84 g/m*3 19.66 C 0 km/h
2944 14-09-2010 15:00:00 20.4 C 8.63 g/m*3 20.4 C 0 km/h
2945 14-09-2010 16:00:00 20.68 C 7.88 g/m*3 20.68 C 0 km/h
2946 14-09-2010 17:00:00 20.14 C 7.46 g/m*3 20.14 C 0 km/h
2947 14-09-2010 18:00:00 19.34 C 7.81 g/m*3 19.34 C 0 km/h
2948 14-09-2010 19:00:00 18.8 C 7.73 g/m*3 18.8 C 0 km/h
2949 14-09-2010 20:00:00 18.6 C 7.7 g/m*3 18.6 C 0 km/h
2950 14-09-2010 21:00:00 18.54 C 7.77 g/m*3 18.54 C 0 km/h
Sensor: Nr:Datum:Temp:Abs-Feuchte:Windchill:Wind:
Aussen-T/F 2951 14-09-2010 22:00:00 18.5 C 7.83 g/m*3 18.5 C 0 km/h
2952 14-09-2010 23:00:00 18.22 C 7.91 g/m*3 18.22 C 0 km/h
2953 15-09-2010 00:00:00 18.02 C 7.87 g/m*3 18.02 C 0 km/h
2954 15-09-2010 01:00:00 18.18 C 7.67 g/m*3 18.18 C 0 km/h
2955 15-09-2010 02:00:00 18.32 C 7.64 g/m*3 18.32 C 0 km/h
2956 15-09-2010 03:00:00 18.06 C 8.23 g/m*3 18.06 C 0 km/h
2957 15-09-2010 04:00:00 17.7 C 9.11 g/m*3 17.7 C 0 km/h
2958 15-09-2010 05:00:00 15 C 9.75 g/m*3 15 C 0 km/h
2959 15-09-2010 06:00:00 12.78 C 10.09 g/m*3 12.78 C 0 km/h
2960 15-09-2010 07:00:00 12.74 C 10.29 g/m*3 12.74 C 0 km/h
2961 15-09-2010 08:00:00 12.7 C 10.35 g/m*3 12.7 C 0 km/h
2962 15-09-2010 09:00:00 12.92 C 10.36 g/m*3 12.92 C 0 km/h
2963 15-09-2010 10:00:00 14.06 C 9.95 g/m*3 14.06 C 0 km/h
2964 15-09-2010 11:00:00 15.02 C 8.86 g/m*3 15.02 C 0 km/h
2965 15-09-2010 12:00:00 16.5 C 7.02 g/m*3 16.5 C 0 km/h
2966 15-09-2010 13:00:00 17.24 C 6.31 g/m*3 17.24 C 0 km/h
2967 15-09-2010 14:00:00 18.38 C 5.66 g/m*3 18.38 C 0 km/h
2968 15-09-2010 15:00:00 19.52 C 5.75 g/m*3 19.52 C 0 km/h
2969 15-09-2010 16:00:00 19.52 C 5.98 g/m*3 19.52 C 0 km/h
2970 15-09-2010 17:00:00 19.68 C 5.8 g/m*3 19.68 C 0 km/h
2971 15-09-2010 18:00:00 17.84 C 5.32 g/m*3 17.84 C 0 km/h
2972 15-09-2010 19:00:00 16.6 C 5.65 g/m*3 16.6 C 0 km/h
2973 15-09-2010 20:00:00 15.84 C 6.26 g/m*3 15.84 C 0 km/h
2974 15-09-2010 21:00:00 15.18 C 6.38 g/m*3 15.18 C 0 km/h
2975 15-09-2010 22:00:00 14.96 C 5.96 g/m*3 14.96 C 0 km/h
Sensor: Nr:Datum:Temp:Abs-Feuchte:Windchill:Wind:
Aussen-T/F 2976 15-09-2010 23:00:00 14.86 C 5.64 g/m*3 14.86 C 0 km/h
2977 16-09-2010 00:00:00 14.18 C 5.9 g/m*3 14.18 C 0 km/h
2978 16-09-2010 01:00:00 14.1 C 5.41 g/m*3 14.1 C 0 km/h
2979 16-09-2010 02:00:00 13.94 C 5.79 g/m*3 13.94 C 0 km/h
2980 16-09-2010 03:00:00 13.84 C 6.71 g/m*3 13.84 C 0 km/h
2981 16-09-2010 04:00:00 13.58 C 6.98 g/m*3 13.58 C 0 km/h
2982 16-09-2010 05:00:00 13.36 C 7.26 g/m*3 13.36 C 0 km/h
2983 16-09-2010 06:00:00 12.44 C 8.08 g/m*3 12.44 C 0 km/h
2984 16-09-2010 07:00:00 11.78 C 8.68 g/m*3 11.78 C 0 km/h
2985 16-09-2010 08:00:00 11.86 C 8.83 g/m*3 11.86 C 0 km/h
2986 16-09-2010 09:00:00 12.64 C 9.25 g/m*3 12.64 C 0 km/h
2987 16-09-2010 10:00:00 14.12 C 8.65 g/m*3 14.12 C 0 km/h
2988 16-09-2010 11:00:00 15.26 C 8.23 g/m*3 15.26 C 0 km/h
2989 16-09-2010 12:00:00 17.02 C 7.68 g/m*3 17.02 C 0 km/h
2990 16-09-2010 13:00:00 17.32 C 7.17 g/m*3 17.32 C 0 km/h
2991 16-09-2010 14:00:00 15.28 C 8.71 g/m*3 15.28 C 0 km/h
2992 16-09-2010 15:00:00 17.22 C 9.15 g/m*3 17.22 C 0 km/h
2993 16-09-2010 16:00:00 16.36 C 8.49 g/m*3 16.36 C 0 km/h
2994 16-09-2010 17:00:00 15.3 C 9.51 g/m*3 15.3 C 0 km/h
2995 16-09-2010 18:00:00 14.9 C 8.95 g/m*3 14.9 C 0 km/h
2996 16-09-2010 19:00:00 13.42 C 9.68 g/m*3 13.42 C 0 km/h
2997 16-09-2010 20:00:00 12.84 C 10.02 g/m*3 12.84 C 0 km/h
2998 16-09-2010 21:00:00 12.62 C 10.08 g/m*3 12.62 C 0 km/h
2999 16-09-2010 22:00:00 12.2 C 9.58 g/m*3 12.2 C 0 km/h
3000 16-09-2010 23:00:00 12.1 C 9.29 g/m*3 12.1 C 0 km/h
Sensor: Nr:Datum:Temp:Abs-Feuchte:Windchill:Wind:
Aussen-T/F 3001 17-09-2010 00:00:00 12.16 C 9.24 g/m*3 12.16 C 0 km/h
3002 17-09-2010 01:00:00 12.06 C 9.26 g/m*3 12.06 C 0 km/h
3003 17-09-2010 02:00:00 11.96 C 9.29 g/m*3 11.96 C 0 km/h
3004 17-09-2010 03:00:00 12.06 C 8.94 g/m*3 12.06 C 0 km/h
3005 17-09-2010 04:00:00 11.94 C 8.73 g/m*3 11.94 C 0 km/h
3006 17-09-2010 05:00:00 11.2 C 8.23 g/m*3 11.2 C 0 km/h
3007 17-09-2010 06:00:00 10.6 C 8.59 g/m*3 10.6 C 0 km/h
3008 17-09-2010 07:00:00 10.02 C 8.15 g/m*3 10.02 C 0 km/h
3009 17-09-2010 08:00:00 10.22 C 7.66 g/m*3 10.22 C 0 km/h
3010 17-09-2010 09:00:00 10.86 C 7.28 g/m*3 10.86 C 0 km/h
3011 17-09-2010 10:00:00 12.06 C 7.55 g/m*3 12.06 C 0 km/h
3012 17-09-2010 11:00:00 13.72 C 7.56 g/m*3 13.72 C 0 km/h
3013 17-09-2010 12:00:00 15.7 C 6.58 g/m*3 15.7 C 0 km/h
3014 17-09-2010 13:00:00 16.66 C 5.9 g/m*3 16.66 C 0 km/h
3015 17-09-2010 14:00:00 17.62 C 5.29 g/m*3 17.62 C 0 km/h
3016 17-09-2010 15:00:00 17.48 C 5.06 g/m*3 17.48 C 0 km/h
3017 17-09-2010 16:00:00 19.06 C 4.94 g/m*3 19.06 C 0 km/h
3018 17-09-2010 17:00:00 19.46 C 4.45 g/m*3 19.46 C 0 km/h
3019 17-09-2010 18:00:00 16.66 C 6.1 g/m*3 16.66 C 0 km/h
3020 17-09-2010 19:00:00 15.24 C 6.69 g/m*3 15.24 C 0 km/h
3021 17-09-2010 20:00:00 14.26 C 7.06 g/m*3 14.26 C 0 km/h
3022 17-09-2010 21:00:00 13.48 C 7.15 g/m*3 13.48 C 0 km/h
3023 17-09-2010 22:00:00 13.34 C 6.72 g/m*3 13.34 C 0 km/h
3024 17-09-2010 23:00:00 12.58 C 6.81 g/m*3 12.58 C 0 km/h
3025 18-09-2010 00:00:00 12.12 C 6.94 g/m*3 12.12 C 0 km/h
Sensor: Nr:Datum:Temp:Abs-Feuchte:Windchill:Wind:
Aussen-T/F 3026 18-09-2010 01:00:00 10.9 C 7 g/m*3 10.9 C 0 km/h
3027 18-09-2010 02:00:00 10 C 7.2 g/m*3 10 C 0 km/h
3028 18-09-2010 03:00:00 9.38 C 7.3 g/m*3 9.38 C 0 km/h
3029 18-09-2010 04:00:00 8.54 C 7.19 g/m*3 8.54 C 0 km/h
3030 18-09-2010 05:00:00 7.94 C 7.18 g/m*3 7.94 C 0 km/h
3031 18-09-2010 06:00:00 7.62 C 7.36 g/m*3 7.62 C 0 km/h
3032 18-09-2010 07:00:00 7.5 C 7.3 g/m*3 7.5 C 0 km/h
3033 18-09-2010 08:00:00 7.46 C 7.23 g/m*3 7.46 C 0 km/h
3034 18-09-2010 09:00:00 8.12 C 7.55 g/m*3 8.12 C 0 km/h
3035 18-09-2010 10:00:00 10.2 C 8.18 g/m*3 10.2 C 0 km/h
3036 18-09-2010 11:00:00 13.46 C 6.65 g/m*3 13.46 C 0 km/h
3037 18-09-2010 12:00:00 15.14 C 5.92 g/m*3 15.14 C 0 km/h
3038 18-09-2010 13:00:00 15.6 C 5.43 g/m*3 15.6 C 0 km/h
3039 18-09-2010 14:00:00 15.26 C 4.77 g/m*3 15.26 C 0 km/h
3040 18-09-2010 15:00:00 16.3 C 4.58 g/m*3 16.3 C 0 km/h
3041 18-09-2010 16:00:00 16.22 C 4.86 g/m*3 16.22 C 0 km/h
3042 18-09-2010 17:00:00 15.86 C 5.73 g/m*3 15.86 C 0 km/h
3043 18-09-2010 18:00:00 15.66 C 6.06 g/m*3 15.66 C 0 km/h
3044 18-09-2010 19:00:00 13.26 C 6.08 g/m*3 13.26 C 0 km/h
3045 18-09-2010 20:00:00 11.08 C 6.6 g/m*3 11.08 C 0 km/h
3046 18-09-2010 21:00:00 10.02 C 6.62 g/m*3 10.02 C 0 km/h
3047 18-09-2010 22:00:00 8.98 C 6.69 g/m*3 8.98 C 0 km/h
3048 18-09-2010 23:00:00 8.2 C 6.77 g/m*3 8.2 C 0 km/h
3049 19-09-2010 00:00:00 7.56 C 6.72 g/m*3 7.56 C 0 km/h
3050 19-09-2010 01:00:00 6.92 C 6.54 g/m*3 6.92 C 0 km/h
Sensor: Nr:Datum:Temp:Abs-Feuchte:Windchill:Wind:
Aussen-T/F 3051 19-09-2010 02:00:00 6.44 C 6.53 g/m*3 6.44 C 0 km/h
3052 19-09-2010 03:00:00 6.42 C 6.57 g/m*3 6.42 C 0 km/h
3053 19-09-2010 04:00:00 6.2 C 6.5 g/m*3 6.2 C 0 km/h
3054 19-09-2010 05:00:00 6.04 C 6.42 g/m*3 6.04 C 0 km/h
3055 19-09-2010 06:00:00 5.76 C 6.33 g/m*3 5.76 C 0 km/h
3056 19-09-2010 07:00:00 6 C 6.46 g/m*3 6 C 0 km/h
3057 19-09-2010 08:00:00 6.96 C 6.79 g/m*3 6.96 C 0 km/h
3058 19-09-2010 09:00:00 8.12 C 6.98 g/m*3 8.12 C 0 km/h
3059 19-09-2010 10:00:00 10.72 C 6.69 g/m*3 10.72 C 0 km/h
3060 19-09-2010 11:00:00 12.92 C 6.27 g/m*3 12.92 C 0 km/h
3061 19-09-2010 12:00:00 14.94 C 5.67 g/m*3 14.94 C 0 km/h
3062 19-09-2010 13:00:00 16.12 C 5.54 g/m*3 16.12 C 0 km/h
3063 19-09-2010 14:00:00 17.38 C 5.68 g/m*3 17.38 C 0 km/h
3064 19-09-2010 15:00:00 18.62 C 5.45 g/m*3 18.62 C 0 km/h
3065 19-09-2010 16:00:00 19.04 C 5.29 g/m*3 19.04 C 0 km/h
3066 19-09-2010 17:00:00 18.78 C 5.69 g/m*3 18.78 C 0 km/h
3067 19-09-2010 18:00:00 17.08 C 5.99 g/m*3 17.08 C 0 km/h
3068 19-09-2010 19:00:00 15.78 C 5.97 g/m*3 15.78 C 0 km/h
3069 19-09-2010 20:00:00 14.46 C 6.3 g/m*3 14.46 C 0 km/h
3070 19-09-2010 21:00:00 13.96 C 6.62 g/m*3 13.96 C 0 km/h
3071 19-09-2010 22:00:00 13.32 C 6.78 g/m*3 13.32 C 0 km/h
3072 19-09-2010 23:00:00 12.28 C 6.77 g/m*3 12.28 C 0 km/h
3073 20-09-2010 00:00:00 11.68 C 6.87 g/m*3 11.68 C 0 km/h
3074 20-09-2010 01:00:00 10.44 C 6.78 g/m*3 10.44 C 0 km/h
3075 20-09-2010 02:00:00 9.84 C 6.88 g/m*3 9.84 C 0 km/h
Sensor: Nr:Datum:Temp:Abs-Feuchte:Windchill:Wind:
Aussen-T/F 3076 20-09-2010 03:00:00 9.64 C 7.02 g/m*3 9.64 C 0 km/h
3077 20-09-2010 04:00:00 8.98 C 6.89 g/m*3 8.98 C 0 km/h
3078 20-09-2010 05:00:00 8.32 C 6.89 g/m*3 8.32 C 0 km/h
3079 20-09-2010 06:00:00 8.48 C 7.03 g/m*3 8.48 C 0 km/h
3080 20-09-2010 07:00:00 8.52 C 7.1 g/m*3 8.52 C 0 km/h
3081 20-09-2010 08:00:00 9.18 C 6.87 g/m*3 9.18 C 0 km/h
3082 20-09-2010 09:00:00 9.84 C 6.92 g/m*3 9.84 C 0 km/h
3083 20-09-2010 10:00:00 12.4 C 7.21 g/m*3 12.4 C 0 km/h
3084 20-09-2010 11:00:00 14.62 C 6.99 g/m*3 14.62 C 0 km/h
3085 20-09-2010 12:00:00 16.26 C 6.34 g/m*3 16.26 C 0 km/h
3086 20-09-2010 13:00:00 18.02 C 6.12 g/m*3 18.02 C 0 km/h
3087 20-09-2010 14:00:00 20.02 C 5.81 g/m*3 20.02 C 0 km/h
3088 20-09-2010 15:00:00 21.42 C 5.86 g/m*3 21.42 C 0 km/h
3089 20-09-2010 16:00:00 22.46 C 6.22 g/m*3 22.46 C 0 km/h
3090 20-09-2010 17:00:00 22.28 C 6.11 g/m*3 22.28 C 0 km/h
3091 20-09-2010 18:00:00 21.3 C 6.67 g/m*3 21.3 C 0 km/h
3092 20-09-2010 19:00:00 17.5 C 7.19 g/m*3 17.5 C 0 km/h
3093 20-09-2010 20:00:00 15.34 C 7.54 g/m*3 15.34 C 0 km/h
3094 20-09-2010 21:00:00 14.2 C 7.72 g/m*3 14.2 C 0 km/h
3095 20-09-2010 22:00:00 13.22 C 8.07 g/m*3 13.22 C 0 km/h
3096 20-09-2010 23:00:00 12.28 C 8.05 g/m*3 12.28 C 0 km/h
3097 21-09-2010 00:00:00 11.52 C 7.88 g/m*3 11.52 C 0 km/h
3098 21-09-2010 01:00:00 10.9 C 7.8 g/m*3 10.9 C 0 km/h
3099 21-09-2010 02:00:00 10.24 C 7.69 g/m*3 10.24 C 0 km/h
3100 21-09-2010 03:00:00 9.74 C 7.71 g/m*3 9.74 C 0 km/h
Sensor: Nr:Datum:Temp:Abs-Feuchte:Windchill:Wind:
Aussen-T/F 3101 21-09-2010 04:00:00 9.22 C 7.51 g/m*3 9.22 C 0 km/h
3102 21-09-2010 05:00:00 8.78 C 7.46 g/m*3 8.78 C 0 km/h
3103 21-09-2010 06:00:00 8.34 C 7.37 g/m*3 8.34 C 0 km/h
3104 21-09-2010 07:00:00 8.14 C 7.34 g/m*3 8.14 C 0 km/h
3105 21-09-2010 08:00:00 8.26 C 7.53 g/m*3 8.26 C 0 km/h
3106 21-09-2010 09:00:00 9.18 C 7.97 g/m*3 9.18 C 0 km/h
3107 21-09-2010 10:00:00 11.12 C 8.71 g/m*3 11.12 C 0 km/h
3108 21-09-2010 11:00:00 14.12 C 8.65 g/m*3 14.12 C 0 km/h
3109 21-09-2010 12:00:00 16.14 C 8.99 g/m*3 16.14 C 0 km/h
3110 21-09-2010 13:00:00 17.02 C 9.65 g/m*3 17.02 C 0 km/h
3111 21-09-2010 14:00:00 17.82 C 9.48 g/m*3 17.82 C 0 km/h
3112 21-09-2010 15:00:00 23.12 C 8.2 g/m*3 23.12 C 0 km/h
3113 21-09-2010 16:00:00 25.16 C 7.62 g/m*3 25.16 C 0 km/h
3114 21-09-2010 17:00:00 24.6 C 7.56 g/m*3 24.6 C 0 km/h
3115 21-09-2010 18:00:00 22.18 C 7.88 g/m*3 22.18 C 0 km/h
3116 21-09-2010 19:00:00 18.64 C 8.36 g/m*3 18.64 C 0 km/h
3117 21-09-2010 20:00:00 16.3 C 8.52 g/m*3 16.3 C 0 km/h
3118 21-09-2010 21:00:00 15.06 C 8.49 g/m*3 15.06 C 0 km/h
3119 21-09-2010 22:00:00 13.9 C 8.51 g/m*3 13.9 C 0 km/h
3120 21-09-2010 23:00:00 12.98 C 8.54 g/m*3 12.98 C 0 km/h
3121 22-09-2010 00:00:00 12.2 C 8.55 g/m*3 12.2 C 0 km/h
3122 22-09-2010 01:00:00 11.5 C 8.41 g/m*3 11.5 C 0 km/h
3123 22-09-2010 02:00:00 10.78 C 8.15 g/m*3 10.78 C 0 km/h
3124 22-09-2010 03:00:00 10.22 C 8 g/m*3 10.22 C 0 km/h
3125 22-09-2010 04:00:00 9.72 C 7.94 g/m*3 9.72 C 0 km/h
Sensor: Nr:Datum:Temp:Abs-Feuchte:Windchill:Wind:
Aussen-T/F 3126 22-09-2010 05:00:00 9.84 C 8.15 g/m*3 9.84 C 0 km/h
3127 22-09-2010 06:00:00 9.78 C 8.15 g/m*3 9.78 C 0 km/h
3128 22-09-2010 07:00:00 9.56 C 8.04 g/m*3 9.56 C 0 km/h
3129 22-09-2010 08:00:00 9.36 C 7.96 g/m*3 9.36 C 0 km/h
3130 22-09-2010 09:00:00 10.18 C 8.15 g/m*3 10.18 C 0 km/h
3131 22-09-2010 10:00:00 12.42 C 8.64 g/m*3 12.42 C 0 km/h
3132 22-09-2010 11:00:00 13.78 C 9.19 g/m*3 13.78 C 0 km/h
3133 22-09-2010 12:00:00 16.54 C 9.97 g/m*3 16.54 C 0 km/h
3134 22-09-2010 13:00:00 19.76 C 10.09 g/m*3 19.76 C 0 km/h
3135 22-09-2010 14:00:00 22.86 C 10.07 g/m*3 22.86 C 0 km/h
3136 22-09-2010 15:00:00 25.06 C 9.29 g/m*3 25.06 C 0 km/h
3137 22-09-2010 16:00:00 27.32 C 8.59 g/m*3 27.32 C 0 km/h
3138 22-09-2010 17:00:00 27.06 C 8.16 g/m*3 27.06 C 0 km/h
3139 22-09-2010 18:00:00 24.88 C 9.1 g/m*3 24.88 C 0 km/h
3140 22-09-2010 19:00:00 20.88 C 9.2 g/m*3 20.88 C 0 km/h
3141 22-09-2010 20:00:00 18.54 C 9.1 g/m*3 18.54 C 0 km/h
3142 22-09-2010 21:00:00 17.46 C 9.31 g/m*3 17.46 C 0 km/h
3143 22-09-2010 22:00:00 16.18 C 9.26 g/m*3 16.18 C 0 km/h
3144 22-09-2010 23:00:00 14.92 C 8.78 g/m*3 14.92 C 0 km/h
3145 23-09-2010 00:00:00 14.02 C 8.65 g/m*3 14.02 C 0 km/h
3146 23-09-2010 01:00:00 13.22 C 8.71 g/m*3 13.22 C 0 km/h
3147 23-09-2010 02:00:00 12.44 C 8.7 g/m*3 12.44 C 0 km/h
3148 23-09-2010 03:00:00 11.8 C 8.57 g/m*3 11.8 C 0 km/h
3149 23-09-2010 04:00:00 11.16 C 8.39 g/m*3 11.16 C 0 km/h
3150 23-09-2010 05:00:00 10.64 C 8.22 g/m*3 10.64 C 0 km/h
Sensor: Nr:Datum:Temp:Abs-Feuchte:Windchill:Wind:
Aussen-T/F 3151 23-09-2010 06:00:00 10.46 C 8.2 g/m*3 10.46 C 0 km/h
3152 23-09-2010 07:00:00 10.52 C 8.25 g/m*3 10.52 C 0 km/h
3153 23-09-2010 08:00:00 10.88 C 8.42 g/m*3 10.88 C 0 km/h
3154 23-09-2010 09:00:00 11.64 C 8.65 g/m*3 11.64 C 0 km/h
3155 23-09-2010 10:00:00 12.98 C 9.24 g/m*3 12.98 C 0 km/h
3156 23-09-2010 11:00:00 15.64 C 10.08 g/m*3 15.64 C 0 km/h
3157 23-09-2010 12:00:00 18.66 C 10.61 g/m*3 18.66 C 0 km/h
3158 23-09-2010 13:00:00 22.3 C 10.7 g/m*3 22.3 C 0 km/h
3159 23-09-2010 14:00:00 24.06 C 10.22 g/m*3 24.06 C 0 km/h
3160 23-09-2010 15:00:00 25.04 C 9.37 g/m*3 25.04 C 0 km/h
3161 23-09-2010 16:00:00 25.14 C 9.88 g/m*3 25.14 C 0 km/h
3162 23-09-2010 17:00:00 23.48 C 10.73 g/m*3 23.48 C 0 km/h
3163 23-09-2010 18:00:00 22.12 C 10.63 g/m*3 22.12 C 0 km/h
3164 23-09-2010 19:00:00 19.9 C 11.06 g/m*3 19.9 C 0 km/h
3165 23-09-2010 20:00:00 18.5 C 11.3 g/m*3 18.5 C 0 km/h
3166 23-09-2010 21:00:00 18.5 C 11.49 g/m*3 18.5 C 0 km/h
3167 23-09-2010 22:00:00 17.94 C 11.82 g/m*3 17.94 C 0 km/h
3168 23-09-2010 23:00:00 16.44 C 12.26 g/m*3 16.44 C 0 km/h
3169 24-09-2010 00:00:00 15.7 C 12.18 g/m*3 15.7 C 0 km/h
3170 24-09-2010 01:00:00 15.54 C 12.3 g/m*3 15.54 C 0 km/h
3171 24-09-2010 02:00:00 15.38 C 12.15 g/m*3 15.38 C 0 km/h
3172 24-09-2010 03:00:00 14.94 C 11.91 g/m*3 14.94 C 0 km/h
3173 24-09-2010 04:00:00 14.78 C 11.89 g/m*3 14.78 C 0 km/h
3174 24-09-2010 05:00:00 14.54 C 11.72 g/m*3 14.54 C 0 km/h
3175 24-09-2010 06:00:00 14.7 C 11.83 g/m*3 14.7 C 0 km/h
Sensor: Nr:Datum:Temp:Abs-Feuchte:Windchill:Wind:
Aussen-T/F 3176 24-09-2010 07:00:00 14.4 C 11.62 g/m*3 14.4 C 0 km/h
3177 24-09-2010 08:00:00 14.58 C 11.82 g/m*3 14.58 C 0 km/h
3178 24-09-2010 09:00:00 14.88 C 12.07 g/m*3 14.88 C 0 km/h
3179 24-09-2010 10:00:00 14.98 C 12.06 g/m*3 14.98 C 0 km/h
3180 24-09-2010 11:00:00 15.22 C 12.22 g/m*3 15.22 C 0 km/h
3181 24-09-2010 12:00:00 15.14 C 12.18 g/m*3 15.14 C 0 km/h
3182 24-09-2010 13:00:00 14.56 C 11.73 g/m*3 14.56 C 0 km/h
3183 24-09-2010 14:00:00 13.54 C 11.02 g/m*3 13.54 C 0 km/h
3184 24-09-2010 15:00:00 13.08 C 10.8 g/m*3 13.08 C 0 km/h
3185 24-09-2010 16:00:00 13.8 C 11.32 g/m*3 13.8 C 0 km/h
3186 24-09-2010 17:00:00 13.48 C 11.03 g/m*3 13.48 C 0 km/h
3187 24-09-2010 18:00:00 13.26 C 10.83 g/m*3 13.26 C 0 km/h
3188 24-09-2010 19:00:00 12.84 C 10.64 g/m*3 12.84 C 0 km/h
3189 24-09-2010 20:00:00 12.7 C 10.58 g/m*3 12.7 C 0 km/h
3190 24-09-2010 21:00:00 12.82 C 10.65 g/m*3 12.82 C 0 km/h
3191 24-09-2010 22:00:00 12.7 C 10.58 g/m*3 12.7 C 0 km/h
3192 24-09-2010 23:00:00 12.4 C 10.38 g/m*3 12.4 C 0 km/h
3193 25-09-2010 00:00:00 12.48 C 10.43 g/m*3 12.48 C 0 km/h
3194 25-09-2010 01:00:00 12.52 C 10.46 g/m*3 12.52 C 0 km/h
3195 25-09-2010 02:00:00 12.6 C 10.51 g/m*3 12.6 C 0 km/h
3196 25-09-2010 03:00:00 12.62 C 10.52 g/m*3 12.62 C 0 km/h
3197 25-09-2010 04:00:00 12.54 C 10.47 g/m*3 12.54 C 0 km/h
3198 25-09-2010 05:00:00 12.38 C 10.35 g/m*3 12.38 C 0 km/h
3199 25-09-2010 06:00:00 12.06 C 10.06 g/m*3